<?xml version='1.0' encoding='UTF-8'?><gpx version="1.1" creator="JPX - https://github.com/jenetics/jpx" xmlns="http://www.topografix.com/GPX/1/1"><trk><trkseg><trkpt lat="44.15612800125963" lon="10.01805610876557"><ele>574.0</ele><time>2026-03-28T14:31:05.001Z</time></trkpt><trkpt lat="44.156190873097586" lon="10.017989974495018"><ele>574.0</ele><time>2026-03-28T14:31:08Z</time></trkpt><trkpt lat="44.15625495417161" lon="10.017946459688094"><ele>574.0</ele><time>2026-03-28T14:31:10Z</time></trkpt><trkpt lat="44.1563405235908" lon="10.017933588187894"><ele>574.0</ele><time>2026-03-28T14:31:14Z</time></trkpt><trkpt lat="44.15641696002482" lon="10.017965902140018"><ele>574.0</ele><time>2026-03-28T14:31:17Z</time></trkpt><trkpt lat="44.156484990494654" lon="10.017996326364878"><ele>574.0</ele><time>2026-03-28T14:31:19Z</time></trkpt><trkpt lat="44.156550399035424" lon="10.018024372379672"><ele>571.6666666666667</ele><time>2026-03-28T14:31:21Z</time></trkpt><trkpt lat="44.15661283907397" lon="10.018060431958755"><ele>569.3333333333334</ele><time>2026-03-28T14:31:23Z</time></trkpt><trkpt lat="44.15668997861578" lon="10.018090310452424"><ele>567.0</ele><time>2026-03-28T14:31:26Z</time></trkpt><trkpt lat="44.156763467090805" lon="10.018121245685363"><ele>564.6666666666666</ele><time>2026-03-28T14:31:29Z</time></trkpt><trkpt lat="44.15683915899163" lon="10.018172258629546"><ele>562.3333333333333</ele><time>2026-03-28T14:31:32Z</time></trkpt><trkpt lat="44.15692191376048" lon="10.018206573340168"><ele>560.0</ele><time>2026-03-28T14:31:35Z</time></trkpt><trkpt lat="44.156981795214065" lon="10.018236301503636"><ele>560.0</ele><time>2026-03-28T14:31:37Z</time></trkpt><trkpt lat="44.157063096603906" lon="10.018285308702884"><ele>560.0</ele><time>2026-03-28T14:31:40Z</time></trkpt><trkpt lat="44.15714230892552" lon="10.01834939821531"><ele>560.0</ele><time>2026-03-28T14:31:43Z</time></trkpt><trkpt lat="44.15720289822292" lon="10.018384159694456"><ele>560.0</ele><time>2026-03-28T14:31:45Z</time></trkpt><trkpt lat="44.15728896333958" lon="10.018392628164186"><ele>560.0</ele><time>2026-03-28T14:31:49Z</time></trkpt><trkpt lat="44.1573649087859" lon="10.018407378142502"><ele>560.0</ele><time>2026-03-28T14:31:52Z</time></trkpt><trkpt lat="44.15743144897315" lon="10.01852011643644"><ele>555.1666666666666</ele><time>2026-03-28T14:31:55Z</time></trkpt><trkpt lat="44.15745371953889" lon="10.018622164705562"><ele>550.3333333333333</ele><time>2026-03-28T14:31:58Z</time></trkpt><trkpt lat="44.157487751165604" lon="10.018741695642875"><ele>545.5</ele><time>2026-03-28T14:32:01.999Z</time></trkpt><trkpt lat="44.15751251394969" lon="10.018839450521563"><ele>540.6666666666666</ele><time>2026-03-28T14:32:03.999Z</time></trkpt><trkpt lat="44.15754999274006" lon="10.018927372971667"><ele>535.8333333333334</ele><time>2026-03-28T14:32:07.999Z</time></trkpt><trkpt lat="44.15759465447854" lon="10.01900546058862"><ele>531.0</ele><time>2026-03-28T14:32:10.999Z</time></trkpt><trkpt lat="44.15766302535438" lon="10.019082189346193"><ele>531.0</ele><time>2026-03-28T14:32:14.999Z</time></trkpt><trkpt lat="44.15773103814977" lon="10.019095997265984"><ele>531.0</ele><time>2026-03-28T14:32:17.999Z</time></trkpt><trkpt lat="44.15781244302049" lon="10.019106741935977"><ele>531.0</ele><time>2026-03-28T14:32:20.999Z</time></trkpt><trkpt lat="44.15786503700428" lon="10.019188517224503"><ele>531.0</ele><time>2026-03-28T14:32:24.999Z</time></trkpt><trkpt lat="44.15791612983935" lon="10.019282089566417"><ele>531.0</ele><time>2026-03-28T14:32:28.999Z</time></trkpt><trkpt lat="44.157985478424344" lon="10.019318880508731"><ele>531.0</ele><time>2026-03-28T14:32:32.999Z</time></trkpt><trkpt lat="44.15802258893192" lon="10.019391028899163"><ele>530.2857142857143</ele><time>2026-03-28T14:32:35.999Z</time></trkpt><trkpt lat="44.1580391459698" lon="10.019484842938615"><ele>529.5714285714287</ele><time>2026-03-28T14:32:40Z</time></trkpt><trkpt lat="44.15808278240352" lon="10.019574363324713"><ele>528.8571428571429</ele><time>2026-03-28T14:32:47Z</time></trkpt><trkpt lat="44.15812660727298" lon="10.019644707936918"><ele>528.1428571428571</ele><time>2026-03-28T14:32:51Z</time></trkpt><trkpt lat="44.15817147587904" lon="10.019720937889037"><ele>527.4285714285713</ele><time>2026-03-28T14:32:55Z</time></trkpt><trkpt lat="44.15821864887675" lon="10.019809283701326"><ele>526.7142857142857</ele><time>2026-03-28T14:32:59Z</time></trkpt><trkpt lat="44.15825604904296" lon="10.019895841312639"><ele>526.0</ele><time>2026-03-28T14:33:03Z</time></trkpt><trkpt lat="44.1582793015857" lon="10.019981278379724"><ele>522.5714285714286</ele><time>2026-03-28T14:33:07Z</time></trkpt><trkpt lat="44.158290561225705" lon="10.020070262358102"><ele>519.1428571428571</ele><time>2026-03-28T14:33:14Z</time></trkpt><trkpt lat="44.1582916054157" lon="10.02016107099524"><ele>515.7142857142857</ele><time>2026-03-28T14:33:17Z</time></trkpt><trkpt lat="44.158287272667" lon="10.020263548201852"><ele>512.2857142857142</ele><time>2026-03-28T14:33:21Z</time></trkpt><trkpt lat="44.1582619045383" lon="10.020366642830233"><ele>508.85714285714283</ele><time>2026-03-28T14:33:24Z</time></trkpt><trkpt lat="44.158285205229085" lon="10.020471945930339"><ele>505.42857142857133</ele><time>2026-03-28T14:33:27Z</time></trkpt><trkpt lat="44.158314930458346" lon="10.020560332678999"><ele>501.99999999999994</ele><time>2026-03-28T14:33:32Z</time></trkpt><trkpt lat="44.15834305803786" lon="10.02065111421714"><ele>502.00000000000006</ele><time>2026-03-28T14:33:35Z</time></trkpt><trkpt lat="44.15839220455949" lon="10.020738334830462"><ele>502.0</ele><time>2026-03-28T14:33:38Z</time></trkpt><trkpt lat="44.158454587734596" lon="10.020783307442986"><ele>502.0</ele><time>2026-03-28T14:33:40Z</time></trkpt><trkpt lat="44.158506087572476" lon="10.020840635752528"><ele>502.0</ele><time>2026-03-28T14:33:42Z</time></trkpt><trkpt lat="44.15856977839793" lon="10.020940158878359"><ele>502.00000000000006</ele><time>2026-03-28T14:33:45Z</time></trkpt><trkpt lat="44.158629626389626" lon="10.021034853778058"><ele>502.0</ele><time>2026-03-28T14:33:48Z</time></trkpt><trkpt lat="44.158662035195526" lon="10.021112929558917"><ele>502.33333333333337</ele><time>2026-03-28T14:33:50Z</time></trkpt><trkpt lat="44.1586806989046" lon="10.021199608006448"><ele>502.6666666666667</ele><time>2026-03-28T14:33:52Z</time></trkpt><trkpt lat="44.158737813827386" lon="10.021259277851708"><ele>503.0</ele><time>2026-03-28T14:33:54Z</time></trkpt><trkpt lat="44.158786544383275" lon="10.021352687734582"><ele>503.33333333333337</ele><time>2026-03-28T14:33:57Z</time></trkpt><trkpt lat="44.15883755901841" lon="10.021453357894897"><ele>503.6666666666667</ele><time>2026-03-28T14:34:00Z</time></trkpt><trkpt lat="44.15890696722865" lon="10.021497273883217"><ele>504.0</ele><time>2026-03-28T14:34:03Z</time></trkpt><trkpt lat="44.15896143550454" lon="10.021584935281766"><ele>504.0</ele><time>2026-03-28T14:34:06Z</time></trkpt><trkpt lat="44.15892266837047" lon="10.02166900066306"><ele>504.0</ele><time>2026-03-28T14:34:09Z</time></trkpt><trkpt lat="44.15887084895328" lon="10.021758436953474"><ele>504.0</ele><time>2026-03-28T14:34:13Z</time></trkpt><trkpt lat="44.158823494237055" lon="10.02182530622419"><ele>504.0</ele><time>2026-03-28T14:34:15.999Z</time></trkpt><trkpt lat="44.15876409381214" lon="10.021900660836554"><ele>504.0</ele><time>2026-03-28T14:34:18.999Z</time></trkpt><trkpt lat="44.15871138457024" lon="10.021950712220587"><ele>504.0</ele><time>2026-03-28T14:34:21.999Z</time></trkpt><trkpt lat="44.15865727530447" lon="10.022005614567458"><ele>504.0</ele><time>2026-03-28T14:34:24.999Z</time></trkpt><trkpt lat="44.15859588251944" lon="10.022077455821323"><ele>504.0</ele><time>2026-03-28T14:34:26.999Z</time></trkpt><trkpt lat="44.15854357173803" lon="10.022145107756248"><ele>504.0</ele><time>2026-03-28T14:34:29.999Z</time></trkpt><trkpt lat="44.15848136052391" lon="10.022195870140388"><ele>504.0</ele><time>2026-03-28T14:34:32.999Z</time></trkpt><trkpt lat="44.158435084599716" lon="10.02225631001231"><ele>504.0</ele><time>2026-03-28T14:34:36.999Z</time></trkpt><trkpt lat="44.15850606700497" lon="10.022335396782225"><ele>504.0</ele><time>2026-03-28T14:34:41.999Z</time></trkpt><trkpt lat="44.15858435127894" lon="10.022313002484543"><ele>504.0</ele><time>2026-03-28T14:34:44Z</time></trkpt><trkpt lat="44.15866001030655" lon="10.022327359668"><ele>504.0</ele><time>2026-03-28T14:34:46Z</time></trkpt><trkpt lat="44.15873339963797" lon="10.022340749808455"><ele>504.0</ele><time>2026-03-28T14:34:49Z</time></trkpt><trkpt lat="44.15881580792432" lon="10.022383311264699"><ele>504.0</ele><time>2026-03-28T14:34:52Z</time></trkpt><trkpt lat="44.15887023888003" lon="10.022428026711719"><ele>504.0</ele><time>2026-03-28T14:34:54Z</time></trkpt><trkpt lat="44.15891218683469" lon="10.022505672523975"><ele>504.0</ele><time>2026-03-28T14:34:56Z</time></trkpt><trkpt lat="44.15893480642277" lon="10.022600251541522"><ele>504.0</ele><time>2026-03-28T14:34:58Z</time></trkpt><trkpt lat="44.158937256218096" lon="10.022696186676889"><ele>504.0</ele><time>2026-03-28T14:35:00Z</time></trkpt><trkpt lat="44.15892899371411" lon="10.022784331080825"><ele>503.42857142857144</ele><time>2026-03-28T14:35:02Z</time></trkpt><trkpt lat="44.15893933756777" lon="10.022884824299686"><ele>502.8571428571429</ele><time>2026-03-28T14:35:04Z</time></trkpt><trkpt lat="44.15895326566025" lon="10.022976494888695"><ele>502.2857142857143</ele><time>2026-03-28T14:35:06Z</time></trkpt><trkpt lat="44.15895632240679" lon="10.02307647029273"><ele>501.7142857142857</ele><time>2026-03-28T14:35:08Z</time></trkpt><trkpt lat="44.15897013754188" lon="10.023169785941668"><ele>501.14285714285717</ele><time>2026-03-28T14:35:10Z</time></trkpt><trkpt lat="44.158976053033015" lon="10.023299088148068"><ele>500.57142857142856</ele><time>2026-03-28T14:35:13Z</time></trkpt><trkpt lat="44.1589937690154" lon="10.023387084602833"><ele>500.0</ele><time>2026-03-28T14:35:17Z</time></trkpt><trkpt lat="44.1589979102858" lon="10.02347616373988"><ele>501.42857142857144</ele><time>2026-03-28T14:35:19Z</time></trkpt><trkpt lat="44.15900855920228" lon="10.02356690235187"><ele>502.8571428571429</ele><time>2026-03-28T14:35:21Z</time></trkpt><trkpt lat="44.15901809677326" lon="10.023660691152934"><ele>504.28571428571433</ele><time>2026-03-28T14:35:23Z</time></trkpt><trkpt lat="44.15902165631326" lon="10.023757507415754"><ele>505.7142857142857</ele><time>2026-03-28T14:35:26Z</time></trkpt><trkpt lat="44.159018730908926" lon="10.023861369074886"><ele>507.1428571428572</ele><time>2026-03-28T14:35:30Z</time></trkpt><trkpt lat="44.15900072634983" lon="10.023956236003858"><ele>508.5714285714286</ele><time>2026-03-28T14:35:33Z</time></trkpt><trkpt lat="44.159032787953564" lon="10.024055112606357"><ele>510.0</ele><time>2026-03-28T14:35:36Z</time></trkpt><trkpt lat="44.15906788705924" lon="10.02413745199561"><ele>506.8571428571429</ele><time>2026-03-28T14:35:38Z</time></trkpt><trkpt lat="44.15910201137337" lon="10.024235162623553"><ele>503.7142857142858</ele><time>2026-03-28T14:35:40Z</time></trkpt><trkpt lat="44.15912370655036" lon="10.024331036349093"><ele>500.57142857142856</ele><time>2026-03-28T14:35:42Z</time></trkpt><trkpt lat="44.15915095380006" lon="10.024450882458"><ele>497.42857142857144</ele><time>2026-03-28T14:35:45Z</time></trkpt><trkpt lat="44.15916152297601" lon="10.024547154147914"><ele>494.2857142857143</ele><time>2026-03-28T14:35:47Z</time></trkpt><trkpt lat="44.15917591845475" lon="10.024635438787369"><ele>491.1428571428571</ele><time>2026-03-28T14:35:49Z</time></trkpt><trkpt lat="44.15920744723833" lon="10.024715867346927"><ele>487.99999999999994</ele><time>2026-03-28T14:35:51Z</time></trkpt><trkpt lat="44.15922914093559" lon="10.024804182317087"><ele>487.99999999999994</ele><time>2026-03-28T14:35:53Z</time></trkpt><trkpt lat="44.15927681186898" lon="10.024923571162358"><ele>488.0</ele><time>2026-03-28T14:35:57Z</time></trkpt><trkpt lat="44.159303601263375" lon="10.025032696917517"><ele>488.0</ele><time>2026-03-28T14:36:00Z</time></trkpt><trkpt lat="44.15929686028393" lon="10.025152228946203"><ele>488.0</ele><time>2026-03-28T14:36:03Z</time></trkpt><trkpt lat="44.159283606713025" lon="10.025257875291048"><ele>487.99999999999994</ele><time>2026-03-28T14:36:06Z</time></trkpt><trkpt lat="44.159287810867525" lon="10.025387814925669"><ele>488.0</ele><time>2026-03-28T14:36:09Z</time></trkpt><trkpt lat="44.1592774859464" lon="10.025504550166454"><ele>487.99999999999994</ele><time>2026-03-28T14:36:12Z</time></trkpt><trkpt lat="44.15925328517225" lon="10.025586976245918"><ele>488.0</ele><time>2026-03-28T14:36:15Z</time></trkpt><trkpt lat="44.159192645759234" lon="10.02567216963044"><ele>487.99999999999994</ele><time>2026-03-28T14:36:17.999Z</time></trkpt><trkpt lat="44.15915283875064" lon="10.0257464841595"><ele>487.99999999999994</ele><time>2026-03-28T14:36:20.999Z</time></trkpt><trkpt lat="44.159134871800276" lon="10.025851914754176"><ele>488.0</ele><time>2026-03-28T14:36:23.999Z</time></trkpt><trkpt lat="44.15910668168768" lon="10.025952219716897"><ele>487.99999999999994</ele><time>2026-03-28T14:36:26.999Z</time></trkpt><trkpt lat="44.159080268712096" lon="10.026032387392291"><ele>487.99999999999994</ele><time>2026-03-28T14:36:29.999Z</time></trkpt><trkpt lat="44.159058993043566" lon="10.026129359344965"><ele>485.99999999999994</ele><time>2026-03-28T14:36:32.999Z</time></trkpt><trkpt lat="44.159066273561535" lon="10.02623739205311"><ele>484.0</ele><time>2026-03-28T14:36:36.999Z</time></trkpt><trkpt lat="44.159133886214164" lon="10.026286513629227"><ele>482.0</ele><time>2026-03-28T14:36:47.999Z</time></trkpt><trkpt lat="44.15919861985748" lon="10.026246980997914"><ele>480.0</ele><time>2026-03-28T14:36:51Z</time></trkpt><trkpt lat="44.159261143765846" lon="10.02615986996215"><ele>477.99999999999994</ele><time>2026-03-28T14:36:55Z</time></trkpt><trkpt lat="44.15932270656895" lon="10.02612017222661"><ele>476.0</ele><time>2026-03-28T14:36:57Z</time></trkpt><trkpt lat="44.1593891251817" lon="10.026087701156"><ele>475.99999999999994</ele><time>2026-03-28T14:36:59Z</time></trkpt><trkpt lat="44.15946472230158" lon="10.026042350849028"><ele>476.0</ele><time>2026-03-28T14:37:02Z</time></trkpt><trkpt lat="44.15952501283427" lon="10.02595537784474"><ele>476.0</ele><time>2026-03-28T14:37:05Z</time></trkpt><trkpt lat="44.15958069755614" lon="10.025912858536394"><ele>476.0</ele><time>2026-03-28T14:37:07Z</time></trkpt><trkpt lat="44.15965687059659" lon="10.02589775000191"><ele>475.99999999999994</ele><time>2026-03-28T14:37:10Z</time></trkpt><trkpt lat="44.1597271921754" lon="10.02591588035851"><ele>476.0</ele><time>2026-03-28T14:37:12Z</time></trkpt><trkpt lat="44.1598008821779" lon="10.02595014121618"><ele>473.66666666666663</ele><time>2026-03-28T14:37:15Z</time></trkpt><trkpt lat="44.1598710797977" lon="10.025940258224512"><ele>471.3333333333333</ele><time>2026-03-28T14:37:17Z</time></trkpt><trkpt lat="44.159932817181705" lon="10.025880756057148"><ele>469.0</ele><time>2026-03-28T14:37:20Z</time></trkpt><trkpt lat="44.16000703862908" lon="10.025812777039034"><ele>466.66666666666663</ele><time>2026-03-28T14:37:23Z</time></trkpt><trkpt lat="44.16006424234095" lon="10.02570330813902"><ele>464.3333333333333</ele><time>2026-03-28T14:37:26Z</time></trkpt><trkpt lat="44.16009685112158" lon="10.025595441694685"><ele>462.0</ele><time>2026-03-28T14:37:29Z</time></trkpt><trkpt lat="44.16010104902042" lon="10.02549885596643"><ele>462.0</ele><time>2026-03-28T14:37:32Z</time></trkpt><trkpt lat="44.16010909630959" lon="10.02540056561637"><ele>462.0</ele><time>2026-03-28T14:37:35Z</time></trkpt><trkpt lat="44.160125576948175" lon="10.025287929964692"><ele>462.0</ele><time>2026-03-28T14:37:38Z</time></trkpt><trkpt lat="44.16011252463681" lon="10.025172463680697"><ele>462.0</ele><time>2026-03-28T14:37:41Z</time></trkpt><trkpt lat="44.160105059775965" lon="10.025053624272585"><ele>462.0</ele><time>2026-03-28T14:37:44Z</time></trkpt><trkpt lat="44.1601499790734" lon="10.024972682944794"><ele>462.0</ele><time>2026-03-28T14:37:46Z</time></trkpt><trkpt lat="44.16022107199501" lon="10.024884506259792"><ele>461.5</ele><time>2026-03-28T14:37:49Z</time></trkpt><trkpt lat="44.160259741368996" lon="10.024801280987827"><ele>461.0</ele><time>2026-03-28T14:37:51Z</time></trkpt><trkpt lat="44.160323735526106" lon="10.024747710800765"><ele>460.5</ele><time>2026-03-28T14:37:53Z</time></trkpt><trkpt lat="44.160392794928754" lon="10.024722397692095"><ele>460.0</ele><time>2026-03-28T14:37:55Z</time></trkpt><trkpt lat="44.16045121980981" lon="10.024660566372475"><ele>459.5</ele><time>2026-03-28T14:37:57Z</time></trkpt><trkpt lat="44.16052788633973" lon="10.024586425705412"><ele>459.0</ele><time>2026-03-28T14:38:00Z</time></trkpt><trkpt lat="44.16061598965271" lon="10.024571130415527"><ele>459.0</ele><time>2026-03-28T14:38:03Z</time></trkpt><trkpt lat="44.16068558996566" lon="10.024541129699136"><ele>459.0</ele><time>2026-03-28T14:38:05Z</time></trkpt><trkpt lat="44.16076275219797" lon="10.02454625358698"><ele>459.0</ele><time>2026-03-28T14:38:08Z</time></trkpt><trkpt lat="44.16082649553497" lon="10.024559679360106"><ele>459.0</ele><time>2026-03-28T14:38:11Z</time></trkpt><trkpt lat="44.160906979722036" lon="10.024548415347404"><ele>459.0</ele><time>2026-03-28T14:38:14Z</time></trkpt><trkpt lat="44.160984163496046" lon="10.024531306284942"><ele>459.0</ele><time>2026-03-28T14:38:17.999Z</time></trkpt><trkpt lat="44.16106797796748" lon="10.024531860721492"><ele>456.3333333333333</ele><time>2026-03-28T14:38:22.999Z</time></trkpt><trkpt lat="44.161150642411485" lon="10.024551496105483"><ele>453.66666666666663</ele><time>2026-03-28T14:38:25.999Z</time></trkpt><trkpt lat="44.16118288375396" lon="10.02446632884547"><ele>451.0</ele><time>2026-03-28T14:38:28.999Z</time></trkpt><trkpt lat="44.1612395849744" lon="10.02437242200385"><ele>448.3333333333333</ele><time>2026-03-28T14:38:33.999Z</time></trkpt><trkpt lat="44.161325448802145" lon="10.024360533275775"><ele>445.66666666666663</ele><time>2026-03-28T14:38:47.999Z</time></trkpt><trkpt lat="44.16138862623224" lon="10.024404081705095"><ele>443.0</ele><time>2026-03-28T14:39:03Z</time></trkpt><trkpt lat="44.16144642470722" lon="10.024461145306143"><ele>443.0</ele><time>2026-03-28T14:39:10Z</time></trkpt><trkpt lat="44.16149981537658" lon="10.02451044382498"><ele>443.0</ele><time>2026-03-28T14:39:15Z</time></trkpt><trkpt lat="44.161566473927486" lon="10.02451128557263"><ele>443.0</ele><time>2026-03-28T14:39:20Z</time></trkpt><trkpt lat="44.161634430072525" lon="10.024461251573452"><ele>443.0</ele><time>2026-03-28T14:39:24Z</time></trkpt><trkpt lat="44.161669968684734" lon="10.024384699966818"><ele>443.0</ele><time>2026-03-28T14:39:29Z</time></trkpt><trkpt lat="44.161723578917616" lon="10.024327401509892"><ele>443.0</ele><time>2026-03-28T14:39:43Z</time></trkpt><trkpt lat="44.16177907602434" lon="10.024281964131832"><ele>443.0</ele><time>2026-03-28T14:39:57Z</time></trkpt><trkpt lat="44.161842571877095" lon="10.024227062124325"><ele>441.57142857142856</ele><time>2026-03-28T14:40:01Z</time></trkpt><trkpt lat="44.16189520113878" lon="10.024170519199362"><ele>440.14285714285717</ele><time>2026-03-28T14:40:07Z</time></trkpt><trkpt lat="44.161962801330525" lon="10.024156650328637"><ele>438.71428571428567</ele><time>2026-03-28T14:40:13Z</time></trkpt><trkpt lat="44.162025795867535" lon="10.024160386712458"><ele>437.2857142857143</ele><time>2026-03-28T14:40:22Z</time></trkpt><trkpt lat="44.16208945974922" lon="10.024183805790436"><ele>435.85714285714283</ele><time>2026-03-28T14:40:25.999Z</time></trkpt><trkpt lat="44.16215335547499" lon="10.024227719940942"><ele>434.4285714285714</ele><time>2026-03-28T14:40:31.999Z</time></trkpt><trkpt lat="44.16220233590212" lon="10.024286465570011"><ele>433.0</ele><time>2026-03-28T14:40:37.999Z</time></trkpt><trkpt lat="44.162233143321345" lon="10.024374516961569"><ele>432.99999999999994</ele><time>2026-03-28T14:42:32.999Z</time></trkpt><trkpt lat="44.16222062612111" lon="10.024467856883089"><ele>433.0</ele><time>2026-03-28T14:42:48.999Z</time></trkpt><trkpt lat="44.16216282915019" lon="10.024516091529392"><ele>433.0</ele><time>2026-03-28T14:42:55.999Z</time></trkpt><trkpt lat="44.162081779297516" lon="10.024544056859135"><ele>433.0</ele><time>2026-03-28T14:43:02.999Z</time></trkpt><trkpt lat="44.1620258412992" lon="10.024598561041874"><ele>433.0</ele><time>2026-03-28T14:43:08Z</time></trkpt><trkpt lat="44.16199054762381" lon="10.02469432806334"><ele>432.99999999999994</ele><time>2026-03-28T14:43:14Z</time></trkpt><trkpt lat="44.161969933624164" lon="10.0247809382632"><ele>433.0</ele><time>2026-03-28T14:43:20Z</time></trkpt><trkpt lat="44.161977673712634" lon="10.024889630019777"><ele>431.57142857142856</ele><time>2026-03-28T14:43:27Z</time></trkpt><trkpt lat="44.16198865736452" lon="10.024980959802678"><ele>430.1428571428571</ele><time>2026-03-28T14:43:31Z</time></trkpt><trkpt lat="44.161961623841876" lon="10.025061553159526"><ele>428.71428571428567</ele><time>2026-03-28T14:43:34Z</time></trkpt><trkpt lat="44.16192485229212" lon="10.025145976613159"><ele>427.2857142857143</ele><time>2026-03-28T14:43:37Z</time></trkpt><trkpt lat="44.16191672848583" lon="10.02523423842715"><ele>425.8571428571429</ele><time>2026-03-28T14:43:39Z</time></trkpt><trkpt lat="44.1618942990746" lon="10.0253357265714"><ele>424.4285714285714</ele><time>2026-03-28T14:43:41Z</time></trkpt><trkpt lat="44.1618725154491" lon="10.025466549413856"><ele>423.0</ele><time>2026-03-28T14:43:44Z</time></trkpt><trkpt lat="44.16185380016183" lon="10.025551485809743"><ele>423.0</ele><time>2026-03-28T14:43:46Z</time></trkpt><trkpt lat="44.16181378116987" lon="10.02562075178137"><ele>423.0</ele><time>2026-03-28T14:43:48Z</time></trkpt><trkpt lat="44.16178115399706" lon="10.025726774672433"><ele>423.0</ele><time>2026-03-28T14:43:51Z</time></trkpt><trkpt lat="44.16172639075203" lon="10.025782306569536"><ele>423.0</ele><time>2026-03-28T14:43:54Z</time></trkpt><trkpt lat="44.16176068935248" lon="10.02570655261274"><ele>423.0</ele><time>2026-03-28T14:45:40Z</time></trkpt><trkpt lat="44.16183679978558" lon="10.025592942445389"><ele>423.0</ele><time>2026-03-28T14:46:22Z</time></trkpt><trkpt lat="44.16184892144439" lon="10.025477993419566"><ele>423.0</ele><time>2026-03-28T14:46:28Z</time></trkpt><trkpt lat="44.161862252602255" lon="10.025376543363883"><ele>423.0</ele><time>2026-03-28T14:46:30Z</time></trkpt><trkpt lat="44.161872427257464" lon="10.02527935642914"><ele>423.0</ele><time>2026-03-28T14:46:34Z</time></trkpt><trkpt lat="44.16190544405934" lon="10.025168255406822"><ele>423.0</ele><time>2026-03-28T14:46:45Z</time></trkpt><trkpt lat="44.16193992960204" lon="10.025078291186151"><ele>423.0</ele><time>2026-03-28T14:46:48.999Z</time></trkpt><trkpt lat="44.16195830853798" lon="10.024966975320721"><ele>423.0</ele><time>2026-03-28T14:46:52.999Z</time></trkpt><trkpt lat="44.16195125475868" lon="10.024865210543041"><ele>424.6666666666667</ele><time>2026-03-28T14:46:56.999Z</time></trkpt><trkpt lat="44.161957730973754" lon="10.024753317886914"><ele>426.33333333333337</ele><time>2026-03-28T14:47:01.999Z</time></trkpt><trkpt lat="44.161988682714366" lon="10.024660559049249"><ele>428.0</ele><time>2026-03-28T14:47:04.999Z</time></trkpt><trkpt lat="44.162050041516835" lon="10.024600090386086"><ele>429.6666666666667</ele><time>2026-03-28T14:47:07.999Z</time></trkpt><trkpt lat="44.16213232016277" lon="10.024567447180306"><ele>431.33333333333337</ele><time>2026-03-28T14:47:11.999Z</time></trkpt><trkpt lat="44.16219125750039" lon="10.024495663043446"><ele>433.0</ele><time>2026-03-28T14:47:15.999Z</time></trkpt><trkpt lat="44.16219634901075" lon="10.024389391442282"><ele>432.99999999999994</ele><time>2026-03-28T14:47:20Z</time></trkpt><trkpt lat="44.162173459716044" lon="10.024287646505332"><ele>433.0</ele><time>2026-03-28T14:47:26Z</time></trkpt><trkpt lat="44.16211922672369" lon="10.024224971320564"><ele>433.0</ele><time>2026-03-28T14:47:31Z</time></trkpt><trkpt lat="44.162057359877664" lon="10.02418848598284"><ele>433.0</ele><time>2026-03-28T14:47:34Z</time></trkpt><trkpt lat="44.16199510002118" lon="10.024166474707249"><ele>433.0</ele><time>2026-03-28T14:47:39Z</time></trkpt><trkpt lat="44.161916461283056" lon="10.024187728292361"><ele>432.99999999999994</ele><time>2026-03-28T14:47:43Z</time></trkpt><trkpt lat="44.161846115243655" lon="10.024246265113016"><ele>433.0</ele><time>2026-03-28T14:47:47Z</time></trkpt><trkpt lat="44.16178046435431" lon="10.024289401240145"><ele>432.99999999999994</ele><time>2026-03-28T14:47:51Z</time></trkpt><trkpt lat="44.16172147898819" lon="10.024333595776376"><ele>433.0</ele><time>2026-03-28T14:47:56Z</time></trkpt><trkpt lat="44.16168521446727" lon="10.024427736248567"><ele>433.0</ele><time>2026-03-28T14:48:00Z</time></trkpt><trkpt lat="44.16162217716598" lon="10.02448671354786"><ele>433.0</ele><time>2026-03-28T14:48:04Z</time></trkpt><trkpt lat="44.161551513375855" lon="10.024513929672839"><ele>433.0</ele><time>2026-03-28T14:48:07Z</time></trkpt><trkpt lat="44.16149373295117" lon="10.024466351038749"><ele>432.99999999999994</ele><time>2026-03-28T14:48:14Z</time></trkpt><trkpt lat="44.16143074511538" lon="10.02441365260377"><ele>433.0</ele><time>2026-03-28T14:48:20Z</time></trkpt><trkpt lat="44.16137410081182" lon="10.024369001138679"><ele>434.4285714285714</ele><time>2026-03-28T14:48:23Z</time></trkpt><trkpt lat="44.16130376239296" lon="10.024384089313"><ele>435.85714285714283</ele><time>2026-03-28T14:48:27Z</time></trkpt><trkpt lat="44.16124567078541" lon="10.024462323607048"><ele>437.2857142857143</ele><time>2026-03-28T14:48:33Z</time></trkpt><trkpt lat="44.161197271663234" lon="10.024541205738357"><ele>438.71428571428567</ele><time>2026-03-28T14:48:36Z</time></trkpt><trkpt lat="44.161128673061945" lon="10.02452821369257"><ele>440.14285714285717</ele><time>2026-03-28T14:48:38Z</time></trkpt><trkpt lat="44.1610620282724" lon="10.024501289777033"><ele>441.57142857142856</ele><time>2026-03-28T14:48:40Z</time></trkpt><trkpt lat="44.16099865707271" lon="10.024528342793175"><ele>443.0</ele><time>2026-03-28T14:48:42Z</time></trkpt><trkpt lat="44.16099467355515" lon="10.02442627846939"><ele>442.99999999999994</ele><time>2026-03-28T14:48:54.999Z</time></trkpt><trkpt lat="44.16103604383166" lon="10.024313324160003"><ele>443.0</ele><time>2026-03-28T14:48:56.999Z</time></trkpt><trkpt lat="44.16105742296547" lon="10.024186163083648"><ele>443.0</ele><time>2026-03-28T14:48:59.999Z</time></trkpt><trkpt lat="44.16109054350123" lon="10.024083419356694"><ele>443.0</ele><time>2026-03-28T14:49:04.999Z</time></trkpt><trkpt lat="44.16114325297114" lon="10.024031201336673"><ele>442.99999999999994</ele><time>2026-03-28T14:49:12.999Z</time></trkpt><trkpt lat="44.16109198293417" lon="10.024087618969876"><ele>443.0</ele><time>2026-03-28T14:49:41Z</time></trkpt><trkpt lat="44.161070737092835" lon="10.024186609696404"><ele>443.0</ele><time>2026-03-28T14:49:47Z</time></trkpt><trkpt lat="44.161047333064545" lon="10.024277154213141"><ele>443.0</ele><time>2026-03-28T14:49:51Z</time></trkpt><trkpt lat="44.1610147386559" lon="10.024361494231401"><ele>443.0</ele><time>2026-03-28T14:49:54Z</time></trkpt><trkpt lat="44.16097124261963" lon="10.024453934238108"><ele>443.0</ele><time>2026-03-28T14:49:58Z</time></trkpt><trkpt lat="44.160904547843785" lon="10.024521557140874"><ele>443.0</ele><time>2026-03-28T14:50:02Z</time></trkpt><trkpt lat="44.16083300016096" lon="10.024517063340515"><ele>443.0</ele><time>2026-03-28T14:50:05Z</time></trkpt><trkpt lat="44.160759422199156" lon="10.024519396562376"><ele>443.0</ele><time>2026-03-28T14:50:08Z</time></trkpt><trkpt lat="44.1606835242225" lon="10.024546473322657"><ele>445.2857142857143</ele><time>2026-03-28T14:50:11Z</time></trkpt><trkpt lat="44.16061573227894" lon="10.024556102153536"><ele>447.57142857142856</ele><time>2026-03-28T14:50:13Z</time></trkpt><trkpt lat="44.16054183597597" lon="10.024573616692747"><ele>449.8571428571429</ele><time>2026-03-28T14:50:15Z</time></trkpt><trkpt lat="44.16048362948365" lon="10.024636784329397"><ele>452.1428571428571</ele><time>2026-03-28T14:50:18Z</time></trkpt><trkpt lat="44.16040887112807" lon="10.0246898458524"><ele>454.4285714285714</ele><time>2026-03-28T14:50:21Z</time></trkpt><trkpt lat="44.16034542182346" lon="10.024715506782952"><ele>456.7142857142857</ele><time>2026-03-28T14:50:23Z</time></trkpt><trkpt lat="44.16028976492599" lon="10.024763174773806"><ele>459.0</ele><time>2026-03-28T14:50:25Z</time></trkpt><trkpt lat="44.160244343867426" lon="10.024842961031567"><ele>459.0</ele><time>2026-03-28T14:50:27Z</time></trkpt><trkpt lat="44.16017463460094" lon="10.024920057047186"><ele>459.0</ele><time>2026-03-28T14:50:29Z</time></trkpt><trkpt lat="44.16013529051925" lon="10.025017113221162"><ele>459.0</ele><time>2026-03-28T14:50:31Z</time></trkpt><trkpt lat="44.16015100775669" lon="10.025139170380161"><ele>459.0</ele><time>2026-03-28T14:50:33Z</time></trkpt><trkpt lat="44.16016568490975" lon="10.025263942276016"><ele>459.0</ele><time>2026-03-28T14:50:35Z</time></trkpt><trkpt lat="44.160160910066764" lon="10.025392603648248"><ele>459.0</ele><time>2026-03-28T14:50:37Z</time></trkpt><trkpt lat="44.160179750822934" lon="10.025481148821925"><ele>459.5</ele><time>2026-03-28T14:50:39Z</time></trkpt><trkpt lat="44.16016419105561" lon="10.025593766023256"><ele>460.0</ele><time>2026-03-28T14:50:41Z</time></trkpt><trkpt lat="44.16011886711662" lon="10.025688172513181"><ele>460.5</ele><time>2026-03-28T14:50:43Z</time></trkpt><trkpt lat="44.16007350325839" lon="10.02577444390422"><ele>461.0</ele><time>2026-03-28T14:50:45Z</time></trkpt><trkpt lat="44.16000274674509" lon="10.025857196961459"><ele>461.5</ele><time>2026-03-28T14:50:48Z</time></trkpt><trkpt lat="44.15991514932566" lon="10.025911331987091"><ele>462.0</ele><time>2026-03-28T14:50:50Z</time></trkpt><trkpt lat="44.15983139669234" lon="10.025914116802264"><ele>464.8</ele><time>2026-03-28T14:50:52Z</time></trkpt><trkpt lat="44.15976091659903" lon="10.025870440231103"><ele>467.6</ele><time>2026-03-28T14:50:53.999Z</time></trkpt><trkpt lat="44.15966689449161" lon="10.025874291200964"><ele>470.40000000000003</ele><time>2026-03-28T14:50:55.999Z</time></trkpt><trkpt lat="44.15958472476093" lon="10.025916205990107"><ele>473.20000000000005</ele><time>2026-03-28T14:50:57.999Z</time></trkpt><trkpt lat="44.15949369428101" lon="10.026028075913997"><ele>476.0</ele><time>2026-03-28T14:50:59.999Z</time></trkpt><trkpt lat="44.15938575351614" lon="10.026086507711616"><ele>475.99999999999994</ele><time>2026-03-28T14:51:01.999Z</time></trkpt><trkpt lat="44.159308661414734" lon="10.026122874624429"><ele>476.0</ele><time>2026-03-28T14:51:03.999Z</time></trkpt><trkpt lat="44.15925166635171" lon="10.026196102211156"><ele>476.0</ele><time>2026-03-28T14:51:05.999Z</time></trkpt><trkpt lat="44.15920889657865" lon="10.026281159304835"><ele>476.0</ele><time>2026-03-28T14:51:07.999Z</time></trkpt><trkpt lat="44.159141070054616" lon="10.026288741493454"><ele>475.99999999999994</ele><time>2026-03-28T14:51:09.999Z</time></trkpt><trkpt lat="44.15906366500616" lon="10.02633682942469"><ele>476.0</ele><time>2026-03-28T14:51:13.999Z</time></trkpt><trkpt lat="44.15900969403326" lon="10.026395107202731"><ele>478.3333333333333</ele><time>2026-03-28T14:51:16.999Z</time></trkpt><trkpt lat="44.15894716621409" lon="10.026452093908901"><ele>480.66666666666663</ele><time>2026-03-28T14:51:21.999Z</time></trkpt><trkpt lat="44.15890130247056" lon="10.026532238473113"><ele>483.0</ele><time>2026-03-28T14:51:33Z</time></trkpt><trkpt lat="44.1588805099277" lon="10.026654228880865"><ele>485.33333333333337</ele><time>2026-03-28T14:51:36Z</time></trkpt><trkpt lat="44.15889734502101" lon="10.026740403945983"><ele>487.6666666666667</ele><time>2026-03-28T14:51:38Z</time></trkpt><trkpt lat="44.15893538781917" lon="10.026823447553666"><ele>490.0</ele><time>2026-03-28T14:51:41Z</time></trkpt><trkpt lat="44.15899631555673" lon="10.026899307844667"><ele>484.4</ele><time>2026-03-28T14:51:44Z</time></trkpt><trkpt lat="44.15905879563189" lon="10.026982059684276"><ele>478.8</ele><time>2026-03-28T14:51:46Z</time></trkpt><trkpt lat="44.15914379152671" lon="10.027105993887234"><ele>473.20000000000005</ele><time>2026-03-28T14:51:48Z</time></trkpt><trkpt lat="44.15919572732902" lon="10.027233893668337"><ele>467.6</ele><time>2026-03-28T14:51:50Z</time></trkpt><trkpt lat="44.15923623377541" lon="10.027329173650864"><ele>462.0</ele><time>2026-03-28T14:51:52Z</time></trkpt><trkpt lat="44.15926797347031" lon="10.027451764184958"><ele>462.8333333333333</ele><time>2026-03-28T14:51:54Z</time></trkpt><trkpt lat="44.15930088302833" lon="10.027551693269746"><ele>463.66666666666663</ele><time>2026-03-28T14:51:56Z</time></trkpt><trkpt lat="44.15929379988522" lon="10.027675867421575"><ele>464.5</ele><time>2026-03-28T14:51:58Z</time></trkpt><trkpt lat="44.159295174710664" lon="10.027787568863731"><ele>465.3333333333333</ele><time>2026-03-28T14:52:00Z</time></trkpt><trkpt lat="44.15930719284131" lon="10.027908990431948"><ele>466.16666666666663</ele><time>2026-03-28T14:52:02Z</time></trkpt><trkpt lat="44.1592965843434" lon="10.028040810700684"><ele>467.0</ele><time>2026-03-28T14:52:04Z</time></trkpt><trkpt lat="44.15927868174017" lon="10.028154767333477"><ele>466.99999999999994</ele><time>2026-03-28T14:52:06Z</time></trkpt><trkpt lat="44.15924473297893" lon="10.028273931777248"><ele>467.0</ele><time>2026-03-28T14:52:08Z</time></trkpt><trkpt lat="44.15919421499072" lon="10.028396064203472"><ele>467.0</ele><time>2026-03-28T14:52:10Z</time></trkpt><trkpt lat="44.15916156723658" lon="10.028482160373146"><ele>467.0</ele><time>2026-03-28T14:52:12Z</time></trkpt><trkpt lat="44.159116200374356" lon="10.02859113431596"><ele>466.99999999999994</ele><time>2026-03-28T14:52:14Z</time></trkpt><trkpt lat="44.159055433228204" lon="10.028642550268755"><ele>467.0</ele><time>2026-03-28T14:52:17Z</time></trkpt><trkpt lat="44.15899822012408" lon="10.028716001911087"><ele>468.99999999999994</ele><time>2026-03-28T14:52:23Z</time></trkpt><trkpt lat="44.15894254945534" lon="10.02879896564788"><ele>471.0</ele><time>2026-03-28T14:52:26Z</time></trkpt><trkpt lat="44.15888583395319" lon="10.028881195228138"><ele>472.99999999999994</ele><time>2026-03-28T14:52:29Z</time></trkpt><trkpt lat="44.158854516901" lon="10.028962517331873"><ele>474.99999999999994</ele><time>2026-03-28T14:52:32Z</time></trkpt><trkpt lat="44.158882633403316" lon="10.029065146812684"><ele>477.0</ele><time>2026-03-28T14:52:35Z</time></trkpt><trkpt lat="44.15893272688958" lon="10.029130062931703"><ele>478.99999999999994</ele><time>2026-03-28T14:52:37Z</time></trkpt><trkpt lat="44.15896497727207" lon="10.029211999860548"><ele>480.99999999999994</ele><time>2026-03-28T14:52:40Z</time></trkpt><trkpt lat="44.159011887912484" lon="10.029338270288198"><ele>478.33333333333337</ele><time>2026-03-28T14:52:46Z</time></trkpt><trkpt lat="44.159056357478235" lon="10.029428189093563"><ele>475.6666666666667</ele><time>2026-03-28T14:52:49Z</time></trkpt><trkpt lat="44.15908303300274" lon="10.029512523360648"><ele>473.0</ele><time>2026-03-28T14:52:53Z</time></trkpt><trkpt lat="44.15915220725619" lon="10.029584400533176"><ele>470.33333333333337</ele><time>2026-03-28T14:52:57.999Z</time></trkpt><trkpt lat="44.159212585487516" lon="10.029675405795379"><ele>467.6666666666667</ele><time>2026-03-28T14:53:00.999Z</time></trkpt><trkpt lat="44.15925510282826" lon="10.02974607974453"><ele>465.0</ele><time>2026-03-28T14:53:02.999Z</time></trkpt><trkpt lat="44.159303491390716" lon="10.02984594293012"><ele>465.0</ele><time>2026-03-28T14:53:04.999Z</time></trkpt><trkpt lat="44.159340844005364" lon="10.029955848725765"><ele>465.0</ele><time>2026-03-28T14:53:06.999Z</time></trkpt><trkpt lat="44.15935921530193" lon="10.030042870411508"><ele>465.0</ele><time>2026-03-28T14:53:08.999Z</time></trkpt><trkpt lat="44.15938905106429" lon="10.030136195461122"><ele>465.0</ele><time>2026-03-28T14:53:10.999Z</time></trkpt><trkpt lat="44.159400793889425" lon="10.030238006217619"><ele>465.0</ele><time>2026-03-28T14:53:12.999Z</time></trkpt><trkpt lat="44.15940639052035" lon="10.030340623320985"><ele>465.0</ele><time>2026-03-28T14:53:15.999Z</time></trkpt><trkpt lat="44.15939540778507" lon="10.030447143938527"><ele>465.57142857142856</ele><time>2026-03-28T14:53:18.999Z</time></trkpt><trkpt lat="44.15938690077528" lon="10.03055792980592"><ele>466.14285714285717</ele><time>2026-03-28T14:53:22.999Z</time></trkpt><trkpt lat="44.15941379372488" lon="10.030651241595814"><ele>466.7142857142857</ele><time>2026-03-28T14:53:25.999Z</time></trkpt><trkpt lat="44.15946967513058" lon="10.03069892619179"><ele>467.2857142857143</ele><time>2026-03-28T14:53:27.999Z</time></trkpt><trkpt lat="44.159530169135955" lon="10.030750983149547"><ele>467.8571428571429</ele><time>2026-03-28T14:53:30.999Z</time></trkpt><trkpt lat="44.15957936833474" lon="10.030825441166643"><ele>468.42857142857144</ele><time>2026-03-28T14:53:34Z</time></trkpt><trkpt lat="44.15961825730342" lon="10.03091840215801"><ele>469.0</ele><time>2026-03-28T14:53:37Z</time></trkpt><trkpt lat="44.159671755223286" lon="10.031019617299654"><ele>469.00000000000006</ele><time>2026-03-28T14:53:40Z</time></trkpt><trkpt lat="44.159710737643536" lon="10.031104058016878"><ele>469.0</ele><time>2026-03-28T14:53:44Z</time></trkpt><trkpt lat="44.15974385289995" lon="10.031182960556313"><ele>469.0</ele><time>2026-03-28T14:53:46Z</time></trkpt><trkpt lat="44.159780415928935" lon="10.03130113323017"><ele>469.0</ele><time>2026-03-28T14:53:48Z</time></trkpt><trkpt lat="44.15977730501952" lon="10.031407351613561"><ele>469.00000000000006</ele><time>2026-03-28T14:53:50Z</time></trkpt><trkpt lat="44.15975688790115" lon="10.031503274203049"><ele>469.0</ele><time>2026-03-28T14:53:52Z</time></trkpt><trkpt lat="44.159741985923176" lon="10.031611005565754"><ele>467.6666666666667</ele><time>2026-03-28T14:53:54Z</time></trkpt><trkpt lat="44.159703553726395" lon="10.031720512130578"><ele>466.33333333333337</ele><time>2026-03-28T14:53:56Z</time></trkpt><trkpt lat="44.1596753882035" lon="10.031804246087262"><ele>465.0</ele><time>2026-03-28T14:53:59Z</time></trkpt><trkpt lat="44.15963751075615" lon="10.031894334440059"><ele>463.66666666666663</ele><time>2026-03-28T14:54:01Z</time></trkpt><trkpt lat="44.15961614521789" lon="10.031977679744259"><ele>462.3333333333333</ele><time>2026-03-28T14:54:03Z</time></trkpt><trkpt lat="44.15958613631246" lon="10.03206424935243"><ele>461.0</ele><time>2026-03-28T14:54:07Z</time></trkpt><trkpt lat="44.15957140348239" lon="10.032191500556149"><ele>460.99999999999994</ele><time>2026-03-28T14:54:11Z</time></trkpt><trkpt lat="44.15957506043776" lon="10.032287278641453"><ele>461.0</ele><time>2026-03-28T14:54:13Z</time></trkpt><trkpt lat="44.15956839262796" lon="10.032408009518976"><ele>461.0</ele><time>2026-03-28T14:54:16Z</time></trkpt><trkpt lat="44.15956160245505" lon="10.032511684422719"><ele>461.0</ele><time>2026-03-28T14:54:19Z</time></trkpt><trkpt lat="44.15952292016733" lon="10.032636763390789"><ele>460.99999999999994</ele><time>2026-03-28T14:54:22Z</time></trkpt><trkpt lat="44.15949109235927" lon="10.032739182981308"><ele>461.0</ele><time>2026-03-28T14:54:24Z</time></trkpt><trkpt lat="44.15948757089749" lon="10.03284295380005"><ele>458.3333333333333</ele><time>2026-03-28T14:54:26Z</time></trkpt><trkpt lat="44.1595077973069" lon="10.032959235137694"><ele>455.66666666666663</ele><time>2026-03-28T14:54:29Z</time></trkpt><trkpt lat="44.159510488623646" lon="10.033058832801839"><ele>453.0</ele><time>2026-03-28T14:54:31Z</time></trkpt><trkpt lat="44.159540208264424" lon="10.033163460187513"><ele>450.33333333333337</ele><time>2026-03-28T14:54:33Z</time></trkpt><trkpt lat="44.1595310822223" lon="10.03327283773678"><ele>447.6666666666667</ele><time>2026-03-28T14:54:36Z</time></trkpt><trkpt lat="44.15945930500835" lon="10.03330580573971"><ele>445.0</ele><time>2026-03-28T14:54:38Z</time></trkpt><trkpt lat="44.15938012195792" lon="10.033285122443859"><ele>445.0</ele><time>2026-03-28T14:54:40Z</time></trkpt><trkpt lat="44.159292529528074" lon="10.033290366929803"><ele>445.0</ele><time>2026-03-28T14:54:42Z</time></trkpt><trkpt lat="44.159202267261065" lon="10.033335771396308"><ele>445.0</ele><time>2026-03-28T14:54:44Z</time></trkpt><trkpt lat="44.15912741546878" lon="10.03339142445254"><ele>445.0</ele><time>2026-03-28T14:54:46Z</time></trkpt><trkpt lat="44.159037384944824" lon="10.033440816007504"><ele>445.0</ele><time>2026-03-28T14:54:48Z</time></trkpt><trkpt lat="44.158929893363755" lon="10.033477441254082"><ele>440.0</ele><time>2026-03-28T14:54:50Z</time></trkpt><trkpt lat="44.15880668828217" lon="10.03348583451159"><ele>435.0</ele><time>2026-03-28T14:54:52Z</time></trkpt><trkpt lat="44.15874307160229" lon="10.033482147804866"><ele>430.0</ele><time>2026-03-28T14:54:53Z</time></trkpt><trkpt lat="44.158631738919276" lon="10.033512605419158"><ele>425.0</ele><time>2026-03-28T14:54:55Z</time></trkpt><trkpt lat="44.158528854188006" lon="10.033508236792638"><ele>420.0</ele><time>2026-03-28T14:54:57Z</time></trkpt><trkpt lat="44.15844661441225" lon="10.033457801209718"><ele>420.0</ele><time>2026-03-28T14:54:58.999Z</time></trkpt><trkpt lat="44.15834634180963" lon="10.033403466603048"><ele>420.0</ele><time>2026-03-28T14:55:00.999Z</time></trkpt><trkpt lat="44.15823747863637" lon="10.03336416089329"><ele>420.0</ele><time>2026-03-28T14:55:02.999Z</time></trkpt><trkpt lat="44.15815418485428" lon="10.033310671548506"><ele>420.0</ele><time>2026-03-28T14:55:04.999Z</time></trkpt><trkpt lat="44.15806161614817" lon="10.033243110284518"><ele>420.0</ele><time>2026-03-28T14:55:06.999Z</time></trkpt><trkpt lat="44.157980965827925" lon="10.033180661358243"><ele>421.5</ele><time>2026-03-28T14:55:08.999Z</time></trkpt><trkpt lat="44.1579091558285" lon="10.033113449297627"><ele>423.0</ele><time>2026-03-28T14:55:10.999Z</time></trkpt><trkpt lat="44.157830028149064" lon="10.033066664018104"><ele>424.5</ele><time>2026-03-28T14:55:12.999Z</time></trkpt><trkpt lat="44.157759696706016" lon="10.0330239997448"><ele>426.0</ele><time>2026-03-28T14:55:15.999Z</time></trkpt><trkpt lat="44.1576903128412" lon="10.032995988758554"><ele>427.5</ele><time>2026-03-28T14:55:18.999Z</time></trkpt><trkpt lat="44.15761001830429" lon="10.032985574038447"><ele>429.0</ele><time>2026-03-28T14:55:21.999Z</time></trkpt><trkpt lat="44.157564475589425" lon="10.033080120877607"><ele>429.0</ele><time>2026-03-28T14:55:29.999Z</time></trkpt><trkpt lat="44.1576052795723" lon="10.03320652629599"><ele>429.0</ele><time>2026-03-28T14:55:31.999Z</time></trkpt><trkpt lat="44.15763795836598" lon="10.03328769677675"><ele>429.0</ele><time>2026-03-28T14:55:32.999Z</time></trkpt><trkpt lat="44.157666215610305" lon="10.03338086316827"><ele>429.0</ele><time>2026-03-28T14:55:33.999Z</time></trkpt><trkpt lat="44.15770008594164" lon="10.033482310967376"><ele>429.0</ele><time>2026-03-28T14:55:34.999Z</time></trkpt><trkpt lat="44.15774774474584" lon="10.033568191400363"><ele>429.0</ele><time>2026-03-28T14:55:35.999Z</time></trkpt><trkpt lat="44.15781162034371" lon="10.033621640081032"><ele>424.6666666666667</ele><time>2026-03-28T14:55:36.999Z</time></trkpt><trkpt lat="44.157866899280954" lon="10.033668793834881"><ele>420.33333333333337</ele><time>2026-03-28T14:55:37.999Z</time></trkpt><trkpt lat="44.15796128338271" lon="10.033786966058495"><ele>416.0</ele><time>2026-03-28T14:55:40Z</time></trkpt><trkpt lat="44.15801003144101" lon="10.03385158172995"><ele>411.6666666666667</ele><time>2026-03-28T14:55:41Z</time></trkpt><trkpt lat="44.15805979435136" lon="10.033911360863259"><ele>407.33333333333337</ele><time>2026-03-28T14:55:42Z</time></trkpt><trkpt lat="44.15811153439318" lon="10.033972041493943"><ele>403.0</ele><time>2026-03-28T14:55:43Z</time></trkpt><trkpt lat="44.15815877240181" lon="10.034030392770365"><ele>400.75</ele><time>2026-03-28T14:55:44Z</time></trkpt><trkpt lat="44.15824429484351" lon="10.034146685171429"><ele>398.5</ele><time>2026-03-28T14:55:46Z</time></trkpt><trkpt lat="44.15831973686408" lon="10.034255618691374"><ele>396.25</ele><time>2026-03-28T14:55:48Z</time></trkpt><trkpt lat="44.15841071949792" lon="10.034345431068692"><ele>394.0</ele><time>2026-03-28T14:55:50Z</time></trkpt><trkpt lat="44.15852505183517" lon="10.034377797356168"><ele>394.0</ele><time>2026-03-28T14:55:52Z</time></trkpt><trkpt lat="44.158637708162416" lon="10.034356091448696"><ele>394.0</ele><time>2026-03-28T14:55:54Z</time></trkpt><trkpt lat="44.15873371553411" lon="10.03434888791562"><ele>394.0</ele><time>2026-03-28T14:55:56Z</time></trkpt><trkpt lat="44.158829829674154" lon="10.034432665353823"><ele>394.0</ele><time>2026-03-28T14:55:58Z</time></trkpt><trkpt lat="44.15887650987197" lon="10.034594661796802"><ele>394.0</ele><time>2026-03-28T14:56:00Z</time></trkpt><trkpt lat="44.15889334783277" lon="10.034682357423288"><ele>394.0</ele><time>2026-03-28T14:56:01Z</time></trkpt><trkpt lat="44.158916194402806" lon="10.034773365023177"><ele>394.0</ele><time>2026-03-28T14:56:02Z</time></trkpt><trkpt lat="44.158948826460104" lon="10.034860727729209"><ele>394.0</ele><time>2026-03-28T14:56:03Z</time></trkpt><trkpt lat="44.158982057612604" lon="10.0349449908422"><ele>394.0</ele><time>2026-03-28T14:56:04Z</time></trkpt><trkpt lat="44.15901288370895" lon="10.035021697191976"><ele>394.0</ele><time>2026-03-28T14:56:05Z</time></trkpt><trkpt lat="44.15904361037206" lon="10.03510148887075"><ele>394.0</ele><time>2026-03-28T14:56:06Z</time></trkpt><trkpt lat="44.15906968547402" lon="10.035184405015224"><ele>394.0</ele><time>2026-03-28T14:56:07Z</time></trkpt><trkpt lat="44.15909670408281" lon="10.035265718689182"><ele>391.50000000000006</ele><time>2026-03-28T14:56:08Z</time></trkpt><trkpt lat="44.15913715336552" lon="10.03540862846436"><ele>389.0</ele><time>2026-03-28T14:56:10Z</time></trkpt><trkpt lat="44.15918933790771" lon="10.035502107804303"><ele>386.5</ele><time>2026-03-28T14:56:12Z</time></trkpt><trkpt lat="44.1591054638338" lon="10.035485578556473"><ele>384.0</ele><time>2026-03-28T14:56:29Z</time></trkpt><trkpt lat="44.15906797952734" lon="10.03539996375579"><ele>381.5</ele><time>2026-03-28T14:56:31Z</time></trkpt><trkpt lat="44.15898826674113" lon="10.035374232260203"><ele>379.0</ele><time>2026-03-28T14:56:32Z</time></trkpt><trkpt lat="44.158935478883954" lon="10.035299725021108"><ele>378.2</ele><time>2026-03-28T14:56:34Z</time></trkpt><trkpt lat="44.158871201051134" lon="10.035193748258294"><ele>377.4</ele><time>2026-03-28T14:56:37Z</time></trkpt><trkpt lat="44.15882862305393" lon="10.035100910545168"><ele>376.6</ele><time>2026-03-28T14:56:39Z</time></trkpt><trkpt lat="44.15879527127125" lon="10.034985549533358"><ele>375.8</ele><time>2026-03-28T14:56:41Z</time></trkpt><trkpt lat="44.1587607523143" lon="10.034866579904248"><ele>375.0</ele><time>2026-03-28T14:56:43Z</time></trkpt><trkpt lat="44.158678641770834" lon="10.034766476406517"><ele>375.0</ele><time>2026-03-28T14:56:45Z</time></trkpt><trkpt lat="44.15860624121308" lon="10.034789759940539"><ele>375.0</ele><time>2026-03-28T14:56:46Z</time></trkpt><trkpt lat="44.15857893673361" lon="10.03487840373858"><ele>375.0</ele><time>2026-03-28T14:56:47Z</time></trkpt><trkpt lat="44.15851634922156" lon="10.034953008030019"><ele>375.0</ele><time>2026-03-28T14:56:49Z</time></trkpt><trkpt lat="44.15843479885973" lon="10.035023769218023"><ele>375.0</ele><time>2026-03-28T14:56:51Z</time></trkpt><trkpt lat="44.15834606958763" lon="10.035068868056765"><ele>375.0</ele><time>2026-03-28T14:56:53Z</time></trkpt><trkpt lat="44.15825952460946" lon="10.03505458037783"><ele>374.4</ele><time>2026-03-28T14:56:55Z</time></trkpt><trkpt lat="44.158166237244494" lon="10.035050877649235"><ele>373.8</ele><time>2026-03-28T14:56:57Z</time></trkpt><trkpt lat="44.15805216986215" lon="10.035045866650036"><ele>373.20000000000005</ele><time>2026-03-28T14:56:59Z</time></trkpt><trkpt lat="44.15793339939403" lon="10.035044074005617"><ele>372.6</ele><time>2026-03-28T14:57:01Z</time></trkpt><trkpt lat="44.15781032494906" lon="10.03504146396692"><ele>372.0</ele><time>2026-03-28T14:57:03Z</time></trkpt><trkpt lat="44.157704468354936" lon="10.035028336933165"><ele>372.0</ele><time>2026-03-28T14:57:04.999Z</time></trkpt><trkpt lat="44.157627609487626" lon="10.035013364214498"><ele>372.0</ele><time>2026-03-28T14:57:06.999Z</time></trkpt><trkpt lat="44.15755193008404" lon="10.034988985015094"><ele>372.0</ele><time>2026-03-28T14:57:08.999Z</time></trkpt><trkpt lat="44.15747886479511" lon="10.034943067391415"><ele>372.0</ele><time>2026-03-28T14:57:10.999Z</time></trkpt><trkpt lat="44.15740921261467" lon="10.034874408665582"><ele>372.0</ele><time>2026-03-28T14:57:12.999Z</time></trkpt><trkpt lat="44.15733646996611" lon="10.034797209011948"><ele>372.0</ele><time>2026-03-28T14:57:14.999Z</time></trkpt><trkpt lat="44.15726708130912" lon="10.03471317830675"><ele>373.8333333333333</ele><time>2026-03-28T14:57:16.999Z</time></trkpt><trkpt lat="44.15718018308798" lon="10.03470737399821"><ele>375.6666666666667</ele><time>2026-03-28T14:57:18.999Z</time></trkpt><trkpt lat="44.15710367547206" lon="10.034768680581323"><ele>377.5</ele><time>2026-03-28T14:57:20.999Z</time></trkpt><trkpt lat="44.15706079155566" lon="10.034833909033336"><ele>379.33333333333337</ele><time>2026-03-28T14:57:21.999Z</time></trkpt><trkpt lat="44.15705435160436" lon="10.034972346962777"><ele>381.1666666666667</ele><time>2026-03-28T14:57:23.999Z</time></trkpt><trkpt lat="44.157124429238245" lon="10.035074932377055"><ele>383.0</ele><time>2026-03-28T14:57:25.999Z</time></trkpt><trkpt lat="44.15713897461819" lon="10.035174884908784"><ele>383.0</ele><time>2026-03-28T14:57:27.999Z</time></trkpt><trkpt lat="44.157146387302845" lon="10.035276166720234"><ele>383.0</ele><time>2026-03-28T14:57:29.999Z</time></trkpt><trkpt lat="44.15708626129026" lon="10.03537412435921"><ele>383.0</ele><time>2026-03-28T14:57:33.999Z</time></trkpt><trkpt lat="44.15701678959741" lon="10.035458733783797"><ele>383.0</ele><time>2026-03-28T14:57:36.999Z</time></trkpt><trkpt lat="44.156921121134964" lon="10.035481249561219"><ele>383.0</ele><time>2026-03-28T14:57:38.999Z</time></trkpt><trkpt lat="44.156839006455094" lon="10.035466391697618"><ele>383.0</ele><time>2026-03-28T14:57:40.999Z</time></trkpt><trkpt lat="44.156751943303" lon="10.035453417577076"><ele>383.0</ele><time>2026-03-28T14:57:42.999Z</time></trkpt><trkpt lat="44.156660744518256" lon="10.035438831327854"><ele>383.0</ele><time>2026-03-28T14:57:45Z</time></trkpt><trkpt lat="44.15655817729448" lon="10.035437638861934"><ele>383.0</ele><time>2026-03-28T14:57:47Z</time></trkpt><trkpt lat="44.15643546002697" lon="10.035396957463682"><ele>383.0</ele><time>2026-03-28T14:57:49Z</time></trkpt><trkpt lat="44.15634184940707" lon="10.035378844202928"><ele>383.0</ele><time>2026-03-28T14:57:51Z</time></trkpt><trkpt lat="44.15625885733074" lon="10.03536443827547"><ele>384.33333333333337</ele><time>2026-03-28T14:57:53Z</time></trkpt><trkpt lat="44.156180638933726" lon="10.035350860971223"><ele>385.6666666666667</ele><time>2026-03-28T14:57:55Z</time></trkpt><trkpt lat="44.15610158508209" lon="10.035337138638978"><ele>387.0</ele><time>2026-03-28T14:57:57Z</time></trkpt><trkpt lat="44.15600934743367" lon="10.035318240905815"><ele>388.33333333333337</ele><time>2026-03-28T14:57:59Z</time></trkpt><trkpt lat="44.15591935057736" lon="10.035313184904883"><ele>389.6666666666667</ele><time>2026-03-28T14:58:01Z</time></trkpt><trkpt lat="44.155825391580905" lon="10.035321885313842"><ele>391.0</ele><time>2026-03-28T14:58:03Z</time></trkpt><trkpt lat="44.155742275414" lon="10.03536059672057"><ele>389.83333333333337</ele><time>2026-03-28T14:58:05Z</time></trkpt><trkpt lat="44.15566511960608" lon="10.035470413627799"><ele>388.6666666666667</ele><time>2026-03-28T14:58:07Z</time></trkpt><trkpt lat="44.15560925977299" lon="10.035540336735849"><ele>387.5</ele><time>2026-03-28T14:58:09Z</time></trkpt><trkpt lat="44.155556072133166" lon="10.035613260115088"><ele>386.33333333333337</ele><time>2026-03-28T14:58:11Z</time></trkpt><trkpt lat="44.15550879317288" lon="10.035680603441286"><ele>385.1666666666667</ele><time>2026-03-28T14:58:13Z</time></trkpt><trkpt lat="44.155454219825636" lon="10.035761292991088"><ele>384.0</ele><time>2026-03-28T14:58:15Z</time></trkpt><trkpt lat="44.155400326829785" lon="10.035846809552664"><ele>383.99999999999994</ele><time>2026-03-28T14:58:17Z</time></trkpt><trkpt lat="44.15535653759852" lon="10.035921569071377"><ele>384.0</ele><time>2026-03-28T14:58:19Z</time></trkpt><trkpt lat="44.15531775478421" lon="10.03599221473532"><ele>384.0</ele><time>2026-03-28T14:58:21Z</time></trkpt><trkpt lat="44.15527919302998" lon="10.036063355656127"><ele>384.0</ele><time>2026-03-28T14:58:23Z</time></trkpt><trkpt lat="44.15522800505632" lon="10.036154389574884"><ele>384.0</ele><time>2026-03-28T14:58:26Z</time></trkpt><trkpt lat="44.15518402316748" lon="10.036251943362023"><ele>383.99999999999994</ele><time>2026-03-28T14:58:29Z</time></trkpt><trkpt lat="44.15513468778598" lon="10.036318322002836"><ele>384.0</ele><time>2026-03-28T14:58:35Z</time></trkpt><trkpt lat="44.15487316252205" lon="10.036160190563761"><ele>383.8333333333333</ele><time>2026-03-28T14:58:46Z</time></trkpt><trkpt lat="44.15478167904147" lon="10.036125353133583"><ele>383.6666666666667</ele><time>2026-03-28T14:58:49Z</time></trkpt><trkpt lat="44.15471890770561" lon="10.036079840857159"><ele>383.5</ele><time>2026-03-28T14:58:51Z</time></trkpt><trkpt lat="44.15463541665463" lon="10.03604073419014"><ele>383.33333333333337</ele><time>2026-03-28T14:58:54Z</time></trkpt><trkpt lat="44.154569968925436" lon="10.036004805392484"><ele>383.1666666666667</ele><time>2026-03-28T14:58:57Z</time></trkpt><trkpt lat="44.154495390340266" lon="10.035942694566735"><ele>383.0</ele><time>2026-03-28T14:59:00Z</time></trkpt><trkpt lat="44.154431140409024" lon="10.035932085164916"><ele>383.0</ele><time>2026-03-28T14:59:03Z</time></trkpt><trkpt lat="44.15436379414482" lon="10.035918625708488"><ele>383.0</ele><time>2026-03-28T14:59:05Z</time></trkpt><trkpt lat="44.154293850275614" lon="10.035913856974155"><ele>383.0</ele><time>2026-03-28T14:59:06.999Z</time></trkpt><trkpt lat="44.15421907005106" lon="10.035889663297949"><ele>383.0</ele><time>2026-03-28T14:59:08.999Z</time></trkpt><trkpt lat="44.1541346412943" lon="10.03586863029089"><ele>383.0</ele><time>2026-03-28T14:59:10.999Z</time></trkpt><trkpt lat="44.154052478152735" lon="10.035831034365195"><ele>383.0</ele><time>2026-03-28T14:59:12.999Z</time></trkpt><trkpt lat="44.15397930058524" lon="10.035813440135106"><ele>383.0</ele><time>2026-03-28T14:59:14.999Z</time></trkpt><trkpt lat="44.153913138934584" lon="10.03580120010421"><ele>383.0</ele><time>2026-03-28T14:59:16.999Z</time></trkpt><trkpt lat="44.15384599139139" lon="10.035854998326315"><ele>383.0</ele><time>2026-03-28T14:59:20.999Z</time></trkpt><trkpt lat="44.15378341672256" lon="10.035928747177026"><ele>383.0</ele><time>2026-03-28T14:59:23.999Z</time></trkpt><trkpt lat="44.15372607464119" lon="10.03598146919263"><ele>383.0</ele><time>2026-03-28T14:59:25.999Z</time></trkpt><trkpt lat="44.15363535884173" lon="10.036015016559803"><ele>383.0</ele><time>2026-03-28T14:59:28.999Z</time></trkpt><trkpt lat="44.153563584010655" lon="10.036017851156318"><ele>383.0</ele><time>2026-03-28T14:59:30.999Z</time></trkpt><trkpt lat="44.15349196812451" lon="10.03602707094701"><ele>383.0</ele><time>2026-03-28T14:59:32.999Z</time></trkpt><trkpt lat="44.15341434919331" lon="10.036024147152776"><ele>383.0</ele><time>2026-03-28T14:59:34.999Z</time></trkpt><trkpt lat="44.15332745391283" lon="10.036020955684076"><ele>383.0</ele><time>2026-03-28T14:59:36.999Z</time></trkpt><trkpt lat="44.15325329917443" lon="10.036038035101038"><ele>383.0</ele><time>2026-03-28T14:59:38.999Z</time></trkpt><trkpt lat="44.153166219290085" lon="10.036044162926489"><ele>383.0</ele><time>2026-03-28T14:59:41.999Z</time></trkpt><trkpt lat="44.1530684077045" lon="10.03605691661136"><ele>384.0</ele><time>2026-03-28T14:59:44.999Z</time></trkpt><trkpt lat="44.15299896165664" lon="10.036057533485604"><ele>385.0</ele><time>2026-03-28T14:59:46.999Z</time></trkpt><trkpt lat="44.15293345082172" lon="10.036029559791105"><ele>386.0</ele><time>2026-03-28T14:59:49.999Z</time></trkpt><trkpt lat="44.15289719501229" lon="10.035931838183098"><ele>387.0</ele><time>2026-03-28T14:59:53Z</time></trkpt><trkpt lat="44.1528911256778" lon="10.035824991581315"><ele>388.0</ele><time>2026-03-28T14:59:57Z</time></trkpt><trkpt lat="44.15284406608628" lon="10.035743463359784"><ele>389.0</ele><time>2026-03-28T15:00:06Z</time></trkpt><trkpt lat="44.152771246413074" lon="10.035776100901947"><ele>390.0</ele><time>2026-03-28T15:00:12Z</time></trkpt><trkpt lat="44.15270444681011" lon="10.03579375806267"><ele>390.0</ele><time>2026-03-28T15:00:15Z</time></trkpt><trkpt lat="44.152612023121115" lon="10.03582154898624"><ele>390.0</ele><time>2026-03-28T15:00:22Z</time></trkpt><trkpt lat="44.152672498738134" lon="10.03579220350828"><ele>390.0</ele><time>2026-03-28T15:00:32Z</time></trkpt><trkpt lat="44.15274236131684" lon="10.035759441241648"><ele>390.0</ele><time>2026-03-28T15:00:35Z</time></trkpt><trkpt lat="44.15280567714365" lon="10.035727240338545"><ele>390.0</ele><time>2026-03-28T15:00:38Z</time></trkpt><trkpt lat="44.152864708714084" lon="10.035767281199579"><ele>390.0</ele><time>2026-03-28T15:00:51Z</time></trkpt><trkpt lat="44.15290624355442" lon="10.03586881863971"><ele>390.0</ele><time>2026-03-28T15:00:56Z</time></trkpt><trkpt lat="44.15291922424366" lon="10.035982869149292"><ele>388.8333333333333</ele><time>2026-03-28T15:00:59Z</time></trkpt><trkpt lat="44.15298884706389" lon="10.036030852089075"><ele>387.6666666666667</ele><time>2026-03-28T15:01:02Z</time></trkpt><trkpt lat="44.15308505137385" lon="10.036022829499768"><ele>386.5</ele><time>2026-03-28T15:01:05Z</time></trkpt><trkpt lat="44.15317109102496" lon="10.036012339641019"><ele>385.33333333333337</ele><time>2026-03-28T15:01:08Z</time></trkpt><trkpt lat="44.15324983909502" lon="10.036007341155937"><ele>384.1666666666667</ele><time>2026-03-28T15:01:11Z</time></trkpt><trkpt lat="44.153312980104964" lon="10.036006753943191"><ele>383.0</ele><time>2026-03-28T15:01:13Z</time></trkpt><trkpt lat="44.153379597477496" lon="10.036008622499505"><ele>383.0</ele><time>2026-03-28T15:01:15Z</time></trkpt><trkpt lat="44.15345308683233" lon="10.036013998374841"><ele>383.0</ele><time>2026-03-28T15:01:16.999Z</time></trkpt><trkpt lat="44.15352377758201" lon="10.036021934194746"><ele>383.0</ele><time>2026-03-28T15:01:18.999Z</time></trkpt><trkpt lat="44.15360916954163" lon="10.036013320234717"><ele>383.0</ele><time>2026-03-28T15:01:20.999Z</time></trkpt><trkpt lat="44.153677891615594" lon="10.035962680246005"><ele>383.0</ele><time>2026-03-28T15:01:22.999Z</time></trkpt><trkpt lat="44.15373811803145" lon="10.0359060524149"><ele>383.0</ele><time>2026-03-28T15:01:24.999Z</time></trkpt><trkpt lat="44.153792556045424" lon="10.035846349669544"><ele>383.0</ele><time>2026-03-28T15:01:26.999Z</time></trkpt><trkpt lat="44.15385918316081" lon="10.03579855009154"><ele>383.0</ele><time>2026-03-28T15:01:39.999Z</time></trkpt><trkpt lat="44.153924363868626" lon="10.035776492490822"><ele>383.0</ele><time>2026-03-28T15:01:43.999Z</time></trkpt><trkpt lat="44.15399418399179" lon="10.035800889456512"><ele>383.0</ele><time>2026-03-28T15:01:45.999Z</time></trkpt><trkpt lat="44.15406665408039" lon="10.03583088643794"><ele>383.0</ele><time>2026-03-28T15:01:47.999Z</time></trkpt><trkpt lat="44.154145896775596" lon="10.035871333629835"><ele>383.0</ele><time>2026-03-28T15:01:50.999Z</time></trkpt><trkpt lat="44.1542053631834" lon="10.03590561924619"><ele>383.0</ele><time>2026-03-28T15:01:52.999Z</time></trkpt><trkpt lat="44.154293087801776" lon="10.035932658656794"><ele>383.0</ele><time>2026-03-28T15:01:55.999Z</time></trkpt><trkpt lat="44.154369593823205" lon="10.035941259702854"><ele>383.0</ele><time>2026-03-28T15:01:58Z</time></trkpt><trkpt lat="44.154448654901906" lon="10.035959954855942"><ele>383.0</ele><time>2026-03-28T15:02:01Z</time></trkpt><trkpt lat="44.154520665422694" lon="10.03600235289895"><ele>383.0</ele><time>2026-03-28T15:02:03Z</time></trkpt><trkpt lat="44.1545866319026" lon="10.036052669809589"><ele>383.0</ele><time>2026-03-28T15:02:05Z</time></trkpt><trkpt lat="44.154656272737306" lon="10.036074943003003"><ele>383.0</ele><time>2026-03-28T15:02:07Z</time></trkpt><trkpt lat="44.15471738524346" lon="10.036114023113742"><ele>383.0</ele><time>2026-03-28T15:02:09Z</time></trkpt><trkpt lat="44.15478052048427" lon="10.036143441095449"><ele>383.0</ele><time>2026-03-28T15:02:11Z</time></trkpt><trkpt lat="44.15483979775574" lon="10.036174735239092"><ele>383.0</ele><time>2026-03-28T15:02:13Z</time></trkpt><trkpt lat="44.15490409362923" lon="10.03620920928657"><ele>383.0</ele><time>2026-03-28T15:02:15Z</time></trkpt><trkpt lat="44.15496843318956" lon="10.036235797716625"><ele>383.0</ele><time>2026-03-28T15:02:17Z</time></trkpt><trkpt lat="44.15505457389048" lon="10.036247504137679"><ele>383.0</ele><time>2026-03-28T15:02:20Z</time></trkpt><trkpt lat="44.15513801560317" lon="10.036231987239109"><ele>383.0</ele><time>2026-03-28T15:02:23Z</time></trkpt><trkpt lat="44.15521144264263" lon="10.036180236284107"><ele>383.2</ele><time>2026-03-28T15:02:26Z</time></trkpt><trkpt lat="44.15526454369967" lon="10.03613048142042"><ele>383.4</ele><time>2026-03-28T15:02:28Z</time></trkpt><trkpt lat="44.15532345942187" lon="10.036058097731136"><ele>383.59999999999997</ele><time>2026-03-28T15:02:31Z</time></trkpt><trkpt lat="44.15537160444977" lon="10.035970398048697"><ele>383.79999999999995</ele><time>2026-03-28T15:02:35Z</time></trkpt><trkpt lat="44.15553070845399" lon="10.036147624418337"><ele>384.0</ele><time>2026-03-28T15:02:40Z</time></trkpt><trkpt lat="44.15558059612402" lon="10.036230091073488"><ele>384.0</ele><time>2026-03-28T15:02:42Z</time></trkpt><trkpt lat="44.15563122972152" lon="10.036309710602811"><ele>384.0</ele><time>2026-03-28T15:02:44Z</time></trkpt><trkpt lat="44.155661843877176" lon="10.03638643696978"><ele>384.0</ele><time>2026-03-28T15:02:46Z</time></trkpt><trkpt lat="44.15569902723679" lon="10.03647917757053"><ele>384.0</ele><time>2026-03-28T15:02:48Z</time></trkpt><trkpt lat="44.15572815941854" lon="10.036587620117409"><ele>384.0</ele><time>2026-03-28T15:02:50Z</time></trkpt><trkpt lat="44.15573047588639" lon="10.036706061560817"><ele>384.0</ele><time>2026-03-28T15:02:52Z</time></trkpt><trkpt lat="44.155725558350014" lon="10.03682785355297"><ele>382.0</ele><time>2026-03-28T15:02:54Z</time></trkpt><trkpt lat="44.15568497149666" lon="10.036901649557715"><ele>380.0</ele><time>2026-03-28T15:02:56Z</time></trkpt><trkpt lat="44.15562522388296" lon="10.036960443459396"><ele>378.0</ele><time>2026-03-28T15:02:58Z</time></trkpt><trkpt lat="44.15556328000875" lon="10.037055609489315"><ele>376.0</ele><time>2026-03-28T15:03:01Z</time></trkpt><trkpt lat="44.155511035303135" lon="10.037121320423982"><ele>374.0</ele><time>2026-03-28T15:03:03Z</time></trkpt><trkpt lat="44.15544737001777" lon="10.037204129558392"><ele>372.0</ele><time>2026-03-28T15:03:06Z</time></trkpt><trkpt lat="44.15538069980967" lon="10.03726236730776"><ele>372.0</ele><time>2026-03-28T15:03:09Z</time></trkpt><trkpt lat="44.155318713467494" lon="10.03729285861642"><ele>372.0</ele><time>2026-03-28T15:03:12Z</time></trkpt><trkpt lat="44.15523606636642" lon="10.037337522290747"><ele>372.0</ele><time>2026-03-28T15:03:16Z</time></trkpt><trkpt lat="44.15515981329126" lon="10.037391453868405"><ele>372.0</ele><time>2026-03-28T15:03:19Z</time></trkpt><trkpt lat="44.155083483317625" lon="10.037441556668687"><ele>372.0</ele><time>2026-03-28T15:03:22Z</time></trkpt><trkpt lat="44.15500545021892" lon="10.037506017412666"><ele>372.0</ele><time>2026-03-28T15:03:25Z</time></trkpt><trkpt lat="44.15495028829213" lon="10.037548428283637"><ele>369.3333333333333</ele><time>2026-03-28T15:03:27.999Z</time></trkpt><trkpt lat="44.15488321503002" lon="10.037613770324988"><ele>366.6666666666667</ele><time>2026-03-28T15:03:44.999Z</time></trkpt><trkpt lat="44.15481972259131" lon="10.037664529256476"><ele>364.0</ele><time>2026-03-28T15:03:46.999Z</time></trkpt><trkpt lat="44.15473574037475" lon="10.037710859022145"><ele>361.33333333333337</ele><time>2026-03-28T15:03:49.999Z</time></trkpt><trkpt lat="44.154656605401556" lon="10.037754648879082"><ele>358.6666666666667</ele><time>2026-03-28T15:03:52.999Z</time></trkpt><trkpt lat="44.154584694015114" lon="10.037828750176141"><ele>356.0</ele><time>2026-03-28T15:03:55.999Z</time></trkpt><trkpt lat="44.154518713203444" lon="10.03783083287702"><ele>354.99999999999994</ele><time>2026-03-28T15:03:57.999Z</time></trkpt><trkpt lat="44.15445009185377" lon="10.037800623587101"><ele>354.0</ele><time>2026-03-28T15:04:00.999Z</time></trkpt><trkpt lat="44.154381365827184" lon="10.037786923279457"><ele>353.0</ele><time>2026-03-28T15:04:03Z</time></trkpt><trkpt lat="44.15431508637057" lon="10.037770405335536"><ele>352.0</ele><time>2026-03-28T15:04:05Z</time></trkpt><trkpt lat="44.15423309003561" lon="10.037704517778021"><ele>351.0</ele><time>2026-03-28T15:04:08Z</time></trkpt><trkpt lat="44.1541817616951" lon="10.037650956626797"><ele>349.99999999999994</ele><time>2026-03-28T15:04:10Z</time></trkpt><trkpt lat="44.154113970716345" lon="10.037590135291264"><ele>349.0</ele><time>2026-03-28T15:04:14Z</time></trkpt><trkpt lat="44.154043379106206" lon="10.03755379560896"><ele>347.71428571428567</ele><time>2026-03-28T15:04:17Z</time></trkpt><trkpt lat="44.15398402698031" lon="10.037505383254654"><ele>346.42857142857144</ele><time>2026-03-28T15:04:20Z</time></trkpt><trkpt lat="44.15392982809533" lon="10.037412827755439"><ele>345.1428571428571</ele><time>2026-03-28T15:04:23Z</time></trkpt><trkpt lat="44.153872955876516" lon="10.037358581451658"><ele>343.85714285714283</ele><time>2026-03-28T15:04:26Z</time></trkpt><trkpt lat="44.15380814278435" lon="10.037384186405978"><ele>342.57142857142856</ele><time>2026-03-28T15:04:28Z</time></trkpt><trkpt lat="44.15373729052625" lon="10.037394935247049"><ele>341.2857142857143</ele><time>2026-03-28T15:04:30Z</time></trkpt><trkpt lat="44.15366888485989" lon="10.037396994473465"><ele>340.0</ele><time>2026-03-28T15:04:32Z</time></trkpt><trkpt lat="44.15359175684564" lon="10.037387967933226"><ele>342.14285714285717</ele><time>2026-03-28T15:04:34Z</time></trkpt><trkpt lat="44.15351295835469" lon="10.03738007993182"><ele>344.2857142857143</ele><time>2026-03-28T15:04:36Z</time></trkpt><trkpt lat="44.15343409730886" lon="10.037374810210768"><ele>346.42857142857144</ele><time>2026-03-28T15:04:38Z</time></trkpt><trkpt lat="44.15336676399717" lon="10.037379712312005"><ele>348.57142857142856</ele><time>2026-03-28T15:04:40Z</time></trkpt><trkpt lat="44.15330472946659" lon="10.037394686585746"><ele>350.7142857142857</ele><time>2026-03-28T15:04:43Z</time></trkpt><trkpt lat="44.15323880276258" lon="10.037414685568043"><ele>352.85714285714283</ele><time>2026-03-28T15:04:46Z</time></trkpt><trkpt lat="44.15317538897169" lon="10.037428707936474"><ele>355.0</ele><time>2026-03-28T15:04:48Z</time></trkpt><trkpt lat="44.15309657126734" lon="10.037424647153465"><ele>355.0</ele><time>2026-03-28T15:04:50Z</time></trkpt><trkpt lat="44.15301322654807" lon="10.03740424453454"><ele>355.0</ele><time>2026-03-28T15:04:52Z</time></trkpt><trkpt lat="44.15293420448877" lon="10.03742417079044"><ele>355.0</ele><time>2026-03-28T15:04:54Z</time></trkpt><trkpt lat="44.152872191972364" lon="10.037449914698708"><ele>355.0</ele><time>2026-03-28T15:04:56Z</time></trkpt><trkpt lat="44.15279153413249" lon="10.037504426524547"><ele>355.0</ele><time>2026-03-28T15:04:59Z</time></trkpt><trkpt lat="44.152715753091734" lon="10.03753498976791"><ele>355.0</ele><time>2026-03-28T15:05:01Z</time></trkpt><trkpt lat="44.15263974067158" lon="10.037533603145352"><ele>355.0</ele><time>2026-03-28T15:05:03Z</time></trkpt><trkpt lat="44.15256243569603" lon="10.037523413908437"><ele>355.0</ele><time>2026-03-28T15:05:05Z</time></trkpt><trkpt lat="44.152494836130735" lon="10.037504037190672"><ele>355.0</ele><time>2026-03-28T15:05:07Z</time></trkpt><trkpt lat="44.15242109971368" lon="10.037464175074856"><ele>355.0</ele><time>2026-03-28T15:05:12Z</time></trkpt><trkpt lat="44.152362032052906" lon="10.037421816393943"><ele>355.0</ele><time>2026-03-28T15:05:15Z</time></trkpt><trkpt lat="44.15229407973431" lon="10.037353009643308"><ele>355.0</ele><time>2026-03-28T15:05:17Z</time></trkpt><trkpt lat="44.15221371413925" lon="10.037284782485171"><ele>352.5</ele><time>2026-03-28T15:05:19Z</time></trkpt><trkpt lat="44.152143217980885" lon="10.037274744772152"><ele>350.0</ele><time>2026-03-28T15:05:21Z</time></trkpt><trkpt lat="44.1520640346774" lon="10.03722664394244"><ele>347.5</ele><time>2026-03-28T15:05:24Z</time></trkpt><trkpt lat="44.15197331203618" lon="10.037172915609563"><ele>345.0</ele><time>2026-03-28T15:05:27Z</time></trkpt><trkpt lat="44.15191566162616" lon="10.03712444732741"><ele>342.5</ele><time>2026-03-28T15:05:29Z</time></trkpt><trkpt lat="44.1518625174583" lon="10.037051847592954"><ele>340.0</ele><time>2026-03-28T15:05:31Z</time></trkpt><trkpt lat="44.15180609064172" lon="10.036995231633378"><ele>340.0</ele><time>2026-03-28T15:05:32.999Z</time></trkpt><trkpt lat="44.151736132301316" lon="10.036930707693672"><ele>340.0</ele><time>2026-03-28T15:05:35.999Z</time></trkpt><trkpt lat="44.1516483929077" lon="10.036904234503316"><ele>340.0</ele><time>2026-03-28T15:05:38.999Z</time></trkpt><trkpt lat="44.15159177751342" lon="10.036828203108847"><ele>340.0</ele><time>2026-03-28T15:05:41.999Z</time></trkpt><trkpt lat="44.15157218774969" lon="10.036735573676909"><ele>340.0</ele><time>2026-03-28T15:05:44.999Z</time></trkpt><trkpt lat="44.15159019782513" lon="10.036631027622018"><ele>340.0</ele><time>2026-03-28T15:05:47.999Z</time></trkpt><trkpt lat="44.15164257141936" lon="10.036578779801216"><ele>341.8571428571429</ele><time>2026-03-28T15:05:51.999Z</time></trkpt><trkpt lat="44.151635785711825" lon="10.03648657608064"><ele>343.71428571428567</ele><time>2026-03-28T15:05:55.999Z</time></trkpt><trkpt lat="44.15158591295779" lon="10.036432533365891"><ele>345.57142857142856</ele><time>2026-03-28T15:05:57.999Z</time></trkpt><trkpt lat="44.151545697639136" lon="10.036361806878535"><ele>347.42857142857144</ele><time>2026-03-28T15:05:59.999Z</time></trkpt><trkpt lat="44.151501072865265" lon="10.036285277453983"><ele>349.28571428571433</ele><time>2026-03-28T15:06:04.999Z</time></trkpt><trkpt lat="44.1514316160539" lon="10.036315477675606"><ele>351.1428571428571</ele><time>2026-03-28T15:06:14Z</time></trkpt><trkpt lat="44.15139770841194" lon="10.036405291607362"><ele>353.0</ele><time>2026-03-28T15:06:18Z</time></trkpt><trkpt lat="44.15137969280206" lon="10.036497121085466"><ele>353.6666666666667</ele><time>2026-03-28T15:06:22Z</time></trkpt><trkpt lat="44.151336088144" lon="10.036594769450552"><ele>354.33333333333337</ele><time>2026-03-28T15:06:26Z</time></trkpt><trkpt lat="44.151321067526304" lon="10.036704792807317"><ele>355.0</ele><time>2026-03-28T15:06:29Z</time></trkpt><trkpt lat="44.15129301573725" lon="10.036799834918188"><ele>355.6666666666667</ele><time>2026-03-28T15:06:32Z</time></trkpt><trkpt lat="44.15129942205413" lon="10.036901791161858"><ele>356.3333333333333</ele><time>2026-03-28T15:06:35Z</time></trkpt><trkpt lat="44.15126420829667" lon="10.037006506129483"><ele>357.0</ele><time>2026-03-28T15:06:38Z</time></trkpt><trkpt lat="44.151250907671624" lon="10.037101372555478"><ele>357.0</ele><time>2026-03-28T15:06:41Z</time></trkpt><trkpt lat="44.151226425576844" lon="10.037188047399217"><ele>357.0</ele><time>2026-03-28T15:06:43Z</time></trkpt><trkpt lat="44.15119221036736" lon="10.037262568782285"><ele>357.0</ele><time>2026-03-28T15:06:45Z</time></trkpt><trkpt lat="44.151119802960736" lon="10.03731689795865"><ele>357.0</ele><time>2026-03-28T15:06:48Z</time></trkpt><trkpt lat="44.15107428250117" lon="10.03737795045955"><ele>357.0</ele><time>2026-03-28T15:07:04Z</time></trkpt><trkpt lat="44.15112342559241" lon="10.037483461781026"><ele>357.0</ele><time>2026-03-28T15:07:08Z</time></trkpt><trkpt lat="44.15117941220917" lon="10.037585453182684"><ele>354.6666666666667</ele><time>2026-03-28T15:07:11Z</time></trkpt><trkpt lat="44.151207664285195" lon="10.037680207272558"><ele>352.3333333333333</ele><time>2026-03-28T15:07:13Z</time></trkpt><trkpt lat="44.15124349744316" lon="10.03780267828929"><ele>350.0</ele><time>2026-03-28T15:07:16Z</time></trkpt><trkpt lat="44.15122147939805" lon="10.037888776273684"><ele>347.66666666666663</ele><time>2026-03-28T15:07:19Z</time></trkpt><trkpt lat="44.15117302529477" lon="10.037950577733271"><ele>345.3333333333333</ele><time>2026-03-28T15:07:23Z</time></trkpt><trkpt lat="44.15112222805245" lon="10.038026423170109"><ele>343.0</ele><time>2026-03-28T15:07:26Z</time></trkpt><trkpt lat="44.15119454506339" lon="10.038163556384882"><ele>343.0</ele><time>2026-03-28T15:08:11.999Z</time></trkpt><trkpt lat="44.15123536755086" lon="10.038250729959532"><ele>343.0</ele><time>2026-03-28T15:08:17Z</time></trkpt><trkpt lat="44.151243120524455" lon="10.038341135728231"><ele>343.0</ele><time>2026-03-28T15:08:22Z</time></trkpt><trkpt lat="44.15124549357495" lon="10.03843653477146"><ele>343.0</ele><time>2026-03-28T15:08:29Z</time></trkpt><trkpt lat="44.15123041878885" lon="10.038533269381764"><ele>343.0</ele><time>2026-03-28T15:09:16Z</time></trkpt><trkpt lat="44.15118727598337" lon="10.03862411722314"><ele>343.0</ele><time>2026-03-28T15:09:25Z</time></trkpt><trkpt lat="44.1511433189162" lon="10.038695586995836"><ele>343.0</ele><time>2026-03-28T15:09:28Z</time></trkpt><trkpt lat="44.151093841869844" lon="10.038768158023776"><ele>343.5</ele><time>2026-03-28T15:09:30Z</time></trkpt><trkpt lat="44.151027311736726" lon="10.038840562372291"><ele>344.0</ele><time>2026-03-28T15:09:45.999Z</time></trkpt><trkpt lat="44.1509603593702" lon="10.038897871020954"><ele>344.5</ele><time>2026-03-28T15:09:49.999Z</time></trkpt><trkpt lat="44.15090049974344" lon="10.038969063198959"><ele>345.0</ele><time>2026-03-28T15:09:51.999Z</time></trkpt><trkpt lat="44.15084495202431" lon="10.039040763282642"><ele>345.5</ele><time>2026-03-28T15:09:54.999Z</time></trkpt><trkpt lat="44.150789975765726" lon="10.039093020143419"><ele>346.0</ele><time>2026-03-28T15:09:57.999Z</time></trkpt><trkpt lat="44.150685748240384" lon="10.039108623236235"><ele>343.5</ele><time>2026-03-28T15:10:00.999Z</time></trkpt><trkpt lat="44.15062725862591" lon="10.039155489755487"><ele>341.0</ele><time>2026-03-28T15:10:05.999Z</time></trkpt><trkpt lat="44.1505673653381" lon="10.03920453841608"><ele>338.5</ele><time>2026-03-28T15:16:06.999Z</time></trkpt><trkpt lat="44.15047700891472" lon="10.03925892958947"><ele>336.0</ele><time>2026-03-28T15:16:09.999Z</time></trkpt><trkpt lat="44.15039889269649" lon="10.039328217678417"><ele>333.5</ele><time>2026-03-28T15:16:12.999Z</time></trkpt><trkpt lat="44.15033575140873" lon="10.039366154793544"><ele>331.0</ele><time>2026-03-28T15:16:15.999Z</time></trkpt><trkpt lat="44.150268535602294" lon="10.039429551965249"><ele>331.0</ele><time>2026-03-28T15:16:18.999Z</time></trkpt><trkpt lat="44.1502279021291" lon="10.039512111043255"><ele>331.0</ele><time>2026-03-28T15:16:20.999Z</time></trkpt><trkpt lat="44.15018931001946" lon="10.039632918590016"><ele>331.0</ele><time>2026-03-28T15:16:24.999Z</time></trkpt><trkpt lat="44.15018307011383" lon="10.039741441545127"><ele>331.0</ele><time>2026-03-28T15:16:26.999Z</time></trkpt><trkpt lat="44.15017475063807" lon="10.03984755737398"><ele>331.0</ele><time>2026-03-28T15:16:28.999Z</time></trkpt><trkpt lat="44.1501714748309" lon="10.039936176456058"><ele>331.0</ele><time>2026-03-28T15:16:30.999Z</time></trkpt><trkpt lat="44.1501579698889" lon="10.040039116233563"><ele>330.16666666666663</ele><time>2026-03-28T15:16:32.999Z</time></trkpt><trkpt lat="44.15013812698588" lon="10.040164364825742"><ele>329.3333333333333</ele><time>2026-03-28T15:16:35.999Z</time></trkpt><trkpt lat="44.15014603646719" lon="10.040291695697265"><ele>328.5</ele><time>2026-03-28T15:16:39Z</time></trkpt><trkpt lat="44.15015782110649" lon="10.040382930645125"><ele>327.6666666666667</ele><time>2026-03-28T15:16:41Z</time></trkpt><trkpt lat="44.15015674352376" lon="10.04047979856728"><ele>326.83333333333337</ele><time>2026-03-28T15:16:43Z</time></trkpt><trkpt lat="44.15017126699464" lon="10.040571796865935"><ele>326.0</ele><time>2026-03-28T15:16:46Z</time></trkpt><trkpt lat="44.150202395022674" lon="10.04067135666999"><ele>326.0</ele><time>2026-03-28T15:16:50Z</time></trkpt><trkpt lat="44.150213370562" lon="10.040758747568125"><ele>326.0</ele><time>2026-03-28T15:16:52Z</time></trkpt><trkpt lat="44.15021349821552" lon="10.040875622935491"><ele>326.0</ele><time>2026-03-28T15:16:55Z</time></trkpt><trkpt lat="44.15023679309401" lon="10.040982392700696"><ele>326.0</ele><time>2026-03-28T15:16:58Z</time></trkpt><trkpt lat="44.15025850021557" lon="10.041072693123368"><ele>326.0</ele><time>2026-03-28T15:17:01Z</time></trkpt><trkpt lat="44.15025011500544" lon="10.041162813278435"><ele>326.0</ele><time>2026-03-28T15:17:09Z</time></trkpt><trkpt lat="44.15021730752759" lon="10.041245909738416"><ele>326.0</ele><time>2026-03-28T15:17:17Z</time></trkpt><trkpt lat="44.15016976419268" lon="10.041326995423443"><ele>325.14285714285717</ele><time>2026-03-28T15:17:23Z</time></trkpt><trkpt lat="44.150135020538094" lon="10.041405185297117"><ele>324.2857142857143</ele><time>2026-03-28T15:17:28Z</time></trkpt><trkpt lat="44.15010794589012" lon="10.04149809301426"><ele>323.42857142857144</ele><time>2026-03-28T15:17:33Z</time></trkpt><trkpt lat="44.15007885280787" lon="10.041579082277355"><ele>322.57142857142856</ele><time>2026-03-28T15:17:37Z</time></trkpt><trkpt lat="44.1500174596968" lon="10.041636782113114"><ele>321.7142857142857</ele><time>2026-03-28T15:17:42Z</time></trkpt><trkpt lat="44.149953738624454" lon="10.041676779651363"><ele>320.85714285714283</ele><time>2026-03-28T15:17:46Z</time></trkpt><trkpt lat="44.14988938298063" lon="10.041713781036039"><ele>320.0</ele><time>2026-03-28T15:17:50Z</time></trkpt><trkpt lat="44.1498238281256" lon="10.041720201953071"><ele>320.0</ele><time>2026-03-28T15:17:57Z</time></trkpt><trkpt lat="44.14976105125885" lon="10.041706477411003"><ele>320.0</ele><time>2026-03-28T15:18:03Z</time></trkpt><trkpt lat="44.149683321102074" lon="10.041712651047677"><ele>320.0</ele><time>2026-03-28T15:18:07.999Z</time></trkpt><trkpt lat="44.14967689837349" lon="10.041811003510992"><ele>320.0</ele><time>2026-03-28T15:18:32.999Z</time></trkpt><trkpt lat="44.149692844545406" lon="10.041898281033488"><ele>320.0</ele><time>2026-03-28T15:18:45Z</time></trkpt><trkpt lat="44.149738106388035" lon="10.04196251653591"><ele>320.0</ele><time>2026-03-28T15:18:52Z</time></trkpt><trkpt lat="44.1497817444527" lon="10.042038410050512"><ele>320.0</ele><time>2026-03-28T15:18:58Z</time></trkpt><trkpt lat="44.14983046854792" lon="10.04210225377421"><ele>317.57142857142856</ele><time>2026-03-28T15:19:11Z</time></trkpt><trkpt lat="44.149879314289116" lon="10.042186137436596"><ele>315.14285714285717</ele><time>2026-03-28T15:24:06.999Z</time></trkpt><trkpt lat="44.14992040469833" lon="10.042257160562372"><ele>312.7142857142857</ele><time>2026-03-28T15:24:09.999Z</time></trkpt><trkpt lat="44.149983758308785" lon="10.042287433184914"><ele>310.2857142857143</ele><time>2026-03-28T15:25:22Z</time></trkpt><trkpt lat="44.15004222633776" lon="10.042341358468729"><ele>307.85714285714283</ele><time>2026-03-28T15:25:43Z</time></trkpt><trkpt lat="44.150096113790184" lon="10.042409642444037"><ele>305.42857142857144</ele><time>2026-03-28T15:29:52Z</time></trkpt><trkpt lat="44.150046668334404" lon="10.042323734203201"><ele>303.0</ele><time>2026-03-28T15:38:27.999Z</time></trkpt><trkpt lat="44.149986649831746" lon="10.042267428427184"><ele>303.0</ele><time>2026-03-28T15:39:19.999Z</time></trkpt><trkpt lat="44.14990308180568" lon="10.04220497444383"><ele>303.0</ele><time>2026-03-28T15:40:18Z</time></trkpt><trkpt lat="44.14985698395543" lon="10.042144473196364"><ele>303.0</ele><time>2026-03-28T15:40:44.999Z</time></trkpt><trkpt lat="44.14981853579682" lon="10.042070996739103"><ele>303.0</ele><time>2026-03-28T15:40:56.999Z</time></trkpt><trkpt lat="44.14977491149375" lon="10.042003962225479"><ele>303.0</ele><time>2026-03-28T15:41:22.999Z</time></trkpt><trkpt lat="44.14972723935017" lon="10.041930999483261"><ele>303.0</ele><time>2026-03-28T15:41:27.999Z</time></trkpt><trkpt lat="44.14967765406047" lon="10.041869138715715"><ele>303.0</ele><time>2026-03-28T15:41:31.999Z</time></trkpt><trkpt lat="44.149669947686924" lon="10.04177253368338"><ele>303.0</ele><time>2026-03-28T15:42:02Z</time></trkpt><trkpt lat="44.14974513411953" lon="10.041791264232273"><ele>303.0</ele><time>2026-03-28T15:42:09Z</time></trkpt><trkpt lat="44.149809159345565" lon="10.041791854716628"><ele>303.0</ele><time>2026-03-28T15:42:14Z</time></trkpt><trkpt lat="44.149884525612244" lon="10.041756740930435"><ele>303.0</ele><time>2026-03-28T15:42:19Z</time></trkpt><trkpt lat="44.14995852172363" lon="10.041698031936846"><ele>303.0</ele><time>2026-03-28T15:42:23Z</time></trkpt><trkpt lat="44.1500175891158" lon="10.041621853523882"><ele>303.0</ele><time>2026-03-28T15:42:27Z</time></trkpt><trkpt lat="44.15006069489205" lon="10.041556889962061"><ele>303.0</ele><time>2026-03-28T15:42:31Z</time></trkpt><trkpt lat="44.15008678531655" lon="10.041474647605467"><ele>305.14285714285717</ele><time>2026-03-28T15:42:34Z</time></trkpt><trkpt lat="44.150134021085144" lon="10.041382318821626"><ele>307.2857142857143</ele><time>2026-03-28T15:42:37.999Z</time></trkpt><trkpt lat="44.150175324907956" lon="10.041301972317445"><ele>309.42857142857144</ele><time>2026-03-28T15:42:41.999Z</time></trkpt><trkpt lat="44.15020897129943" lon="10.04121759158465"><ele>311.57142857142856</ele><time>2026-03-28T15:42:45.999Z</time></trkpt><trkpt lat="44.15025086602903" lon="10.04114476079791"><ele>313.7142857142857</ele><time>2026-03-28T15:44:09Z</time></trkpt><trkpt lat="44.15023592724211" lon="10.041050516741652"><ele>315.85714285714283</ele><time>2026-03-28T15:44:14Z</time></trkpt><trkpt lat="44.150210516259754" lon="10.040967829748546"><ele>318.0</ele><time>2026-03-28T15:44:17Z</time></trkpt><trkpt lat="44.15019821890935" lon="10.04087976445602"><ele>319.1428571428571</ele><time>2026-03-28T15:44:24Z</time></trkpt><trkpt lat="44.1501903025626" lon="10.04078857280538"><ele>320.28571428571433</ele><time>2026-03-28T15:44:27Z</time></trkpt><trkpt lat="44.150168508224084" lon="10.040705632465771"><ele>321.42857142857144</ele><time>2026-03-28T15:44:29Z</time></trkpt><trkpt lat="44.150149437959556" lon="10.040620132839418"><ele>322.57142857142856</ele><time>2026-03-28T15:44:30Z</time></trkpt><trkpt lat="44.15012721769159" lon="10.040511643348095"><ele>323.71428571428567</ele><time>2026-03-28T15:44:31Z</time></trkpt><trkpt lat="44.15012384400917" lon="10.040421244913352"><ele>324.8571428571429</ele><time>2026-03-28T15:44:32Z</time></trkpt><trkpt lat="44.15013076196315" lon="10.04030273667173"><ele>326.0</ele><time>2026-03-28T15:44:34Z</time></trkpt><trkpt lat="44.150125354356405" lon="10.04020011965096"><ele>326.0</ele><time>2026-03-28T15:44:36Z</time></trkpt><trkpt lat="44.15014520111052" lon="10.040088044260806"><ele>326.0</ele><time>2026-03-28T15:44:38Z</time></trkpt><trkpt lat="44.150153150253445" lon="10.039986193421207"><ele>326.0</ele><time>2026-03-28T15:44:40Z</time></trkpt><trkpt lat="44.150159771310676" lon="10.039886079036645"><ele>326.0</ele><time>2026-03-28T15:44:42Z</time></trkpt><trkpt lat="44.150169632458926" lon="10.039747324892225"><ele>326.0</ele><time>2026-03-28T15:44:44Z</time></trkpt><trkpt lat="44.15019139822849" lon="10.039613365297194"><ele>326.0</ele><time>2026-03-28T15:44:46Z</time></trkpt><trkpt lat="44.15023244041294" lon="10.039518211647483"><ele>326.83333333333337</ele><time>2026-03-28T15:44:49.999Z</time></trkpt><trkpt lat="44.1502799884988" lon="10.039445690914585"><ele>327.6666666666667</ele><time>2026-03-28T15:44:52.999Z</time></trkpt><trkpt lat="44.15033564236714" lon="10.039394631677894"><ele>328.5</ele><time>2026-03-28T15:44:54.999Z</time></trkpt><trkpt lat="44.150410393953514" lon="10.039326537991021"><ele>329.3333333333333</ele><time>2026-03-28T15:44:58.999Z</time></trkpt><trkpt lat="44.150467502194516" lon="10.039277809135509"><ele>330.16666666666663</ele><time>2026-03-28T15:45:00.999Z</time></trkpt><trkpt lat="44.15053848020807" lon="10.039223231240362"><ele>331.0</ele><time>2026-03-28T15:45:03.999Z</time></trkpt><trkpt lat="44.150626982621674" lon="10.039157023029384"><ele>331.57142857142856</ele><time>2026-03-28T15:45:06.999Z</time></trkpt><trkpt lat="44.15068793724509" lon="10.039122142533344"><ele>332.1428571428571</ele><time>2026-03-28T15:45:08.999Z</time></trkpt><trkpt lat="44.150752863835024" lon="10.039116504344747"><ele>332.71428571428567</ele><time>2026-03-28T15:45:12.999Z</time></trkpt><trkpt lat="44.15082501712024" lon="10.0390635607819"><ele>333.2857142857143</ele><time>2026-03-28T15:45:16.999Z</time></trkpt><trkpt lat="44.150863312003054" lon="10.038982174747709"><ele>333.85714285714283</ele><time>2026-03-28T15:45:19.999Z</time></trkpt><trkpt lat="44.15092518893815" lon="10.038931113988363"><ele>334.4285714285714</ele><time>2026-03-28T15:45:22.999Z</time></trkpt><trkpt lat="44.15099033206651" lon="10.03885996234086"><ele>335.0</ele><time>2026-03-28T15:45:25.999Z</time></trkpt><trkpt lat="44.15103444062224" lon="10.03879394673517"><ele>334.99999999999994</ele><time>2026-03-28T15:45:28.999Z</time></trkpt><trkpt lat="44.15108849837682" lon="10.038732571535519"><ele>335.0</ele><time>2026-03-28T15:45:30.999Z</time></trkpt><trkpt lat="44.151145599496374" lon="10.038658730258765"><ele>335.0</ele><time>2026-03-28T15:45:33.999Z</time></trkpt><trkpt lat="44.15119008779175" lon="10.038574295634639"><ele>335.0</ele><time>2026-03-28T15:45:36.999Z</time></trkpt><trkpt lat="44.15123011300243" lon="10.038488829067594"><ele>335.0</ele><time>2026-03-28T15:45:43.999Z</time></trkpt><trkpt lat="44.151245170705806" lon="10.038399363895598"><ele>334.99999999999994</ele><time>2026-03-28T15:45:52.999Z</time></trkpt><trkpt lat="44.15123844757669" lon="10.03829015086472"><ele>335.0</ele><time>2026-03-28T15:46:07Z</time></trkpt><trkpt lat="44.151234629014006" lon="10.038198209918223"><ele>335.0</ele><time>2026-03-28T15:46:09Z</time></trkpt><trkpt lat="44.15117765328956" lon="10.0381435348064"><ele>335.0</ele><time>2026-03-28T15:46:16Z</time></trkpt><trkpt lat="44.15110486283374" lon="10.03809443062082"><ele>335.0</ele><time>2026-03-28T15:46:21Z</time></trkpt><trkpt lat="44.15105317862173" lon="10.038167061983579"><ele>335.0</ele><time>2026-03-28T15:46:32Z</time></trkpt><trkpt lat="44.150993859795626" lon="10.038203917825403"><ele>335.0</ele><time>2026-03-28T15:46:34Z</time></trkpt><trkpt lat="44.150912985132756" lon="10.038251863340426"><ele>335.0</ele><time>2026-03-28T15:46:37Z</time></trkpt><trkpt lat="44.15080866198511" lon="10.038311514751294"><ele>335.0</ele><time>2026-03-28T15:46:39Z</time></trkpt><trkpt lat="44.15073104482514" lon="10.038314078759957"><ele>335.0</ele><time>2026-03-28T15:46:41Z</time></trkpt><trkpt lat="44.15065854776222" lon="10.038299972976803"><ele>335.0</ele><time>2026-03-28T15:46:43Z</time></trkpt><trkpt lat="44.15057616682121" lon="10.038270552066836"><ele>335.0</ele><time>2026-03-28T15:46:50Z</time></trkpt><trkpt lat="44.15050382130703" lon="10.038244194688405"><ele>335.0</ele><time>2026-03-28T15:47:15.999Z</time></trkpt><trkpt lat="44.15041278197203" lon="10.038289328871768"><ele>335.0</ele><time>2026-03-28T15:47:17.999Z</time></trkpt><trkpt lat="44.150350946367475" lon="10.038327165314696"><ele>337.2</ele><time>2026-03-28T15:47:20.999Z</time></trkpt><trkpt lat="44.15026700840457" lon="10.038370824817907"><ele>339.4</ele><time>2026-03-28T15:47:22.999Z</time></trkpt><trkpt lat="44.1501772139222" lon="10.038420550651477"><ele>341.6</ele><time>2026-03-28T15:47:24.999Z</time></trkpt><trkpt lat="44.15008396238191" lon="10.038390936204982"><ele>343.8</ele><time>2026-03-28T15:47:26.999Z</time></trkpt><trkpt lat="44.14999813223534" lon="10.038318930417232"><ele>346.0</ele><time>2026-03-28T15:47:28.999Z</time></trkpt><trkpt lat="44.14994109356024" lon="10.038383177805338"><ele>348.16666666666663</ele><time>2026-03-28T15:47:30.999Z</time></trkpt><trkpt lat="44.149832452275454" lon="10.038422435275141"><ele>350.3333333333333</ele><time>2026-03-28T15:47:32.999Z</time></trkpt><trkpt lat="44.14975737342283" lon="10.038450520257035"><ele>352.5</ele><time>2026-03-28T15:47:33.999Z</time></trkpt><trkpt lat="44.14969690530318" lon="10.038485482289849"><ele>354.6666666666667</ele><time>2026-03-28T15:47:34.999Z</time></trkpt><trkpt lat="44.14964060739218" lon="10.038526389288359"><ele>356.83333333333337</ele><time>2026-03-28T15:47:35.999Z</time></trkpt><trkpt lat="44.14957467704902" lon="10.038548915193092"><ele>359.0</ele><time>2026-03-28T15:47:37.999Z</time></trkpt><trkpt lat="44.14950250073496" lon="10.038550908143414"><ele>359.0</ele><time>2026-03-28T15:47:41.999Z</time></trkpt><trkpt lat="44.14943529547564" lon="10.038524688232442"><ele>359.0</ele><time>2026-03-28T15:47:44.999Z</time></trkpt><trkpt lat="44.149478585898784" lon="10.038443436677348"><ele>359.0</ele><time>2026-03-28T15:47:48.999Z</time></trkpt><trkpt lat="44.14953926811421" lon="10.038369596621532"><ele>359.0</ele><time>2026-03-28T15:47:50.999Z</time></trkpt><trkpt lat="44.14961585304" lon="10.038250945367235"><ele>359.0</ele><time>2026-03-28T15:47:52.999Z</time></trkpt><trkpt lat="44.149667122342706" lon="10.038147899179336"><ele>359.0</ele><time>2026-03-28T15:47:54.999Z</time></trkpt><trkpt lat="44.14971785866306" lon="10.03803711183044"><ele>362.0</ele><time>2026-03-28T15:47:56.999Z</time></trkpt><trkpt lat="44.14974579622769" lon="10.037938291263867"><ele>365.0</ele><time>2026-03-28T15:47:59.999Z</time></trkpt><trkpt lat="44.14969738224241" lon="10.037877384509708"><ele>368.0</ele><time>2026-03-28T15:48:01.999Z</time></trkpt><trkpt lat="44.14961865248983" lon="10.03789172004271"><ele>371.0</ele><time>2026-03-28T15:48:03.999Z</time></trkpt><trkpt lat="44.149543741439835" lon="10.037863298314099"><ele>374.0</ele><time>2026-03-28T15:48:06Z</time></trkpt><trkpt lat="44.149512469755344" lon="10.037758410816588"><ele>377.0</ele><time>2026-03-28T15:48:08Z</time></trkpt><trkpt lat="44.149510519449095" lon="10.03764991039139"><ele>377.0</ele><time>2026-03-28T15:48:10Z</time></trkpt><trkpt lat="44.14941276164511" lon="10.037602692519682"><ele>377.0</ele><time>2026-03-28T15:48:13Z</time></trkpt><trkpt lat="44.149342618359576" lon="10.037551198550371"><ele>377.0</ele><time>2026-03-28T15:48:15Z</time></trkpt><trkpt lat="44.149337955512145" lon="10.037436860127"><ele>377.0</ele><time>2026-03-28T15:48:19Z</time></trkpt><trkpt lat="44.14940889706696" lon="10.037338189568002"><ele>377.0</ele><time>2026-03-28T15:48:21Z</time></trkpt><trkpt lat="44.14944806508126" lon="10.037251881858234"><ele>377.0</ele><time>2026-03-28T15:48:23Z</time></trkpt><trkpt lat="44.149498650448365" lon="10.03714219400001"><ele>380.1666666666667</ele><time>2026-03-28T15:48:25Z</time></trkpt><trkpt lat="44.14950129486025" lon="10.037008947312142"><ele>383.33333333333337</ele><time>2026-03-28T15:48:27Z</time></trkpt><trkpt lat="44.149481164627424" lon="10.036901362854179"><ele>386.5</ele><time>2026-03-28T15:48:29Z</time></trkpt><trkpt lat="44.149481137496146" lon="10.036802260295776"><ele>389.6666666666667</ele><time>2026-03-28T15:48:31Z</time></trkpt><trkpt lat="44.14942726886856" lon="10.03669511430908"><ele>392.8333333333333</ele><time>2026-03-28T15:48:34Z</time></trkpt><trkpt lat="44.14934963096036" lon="10.036646458056136"><ele>396.0</ele><time>2026-03-28T15:48:36Z</time></trkpt><trkpt lat="44.14931807097178" lon="10.036549952944574"><ele>398.0</ele><time>2026-03-28T15:48:38Z</time></trkpt><trkpt lat="44.149276148750275" lon="10.036448540777144"><ele>400.0</ele><time>2026-03-28T15:48:40Z</time></trkpt><trkpt lat="44.14922787735415" lon="10.03632499627286"><ele>402.0</ele><time>2026-03-28T15:48:42Z</time></trkpt><trkpt lat="44.149166604560286" lon="10.03624489118127"><ele>404.0</ele><time>2026-03-28T15:48:45Z</time></trkpt><trkpt lat="44.14907522032173" lon="10.036196680193267"><ele>406.0</ele><time>2026-03-28T15:48:48Z</time></trkpt><trkpt lat="44.14900477000613" lon="10.036148845572356"><ele>408.0</ele><time>2026-03-28T15:48:50Z</time></trkpt><trkpt lat="44.14892322993521" lon="10.036147425748196"><ele>408.5</ele><time>2026-03-28T15:48:52Z</time></trkpt><trkpt lat="44.14886702063145" lon="10.036058929713258"><ele>409.0</ele><time>2026-03-28T15:48:56Z</time></trkpt><trkpt lat="44.148916132181895" lon="10.035940133383834"><ele>409.5</ele><time>2026-03-28T15:48:58Z</time></trkpt><trkpt lat="44.14894743691253" lon="10.035832865214617"><ele>410.0</ele><time>2026-03-28T15:49:01.999Z</time></trkpt><trkpt lat="44.14901015673802" lon="10.03581419472815"><ele>410.5</ele><time>2026-03-28T15:49:03.999Z</time></trkpt><trkpt lat="44.14911716646761" lon="10.035790503242474"><ele>411.0</ele><time>2026-03-28T15:49:05.999Z</time></trkpt><trkpt lat="44.14918146627546" lon="10.035774381300508"><ele>411.0</ele><time>2026-03-28T15:49:06.999Z</time></trkpt><trkpt lat="44.149250289359294" lon="10.035718364874425"><ele>411.0</ele><time>2026-03-28T15:49:13.999Z</time></trkpt><trkpt lat="44.14931675436262" lon="10.035681571919342"><ele>411.0</ele><time>2026-03-28T15:49:15.999Z</time></trkpt><trkpt lat="44.14936984823441" lon="10.03574726640553"><ele>411.0</ele><time>2026-03-28T15:49:17.999Z</time></trkpt><trkpt lat="44.149428760825" lon="10.03578484754983"><ele>411.0</ele><time>2026-03-28T15:49:18.999Z</time></trkpt><trkpt lat="44.14953291281208" lon="10.03583575466832"><ele>411.0</ele><time>2026-03-28T15:49:20.999Z</time></trkpt><trkpt lat="44.14960356377088" lon="10.035856063171122"><ele>411.0</ele><time>2026-03-28T15:49:22.999Z</time></trkpt><trkpt lat="44.14965541649294" lon="10.035910648778472"><ele>411.0</ele><time>2026-03-28T15:49:34.999Z</time></trkpt><trkpt lat="44.14971666097836" lon="10.035962262207287"><ele>411.0</ele><time>2026-03-28T15:53:17.999Z</time></trkpt><trkpt lat="44.14977922335276" lon="10.035989593262892"><ele>411.0</ele><time>2026-03-28T15:53:24.999Z</time></trkpt><trkpt lat="44.14984534922357" lon="10.03600681107857"><ele>411.0</ele><time>2026-03-28T15:53:36.999Z</time></trkpt><trkpt lat="44.149895763325375" lon="10.035876001389825"><ele>411.0</ele><time>2026-03-28T15:54:08.999Z</time></trkpt><trkpt lat="44.14986654266189" lon="10.035786622087096"><ele>411.0</ele><time>2026-03-28T15:54:19.999Z</time></trkpt><trkpt lat="44.149818303756035" lon="10.035723977801721"><ele>411.0</ele><time>2026-03-28T15:54:24Z</time></trkpt><trkpt lat="44.149761847942834" lon="10.035677256871786"><ele>411.0</ele><time>2026-03-28T15:54:26Z</time></trkpt><trkpt lat="44.1496991987565" lon="10.035554038134753"><ele>411.0</ele><time>2026-03-28T15:54:28Z</time></trkpt><trkpt lat="44.14966324298831" lon="10.035454349495392"><ele>411.0</ele><time>2026-03-28T15:54:30Z</time></trkpt><trkpt lat="44.14962748103037" lon="10.035377601615512"><ele>411.0</ele><time>2026-03-28T15:54:34Z</time></trkpt><trkpt lat="44.14958661620972" lon="10.035289905805005"><ele>411.0</ele><time>2026-03-28T15:54:38Z</time></trkpt><trkpt lat="44.14957567414739" lon="10.035199813453026"><ele>411.0</ele><time>2026-03-28T15:54:43Z</time></trkpt><trkpt lat="44.149566770412" lon="10.035110204132389"><ele>411.0</ele><time>2026-03-28T15:54:50Z</time></trkpt><trkpt lat="44.14957643053975" lon="10.035019094491656"><ele>411.0</ele><time>2026-03-28T15:55:01Z</time></trkpt><trkpt lat="44.1495916451103" lon="10.034924145114184"><ele>411.0</ele><time>2026-03-28T15:55:14.999Z</time></trkpt><trkpt lat="44.14964262757555" lon="10.034837815971365"><ele>411.0</ele><time>2026-03-28T15:55:29.999Z</time></trkpt><trkpt lat="44.149692905280446" lon="10.034783280376713"><ele>411.0</ele><time>2026-03-28T15:55:37.999Z</time></trkpt><trkpt lat="44.149740247346706" lon="10.034679152925557"><ele>411.0</ele><time>2026-03-28T15:55:40.999Z</time></trkpt><trkpt lat="44.14972119585674" lon="10.034584385604202"><ele>410.0</ele><time>2026-03-28T15:55:44.999Z</time></trkpt><trkpt lat="44.14974549728165" lon="10.034476014345014"><ele>409.0</ele><time>2026-03-28T15:55:49.999Z</time></trkpt><trkpt lat="44.149788336798174" lon="10.034396360226397"><ele>408.0</ele><time>2026-03-28T15:55:51.999Z</time></trkpt><trkpt lat="44.14987260091214" lon="10.034355015532498"><ele>407.0</ele><time>2026-03-28T15:55:53.999Z</time></trkpt><trkpt lat="44.149960737858066" lon="10.034402246898445"><ele>406.0</ele><time>2026-03-28T15:55:56.999Z</time></trkpt><trkpt lat="44.15002314910725" lon="10.034437509939531"><ele>405.0</ele><time>2026-03-28T15:55:58.999Z</time></trkpt><trkpt lat="44.15009080887551" lon="10.034471587530385"><ele>401.2857142857143</ele><time>2026-03-28T15:56:02.999Z</time></trkpt><trkpt lat="44.150162771558755" lon="10.03447799327263"><ele>397.57142857142856</ele><time>2026-03-28T15:56:07.999Z</time></trkpt><trkpt lat="44.15022807570069" lon="10.0344689599058"><ele>393.8571428571429</ele><time>2026-03-28T15:56:12.999Z</time></trkpt><trkpt lat="44.150304841605866" lon="10.034442933029235"><ele>390.1428571428571</ele><time>2026-03-28T15:56:17.999Z</time></trkpt><trkpt lat="44.150374658362324" lon="10.034433288255679"><ele>386.42857142857144</ele><time>2026-03-28T15:56:21.999Z</time></trkpt><trkpt lat="44.15044168121936" lon="10.034424163861427"><ele>382.7142857142857</ele><time>2026-03-28T15:56:26.999Z</time></trkpt><trkpt lat="44.150513342210125" lon="10.034392807439216"><ele>379.0</ele><time>2026-03-28T15:56:31Z</time></trkpt><trkpt lat="44.150572324345625" lon="10.034360928776767"><ele>379.00000000000006</ele><time>2026-03-28T15:56:34Z</time></trkpt><trkpt lat="44.150622795064486" lon="10.034257995392794"><ele>379.0</ele><time>2026-03-28T15:57:01.999Z</time></trkpt><trkpt lat="44.15058729889676" lon="10.03417838582986"><ele>379.0</ele><time>2026-03-28T15:57:07.999Z</time></trkpt><trkpt lat="44.150524275286465" lon="10.034146808340845"><ele>379.0</ele><time>2026-03-28T15:57:18.999Z</time></trkpt><trkpt lat="44.15045883017599" lon="10.034120651084779"><ele>379.0</ele><time>2026-03-28T15:57:24.999Z</time></trkpt><trkpt lat="44.150398361255604" lon="10.03409417204091"><ele>379.00000000000006</ele><time>2026-03-28T16:07:23Z</time></trkpt><trkpt lat="44.150482929971304" lon="10.034109444991747"><ele>379.0</ele><time>2026-03-28T16:18:14.999Z</time></trkpt><trkpt lat="44.15057226086339" lon="10.03414380693197"><ele>379.0</ele><time>2026-03-28T16:18:42.999Z</time></trkpt><trkpt lat="44.15062491251455" lon="10.034226041913115"><ele>379.0</ele><time>2026-03-28T16:18:46.999Z</time></trkpt><trkpt lat="44.15062645976331" lon="10.034328079099701"><ele>379.0</ele><time>2026-03-28T16:18:51.999Z</time></trkpt><trkpt lat="44.15056807783726" lon="10.034384297513341"><ele>379.0</ele><time>2026-03-28T16:19:16.999Z</time></trkpt><trkpt lat="44.15049934201105" lon="10.034419271444804"><ele>379.0</ele><time>2026-03-28T16:19:19.999Z</time></trkpt><trkpt lat="44.15043388598668" lon="10.034424398486447"><ele>379.0</ele><time>2026-03-28T16:19:22.999Z</time></trkpt><trkpt lat="44.150345814471954" lon="10.03442467306895"><ele>379.0</ele><time>2026-03-28T16:19:26.999Z</time></trkpt><trkpt lat="44.150280621260215" lon="10.034456007826519"><ele>379.0</ele><time>2026-03-28T16:19:29.999Z</time></trkpt><trkpt lat="44.150193383615914" lon="10.034461815975957"><ele>379.0</ele><time>2026-03-28T16:19:33.999Z</time></trkpt><trkpt lat="44.15009849836629" lon="10.034456959372571"><ele>379.0</ele><time>2026-03-28T16:19:35.999Z</time></trkpt><trkpt lat="44.15003953892539" lon="10.03442266023573"><ele>379.0</ele><time>2026-03-28T16:19:36.999Z</time></trkpt><trkpt lat="44.14996611396303" lon="10.034367615059793"><ele>379.0</ele><time>2026-03-28T16:19:38.999Z</time></trkpt><trkpt lat="44.14987678676863" lon="10.034360308513252"><ele>383.3333333333333</ele><time>2026-03-28T16:19:40.999Z</time></trkpt><trkpt lat="44.14978867379657" lon="10.034479587155461"><ele>387.66666666666663</ele><time>2026-03-28T16:19:42.999Z</time></trkpt><trkpt lat="44.149764337508905" lon="10.034579720291418"><ele>392.0</ele><time>2026-03-28T16:19:54.999Z</time></trkpt><trkpt lat="44.14976967791872" lon="10.034677722224249"><ele>396.3333333333333</ele><time>2026-03-28T16:20:00.999Z</time></trkpt><trkpt lat="44.14973979097439" lon="10.034756253354951"><ele>400.6666666666667</ele><time>2026-03-28T16:20:03.999Z</time></trkpt><trkpt lat="44.149679781608924" lon="10.034794612598555"><ele>405.0</ele><time>2026-03-28T16:20:12.999Z</time></trkpt><trkpt lat="44.149632155500555" lon="10.034871638459645"><ele>405.0</ele><time>2026-03-28T16:20:23.999Z</time></trkpt><trkpt lat="44.149585329907644" lon="10.034956270725521"><ele>405.0</ele><time>2026-03-28T16:21:45.999Z</time></trkpt><trkpt lat="44.14956835829318" lon="10.035046545905734"><ele>405.0</ele><time>2026-03-28T16:21:53.999Z</time></trkpt><trkpt lat="44.14958034822887" lon="10.035143903319533"><ele>405.0</ele><time>2026-03-28T16:22:04.999Z</time></trkpt><trkpt lat="44.14958200625912" lon="10.03525403660024"><ele>405.0</ele><time>2026-03-28T16:22:35Z</time></trkpt><trkpt lat="44.14960667116752" lon="10.03534230107497"><ele>405.0</ele><time>2026-03-28T16:22:40Z</time></trkpt><trkpt lat="44.1496694996124" lon="10.035457924995354"><ele>405.5</ele><time>2026-03-28T16:22:43Z</time></trkpt><trkpt lat="44.14969356026907" lon="10.035551869672478"><ele>406.0</ele><time>2026-03-28T16:22:44Z</time></trkpt><trkpt lat="44.14976945977392" lon="10.035667989832168"><ele>406.5</ele><time>2026-03-28T16:22:46Z</time></trkpt><trkpt lat="44.14983741987436" lon="10.035713654275211"><ele>407.0</ele><time>2026-03-28T16:22:49Z</time></trkpt><trkpt lat="44.14987720098766" lon="10.035786639461673"><ele>407.5</ele><time>2026-03-28T16:22:53Z</time></trkpt><trkpt lat="44.14989387203041" lon="10.035911480704941"><ele>408.0</ele><time>2026-03-28T16:23:03Z</time></trkpt><trkpt lat="44.149848122462224" lon="10.036008302421825"><ele>408.0</ele><time>2026-03-28T16:23:06Z</time></trkpt><trkpt lat="44.14977604828672" lon="10.035989600381049"><ele>408.0</ele><time>2026-03-28T16:23:11Z</time></trkpt><trkpt lat="44.149690331933215" lon="10.035947731942109"><ele>408.0</ele><time>2026-03-28T16:23:47Z</time></trkpt><trkpt lat="44.14963711238015" lon="10.035872357610687"><ele>408.0</ele><time>2026-03-28T16:24:01Z</time></trkpt><trkpt lat="44.14957623909125" lon="10.03584788410103"><ele>408.0</ele><time>2026-03-28T16:24:29Z</time></trkpt><trkpt lat="44.149504083205464" lon="10.035817305115279"><ele>408.0</ele><time>2026-03-28T16:24:35Z</time></trkpt><trkpt lat="44.1494116328558" lon="10.035759741046318"><ele>408.5</ele><time>2026-03-28T16:24:37Z</time></trkpt><trkpt lat="44.14931709424058" lon="10.03568543594165"><ele>409.0</ele><time>2026-03-28T16:24:39Z</time></trkpt><trkpt lat="44.14923143879297" lon="10.035711559836082"><ele>409.5</ele><time>2026-03-28T16:24:41Z</time></trkpt><trkpt lat="44.14917504459143" lon="10.035778871458035"><ele>410.0</ele><time>2026-03-28T16:24:43Z</time></trkpt><trkpt lat="44.14907240748943" lon="10.035786027644539"><ele>410.5</ele><time>2026-03-28T16:24:45Z</time></trkpt><trkpt lat="44.14900254781782" lon="10.035801609598114"><ele>411.0</ele><time>2026-03-28T16:24:46Z</time></trkpt><trkpt lat="44.14893387031118" lon="10.035851336877968"><ele>410.5</ele><time>2026-03-28T16:24:49Z</time></trkpt><trkpt lat="44.14891769096558" lon="10.035970484613621"><ele>410.0</ele><time>2026-03-28T16:24:52Z</time></trkpt><trkpt lat="44.1488764245288" lon="10.036057435267615"><ele>409.5</ele><time>2026-03-28T16:24:54Z</time></trkpt><trkpt lat="44.14895195413485" lon="10.036100359898462"><ele>409.0</ele><time>2026-03-28T16:25:00Z</time></trkpt><trkpt lat="44.14901765895878" lon="10.036113613621428"><ele>408.5</ele><time>2026-03-28T16:25:02Z</time></trkpt><trkpt lat="44.14909799998627" lon="10.036157329444915"><ele>408.0</ele><time>2026-03-28T16:25:05Z</time></trkpt><trkpt lat="44.14918062175853" lon="10.036213796370733"><ele>408.0</ele><time>2026-03-28T16:25:08Z</time></trkpt><trkpt lat="44.149218321876056" lon="10.036299818392026"><ele>408.0</ele><time>2026-03-28T16:25:11Z</time></trkpt><trkpt lat="44.149259359687285" lon="10.036384844799164"><ele>408.0</ele><time>2026-03-28T16:25:12Z</time></trkpt><trkpt lat="44.149292269746944" lon="10.036463106973581"><ele>408.0</ele><time>2026-03-28T16:25:13Z</time></trkpt><trkpt lat="44.1493324114289" lon="10.036581756232428"><ele>408.0</ele><time>2026-03-28T16:25:15Z</time></trkpt><trkpt lat="44.14938500889447" lon="10.036642853921673"><ele>408.0</ele><time>2026-03-28T16:25:17Z</time></trkpt><trkpt lat="44.14944377766392" lon="10.036680846327636"><ele>408.0</ele><time>2026-03-28T16:25:19Z</time></trkpt><trkpt lat="44.149474628643084" lon="10.036784117975902"><ele>405.59999999999997</ele><time>2026-03-28T16:25:21Z</time></trkpt><trkpt lat="44.14947940915616" lon="10.036909601090091"><ele>403.2</ele><time>2026-03-28T16:25:24Z</time></trkpt><trkpt lat="44.14949904314542" lon="10.037030239320336"><ele>400.8</ele><time>2026-03-28T16:25:26Z</time></trkpt><trkpt lat="44.14948867001041" lon="10.037147772170911"><ele>398.4</ele><time>2026-03-28T16:25:28Z</time></trkpt><trkpt lat="44.149419750263" lon="10.037239672020341"><ele>396.0</ele><time>2026-03-28T16:25:30Z</time></trkpt><trkpt lat="44.14935963173611" lon="10.037341100530645"><ele>396.0</ele><time>2026-03-28T16:25:32Z</time></trkpt><trkpt lat="44.149318868075426" lon="10.03744504960145"><ele>396.0</ele><time>2026-03-28T16:25:35Z</time></trkpt><trkpt lat="44.14936045189977" lon="10.037515866785103"><ele>396.0</ele><time>2026-03-28T16:25:38Z</time></trkpt><trkpt lat="44.149462109197415" lon="10.037586899157258"><ele>396.0</ele><time>2026-03-28T16:25:40Z</time></trkpt><trkpt lat="44.1495113694504" lon="10.037661176382512"><ele>396.0</ele><time>2026-03-28T16:25:42Z</time></trkpt><trkpt lat="44.14951587168059" lon="10.037753470718608"><ele>396.0</ele><time>2026-03-28T16:25:43.999Z</time></trkpt><trkpt lat="44.14955471479732" lon="10.03782374086405"><ele>392.8333333333333</ele><time>2026-03-28T16:25:45.999Z</time></trkpt><trkpt lat="44.14962836700692" lon="10.037848123846326"><ele>389.6666666666667</ele><time>2026-03-28T16:25:47.999Z</time></trkpt><trkpt lat="44.14970696404313" lon="10.037833992634956"><ele>386.5</ele><time>2026-03-28T16:25:50Z</time></trkpt><trkpt lat="44.149731463995394" lon="10.037927964433367"><ele>383.33333333333337</ele><time>2026-03-28T16:25:53Z</time></trkpt><trkpt lat="44.14969850904906" lon="10.038034663341081"><ele>380.1666666666667</ele><time>2026-03-28T16:25:55Z</time></trkpt><trkpt lat="44.149659569883674" lon="10.038122348098952"><ele>377.0</ele><time>2026-03-28T16:25:59Z</time></trkpt><trkpt lat="44.14960497307565" lon="10.03822613869799"><ele>377.0</ele><time>2026-03-28T16:26:01Z</time></trkpt><trkpt lat="44.14956276061903" lon="10.038300566863311"><ele>377.0</ele><time>2026-03-28T16:26:03Z</time></trkpt><trkpt lat="44.14949973617916" lon="10.038394226584094"><ele>377.0</ele><time>2026-03-28T16:26:05Z</time></trkpt><trkpt lat="44.149440774969975" lon="10.038461142781369"><ele>377.0</ele><time>2026-03-28T16:26:30Z</time></trkpt><trkpt lat="44.14951731754264" lon="10.03854995990177"><ele>377.0</ele><time>2026-03-28T16:26:41Z</time></trkpt><trkpt lat="44.149607841133246" lon="10.038536987650588"><ele>377.0</ele><time>2026-03-28T16:26:43Z</time></trkpt><trkpt lat="44.149681524513795" lon="10.03849402697811"><ele>374.0</ele><time>2026-03-28T16:26:45Z</time></trkpt><trkpt lat="44.14976809253569" lon="10.038442837644348"><ele>371.0</ele><time>2026-03-28T16:26:47Z</time></trkpt><trkpt lat="44.149884948972755" lon="10.03840396231305"><ele>368.0</ele><time>2026-03-28T16:26:49Z</time></trkpt><trkpt lat="44.14995434890579" lon="10.03836822424684"><ele>365.0</ele><time>2026-03-28T16:26:51Z</time></trkpt><trkpt lat="44.15002688398723" lon="10.03837269265988"><ele>362.0</ele><time>2026-03-28T16:26:54Z</time></trkpt><trkpt lat="44.150088794529154" lon="10.038406345218403"><ele>359.0</ele><time>2026-03-28T16:26:55Z</time></trkpt><trkpt lat="44.15016170736525" lon="10.03843515627726"><ele>359.5</ele><time>2026-03-28T16:26:57Z</time></trkpt><trkpt lat="44.150247414636446" lon="10.038368189177154"><ele>360.0</ele><time>2026-03-28T16:26:59Z</time></trkpt><trkpt lat="44.15034967633857" lon="10.03831992923527"><ele>360.5</ele><time>2026-03-28T16:27:01Z</time></trkpt><trkpt lat="44.15042559385329" lon="10.03826394780783"><ele>361.0</ele><time>2026-03-28T16:27:03Z</time></trkpt><trkpt lat="44.150518040880605" lon="10.038257725766844"><ele>361.5</ele><time>2026-03-28T16:27:06Z</time></trkpt><trkpt lat="44.15057855740715" lon="10.038287626685698"><ele>362.0</ele><time>2026-03-28T16:27:09Z</time></trkpt><trkpt lat="44.1506493040578" lon="10.038299914696113"><ele>358.83333333333337</ele><time>2026-03-28T16:27:13Z</time></trkpt><trkpt lat="44.150728710373755" lon="10.038312208123477"><ele>355.6666666666667</ele><time>2026-03-28T16:27:15Z</time></trkpt><trkpt lat="44.150818070688956" lon="10.038277157414113"><ele>352.5</ele><time>2026-03-28T16:27:18Z</time></trkpt><trkpt lat="44.15088435799363" lon="10.038229223903883"><ele>349.3333333333333</ele><time>2026-03-28T16:27:20Z</time></trkpt><trkpt lat="44.15094022472558" lon="10.038186469637699"><ele>346.16666666666663</ele><time>2026-03-28T16:27:22Z</time></trkpt><trkpt lat="44.15101261810137" lon="10.038131126858637"><ele>343.0</ele><time>2026-03-28T16:27:25Z</time></trkpt><trkpt lat="44.15107512472887" lon="10.038044940206637"><ele>343.0</ele><time>2026-03-28T16:27:29Z</time></trkpt><trkpt lat="44.151119758408804" lon="10.03797189605382"><ele>343.0</ele><time>2026-03-28T16:27:31Z</time></trkpt><trkpt lat="44.151176825411845" lon="10.037865025157956"><ele>343.0</ele><time>2026-03-28T16:27:36Z</time></trkpt><trkpt lat="44.1511562582235" lon="10.037757700154566"><ele>343.0</ele><time>2026-03-28T16:27:38Z</time></trkpt><trkpt lat="44.15111789237231" lon="10.037634769130683"><ele>343.0</ele><time>2026-03-28T16:27:40Z</time></trkpt><trkpt lat="44.151084015697606" lon="10.037509566168941"><ele>343.0</ele><time>2026-03-28T16:27:42Z</time></trkpt><trkpt lat="44.151046757609016" lon="10.037412345700982"><ele>345.3333333333333</ele><time>2026-03-28T16:27:44Z</time></trkpt><trkpt lat="44.15110937944238" lon="10.037320154390502"><ele>347.66666666666663</ele><time>2026-03-28T16:27:48Z</time></trkpt><trkpt lat="44.15116755525027" lon="10.037262410235165"><ele>350.0</ele><time>2026-03-28T16:27:49.999Z</time></trkpt><trkpt lat="44.151188404348915" lon="10.037138595746397"><ele>352.3333333333333</ele><time>2026-03-28T16:27:52.999Z</time></trkpt><trkpt lat="44.15120422941816" lon="10.037047601814287"><ele>354.6666666666667</ele><time>2026-03-28T16:27:56Z</time></trkpt><trkpt lat="44.151235195589244" lon="10.036951471467399"><ele>357.0</ele><time>2026-03-28T16:28:01Z</time></trkpt><trkpt lat="44.15123978717675" lon="10.036846014739004"><ele>357.0</ele><time>2026-03-28T16:28:04Z</time></trkpt><trkpt lat="44.15124076593595" lon="10.036739573656549"><ele>357.0</ele><time>2026-03-28T16:28:07Z</time></trkpt><trkpt lat="44.151267514702624" lon="10.036652643895229"><ele>357.0</ele><time>2026-03-28T16:28:09Z</time></trkpt><trkpt lat="44.151316016221976" lon="10.036548100688737"><ele>357.0</ele><time>2026-03-28T16:28:12Z</time></trkpt><trkpt lat="44.15134353525284" lon="10.036438260212293"><ele>357.0</ele><time>2026-03-28T16:28:15Z</time></trkpt><trkpt lat="44.151364662397036" lon="10.036351270121044"><ele>357.0</ele><time>2026-03-28T16:28:23Z</time></trkpt><trkpt lat="44.151418876455764" lon="10.036304547190635"><ele>357.0</ele><time>2026-03-28T16:28:33Z</time></trkpt><trkpt lat="44.15148466926767" lon="10.036288651596431"><ele>356.42857142857144</ele><time>2026-03-28T16:28:40Z</time></trkpt><trkpt lat="44.15152951501198" lon="10.036360006845374"><ele>355.8571428571429</ele><time>2026-03-28T16:28:45Z</time></trkpt><trkpt lat="44.15158455641875" lon="10.036432162067277"><ele>355.2857142857143</ele><time>2026-03-28T16:28:49Z</time></trkpt><trkpt lat="44.1516288762292" lon="10.036515470759575"><ele>354.7142857142857</ele><time>2026-03-28T16:28:54Z</time></trkpt><trkpt lat="44.1515826498212" lon="10.036598878974058"><ele>354.14285714285717</ele><time>2026-03-28T16:29:00Z</time></trkpt><trkpt lat="44.15154343442875" lon="10.036673318306143"><ele>353.57142857142856</ele><time>2026-03-28T16:29:03Z</time></trkpt><trkpt lat="44.15157014592687" lon="10.036772828268017"><ele>353.0</ele><time>2026-03-28T16:29:06Z</time></trkpt><trkpt lat="44.151616058094405" lon="10.036856213380265"><ele>350.83333333333337</ele><time>2026-03-28T16:29:10Z</time></trkpt><trkpt lat="44.15170040685027" lon="10.036882641029045"><ele>348.6666666666667</ele><time>2026-03-28T16:29:14Z</time></trkpt><trkpt lat="44.15176452820728" lon="10.036934843801887"><ele>346.5</ele><time>2026-03-28T16:29:17Z</time></trkpt><trkpt lat="44.15182368297861" lon="10.036968302916492"><ele>344.3333333333333</ele><time>2026-03-28T16:29:21Z</time></trkpt><trkpt lat="44.15187702219012" lon="10.03706360711684"><ele>342.16666666666663</ele><time>2026-03-28T16:29:23Z</time></trkpt><trkpt lat="44.15195652146702" lon="10.037138556293666"><ele>340.0</ele><time>2026-03-28T16:29:26Z</time></trkpt><trkpt lat="44.15201986873484" lon="10.03716664932187"><ele>340.0</ele><time>2026-03-28T16:29:28Z</time></trkpt><trkpt lat="44.15208769144777" lon="10.037215797302338"><ele>340.0</ele><time>2026-03-28T16:29:30Z</time></trkpt><trkpt lat="44.15216897923525" lon="10.037241769604623"><ele>340.0</ele><time>2026-03-28T16:29:32Z</time></trkpt><trkpt lat="44.15225968037822" lon="10.037313979795979"><ele>340.0</ele><time>2026-03-28T16:29:35Z</time></trkpt><trkpt lat="44.15232320309023" lon="10.03737804826307"><ele>340.0</ele><time>2026-03-28T16:29:37Z</time></trkpt><trkpt lat="44.152393757230065" lon="10.037431034002427"><ele>340.0</ele><time>2026-03-28T16:29:40Z</time></trkpt><trkpt lat="44.15246463888521" lon="10.037480578012698"><ele>339.14285714285717</ele><time>2026-03-28T16:29:45Z</time></trkpt><trkpt lat="44.152533471494344" lon="10.037499154788748"><ele>338.2857142857143</ele><time>2026-03-28T16:29:48Z</time></trkpt><trkpt lat="44.15260953147303" lon="10.037505436669814"><ele>337.42857142857144</ele><time>2026-03-28T16:29:51Z</time></trkpt><trkpt lat="44.15267754370694" lon="10.037496515961768"><ele>336.57142857142856</ele><time>2026-03-28T16:29:54Z</time></trkpt><trkpt lat="44.15274601107924" lon="10.037470132712667"><ele>335.7142857142857</ele><time>2026-03-28T16:29:56Z</time></trkpt><trkpt lat="44.15281200637149" lon="10.037424682380777"><ele>334.85714285714283</ele><time>2026-03-28T16:29:57.999Z</time></trkpt><trkpt lat="44.15288459416091" lon="10.037387853532419"><ele>334.0</ele><time>2026-03-28T16:29:59.999Z</time></trkpt><trkpt lat="44.15296655067784" lon="10.037376104321595"><ele>337.5</ele><time>2026-03-28T16:30:02Z</time></trkpt><trkpt lat="44.153042837269524" lon="10.03739454898882"><ele>341.0</ele><time>2026-03-28T16:30:04Z</time></trkpt><trkpt lat="44.15312385994006" lon="10.037406588216498"><ele>344.5</ele><time>2026-03-28T16:30:06Z</time></trkpt><trkpt lat="44.153202266787574" lon="10.037380750967458"><ele>348.0</ele><time>2026-03-28T16:30:08Z</time></trkpt><trkpt lat="44.15327662154444" lon="10.037363196288995"><ele>351.5</ele><time>2026-03-28T16:30:10Z</time></trkpt><trkpt lat="44.15337367647673" lon="10.037350067918826"><ele>355.0</ele><time>2026-03-28T16:30:13Z</time></trkpt><trkpt lat="44.15345753320751" lon="10.037360744966913"><ele>356.3333333333333</ele><time>2026-03-28T16:30:15Z</time></trkpt><trkpt lat="44.15354950460394" lon="10.037371428878103"><ele>357.66666666666663</ele><time>2026-03-28T16:30:17Z</time></trkpt><trkpt lat="44.1536457472866" lon="10.037366228037184"><ele>359.0</ele><time>2026-03-28T16:30:19Z</time></trkpt><trkpt lat="44.15372206502951" lon="10.037363306609342"><ele>360.3333333333333</ele><time>2026-03-28T16:30:21Z</time></trkpt><trkpt lat="44.153787305075774" lon="10.037350588489243"><ele>361.6666666666667</ele><time>2026-03-28T16:30:23Z</time></trkpt><trkpt lat="44.15386370910138" lon="10.037374314081372"><ele>363.0</ele><time>2026-03-28T16:30:27Z</time></trkpt><trkpt lat="44.15390666383356" lon="10.037445838593879"><ele>360.6666666666667</ele><time>2026-03-28T16:30:29Z</time></trkpt><trkpt lat="44.15397125937409" lon="10.037521231516283"><ele>358.3333333333333</ele><time>2026-03-28T16:30:32Z</time></trkpt><trkpt lat="44.15404908863637" lon="10.037570040694296"><ele>356.0</ele><time>2026-03-28T16:30:35Z</time></trkpt><trkpt lat="44.154108695412965" lon="10.037615548901307"><ele>353.66666666666663</ele><time>2026-03-28T16:30:38Z</time></trkpt><trkpt lat="44.15418665230288" lon="10.03768459925761"><ele>351.3333333333333</ele><time>2026-03-28T16:30:41Z</time></trkpt><trkpt lat="44.154263021599554" lon="10.037750649526087"><ele>349.0</ele><time>2026-03-28T16:30:43Z</time></trkpt><trkpt lat="44.154357547221096" lon="10.037763479762281"><ele>348.99999999999994</ele><time>2026-03-28T16:30:45Z</time></trkpt><trkpt lat="44.154433160676945" lon="10.03779646746598"><ele>349.0</ele><time>2026-03-28T16:30:47Z</time></trkpt><trkpt lat="44.15450262407736" lon="10.037801324391832"><ele>349.0</ele><time>2026-03-28T16:30:49Z</time></trkpt><trkpt lat="44.15456277324258" lon="10.03777151565212"><ele>349.0</ele><time>2026-03-28T16:30:51Z</time></trkpt><trkpt lat="44.154620163129536" lon="10.03772571154688"><ele>349.0</ele><time>2026-03-28T16:30:53Z</time></trkpt><trkpt lat="44.15468267959608" lon="10.037693134812834"><ele>348.99999999999994</ele><time>2026-03-28T16:30:55Z</time></trkpt><trkpt lat="44.1547767457305" lon="10.037654000400494"><ele>349.0</ele><time>2026-03-28T16:30:58Z</time></trkpt><trkpt lat="44.15485700274522" lon="10.037589210808626"><ele>349.99999999999994</ele><time>2026-03-28T16:31:01Z</time></trkpt><trkpt lat="44.15492226964425" lon="10.037539984247937"><ele>351.0</ele><time>2026-03-28T16:31:03Z</time></trkpt><trkpt lat="44.15498687261973" lon="10.037494269887668"><ele>352.0</ele><time>2026-03-28T16:31:05Z</time></trkpt><trkpt lat="44.15505692123267" lon="10.037455092649399"><ele>353.0</ele><time>2026-03-28T16:31:07Z</time></trkpt><trkpt lat="44.15512356510056" lon="10.037411747385688"><ele>354.0</ele><time>2026-03-28T16:31:09Z</time></trkpt><trkpt lat="44.15519974713482" lon="10.037360479332076"><ele>354.99999999999994</ele><time>2026-03-28T16:31:11Z</time></trkpt><trkpt lat="44.15526068570663" lon="10.037325723351389"><ele>356.0</ele><time>2026-03-28T16:31:13Z</time></trkpt><trkpt lat="44.155350780440884" lon="10.03728790369794"><ele>358.6666666666667</ele><time>2026-03-28T16:31:16Z</time></trkpt><trkpt lat="44.15541243724847" lon="10.037250627481075"><ele>361.33333333333337</ele><time>2026-03-28T16:31:18Z</time></trkpt><trkpt lat="44.155463698944516" lon="10.03718068441198"><ele>364.0</ele><time>2026-03-28T16:31:21Z</time></trkpt><trkpt lat="44.15550180332407" lon="10.037109818554104"><ele>366.6666666666667</ele><time>2026-03-28T16:31:24Z</time></trkpt><trkpt lat="44.15554538947101" lon="10.037029028651173"><ele>369.3333333333333</ele><time>2026-03-28T16:31:27Z</time></trkpt><trkpt lat="44.15560852036589" lon="10.036952097016666"><ele>372.0</ele><time>2026-03-28T16:31:30Z</time></trkpt><trkpt lat="44.15568772952886" lon="10.036886994243472"><ele>370.6666666666667</ele><time>2026-03-28T16:31:33Z</time></trkpt><trkpt lat="44.15571931790338" lon="10.036806960373534"><ele>369.3333333333333</ele><time>2026-03-28T16:31:37Z</time></trkpt><trkpt lat="44.15571824442534" lon="10.036715163151598"><ele>368.0</ele><time>2026-03-28T16:31:40Z</time></trkpt><trkpt lat="44.15570178020224" lon="10.036604375829503"><ele>366.66666666666663</ele><time>2026-03-28T16:31:44Z</time></trkpt><trkpt lat="44.1556910011673" lon="10.036502257684788"><ele>365.3333333333333</ele><time>2026-03-28T16:31:47Z</time></trkpt><trkpt lat="44.15565445889815" lon="10.036384768804842"><ele>364.0</ele><time>2026-03-28T16:31:50Z</time></trkpt><trkpt lat="44.15562442993359" lon="10.036294979313084"><ele>367.3333333333333</ele><time>2026-03-28T16:31:52Z</time></trkpt><trkpt lat="44.15558365899587" lon="10.036226769797434"><ele>370.66666666666663</ele><time>2026-03-28T16:31:54Z</time></trkpt><trkpt lat="44.15552436489203" lon="10.036151724322107"><ele>374.0</ele><time>2026-03-28T16:31:56Z</time></trkpt><trkpt lat="44.15548114474132" lon="10.036072658083052"><ele>377.3333333333333</ele><time>2026-03-28T16:31:58Z</time></trkpt><trkpt lat="44.15544472377652" lon="10.035973679635484"><ele>380.6666666666667</ele><time>2026-03-28T16:32:01Z</time></trkpt><trkpt lat="44.155472248932824" lon="10.035865873295746"><ele>384.0</ele><time>2026-03-28T16:32:04Z</time></trkpt><trkpt lat="44.155526868681534" lon="10.035789153844464"><ele>385.4</ele><time>2026-03-28T16:32:05.999Z</time></trkpt><trkpt lat="44.155567971949964" lon="10.035708029815849"><ele>386.79999999999995</ele><time>2026-03-28T16:32:08Z</time></trkpt><trkpt lat="44.15563937103207" lon="10.035603924826885"><ele>388.20000000000005</ele><time>2026-03-28T16:32:10Z</time></trkpt><trkpt lat="44.155728744706586" lon="10.035546780225083"><ele>389.6</ele><time>2026-03-28T16:32:12Z</time></trkpt><trkpt lat="44.155822416404774" lon="10.035482042066223"><ele>391.0</ele><time>2026-03-28T16:32:14Z</time></trkpt><trkpt lat="44.15591878616827" lon="10.035465593451192"><ele>391.00000000000006</ele><time>2026-03-28T16:32:16Z</time></trkpt><trkpt lat="44.1560228610393" lon="10.035460989962578"><ele>391.0</ele><time>2026-03-28T16:32:18Z</time></trkpt><trkpt lat="44.15612414773487" lon="10.035467302970087"><ele>391.0</ele><time>2026-03-28T16:32:20Z</time></trkpt><trkpt lat="44.15618945097415" lon="10.035454295627328"><ele>391.0</ele><time>2026-03-28T16:32:22Z</time></trkpt><trkpt lat="44.15625381682923" lon="10.035458775986532"><ele>391.00000000000006</ele><time>2026-03-28T16:32:24Z</time></trkpt><trkpt lat="44.15634270449241" lon="10.03546441197768"><ele>391.0</ele><time>2026-03-28T16:32:26Z</time></trkpt><trkpt lat="44.156430302834345" lon="10.035468672159276"><ele>391.0</ele><time>2026-03-28T16:32:28Z</time></trkpt><trkpt lat="44.15651713451657" lon="10.035464629956033"><ele>391.0</ele><time>2026-03-28T16:32:30Z</time></trkpt><trkpt lat="44.15659385065173" lon="10.035480395677563"><ele>391.0</ele><time>2026-03-28T16:32:32Z</time></trkpt><trkpt lat="44.15668193647157" lon="10.035535257088135"><ele>391.0</ele><time>2026-03-28T16:32:34Z</time></trkpt><trkpt lat="44.1567750569628" lon="10.03557090400244"><ele>391.0</ele><time>2026-03-28T16:32:36Z</time></trkpt><trkpt lat="44.15688042232163" lon="10.035542946373566"><ele>389.6666666666667</ele><time>2026-03-28T16:32:38Z</time></trkpt><trkpt lat="44.15698949359357" lon="10.035507235560635"><ele>388.33333333333337</ele><time>2026-03-28T16:32:40Z</time></trkpt><trkpt lat="44.1570495786688" lon="10.035478496039916"><ele>387.0</ele><time>2026-03-28T16:32:43Z</time></trkpt><trkpt lat="44.15710475891109" lon="10.03542905342756"><ele>385.6666666666667</ele><time>2026-03-28T16:32:49Z</time></trkpt><trkpt lat="44.15714335286537" lon="10.035334652227323"><ele>384.33333333333337</ele><time>2026-03-28T16:32:51Z</time></trkpt><trkpt lat="44.157176210345135" lon="10.035225599832147"><ele>383.0</ele><time>2026-03-28T16:32:53Z</time></trkpt><trkpt lat="44.15716357091679" lon="10.035125341607682"><ele>383.0</ele><time>2026-03-28T16:32:55Z</time></trkpt><trkpt lat="44.15712707391377" lon="10.035020661760795"><ele>383.0</ele><time>2026-03-28T16:32:58Z</time></trkpt><trkpt lat="44.15708764840619" lon="10.034932159774288"><ele>383.0</ele><time>2026-03-28T16:33:00Z</time></trkpt><trkpt lat="44.15709419122154" lon="10.03482952597532"><ele>383.0</ele><time>2026-03-28T16:33:02Z</time></trkpt><trkpt lat="44.15711804780943" lon="10.034741439886595"><ele>383.0</ele><time>2026-03-28T16:33:04Z</time></trkpt><trkpt lat="44.15718382921099" lon="10.034764298052728"><ele>383.0</ele><time>2026-03-28T16:33:05Z</time></trkpt><trkpt lat="44.15726499610074" lon="10.034764780929951"><ele>383.0</ele><time>2026-03-28T16:33:08Z</time></trkpt><trkpt lat="44.157321578834214" lon="10.034848798765617"><ele>383.1666666666667</ele><time>2026-03-28T16:33:10Z</time></trkpt><trkpt lat="44.15738419564753" lon="10.03491159100386"><ele>383.33333333333337</ele><time>2026-03-28T16:33:12Z</time></trkpt><trkpt lat="44.15745058724845" lon="10.034971579628404"><ele>383.5</ele><time>2026-03-28T16:33:14Z</time></trkpt><trkpt lat="44.1575245537258" lon="10.035015594683358"><ele>383.6666666666667</ele><time>2026-03-28T16:33:16Z</time></trkpt><trkpt lat="44.15759281552691" lon="10.035046835739157"><ele>383.8333333333333</ele><time>2026-03-28T16:33:18Z</time></trkpt><trkpt lat="44.15766382412449" lon="10.035063883315262"><ele>384.0</ele><time>2026-03-28T16:33:20Z</time></trkpt><trkpt lat="44.15774112092987" lon="10.03507479513509"><ele>382.5</ele><time>2026-03-28T16:33:22Z</time></trkpt><trkpt lat="44.15782112044559" lon="10.03507052081996"><ele>381.0</ele><time>2026-03-28T16:33:24Z</time></trkpt><trkpt lat="44.157903027353065" lon="10.035074656724566"><ele>379.5</ele><time>2026-03-28T16:33:26Z</time></trkpt><trkpt lat="44.15798016200426" lon="10.035073389479699"><ele>378.0</ele><time>2026-03-28T16:33:35Z</time></trkpt><trkpt lat="44.15807001637957" lon="10.035071459885675"><ele>376.5</ele><time>2026-03-28T16:33:44Z</time></trkpt><trkpt lat="44.15816707758517" lon="10.035097187698954"><ele>375.0</ele><time>2026-03-28T16:33:46Z</time></trkpt><trkpt lat="44.15827476806473" lon="10.035076535001688"><ele>375.0</ele><time>2026-03-28T16:33:48Z</time></trkpt><trkpt lat="44.15839429836953" lon="10.035074641977705"><ele>375.0</ele><time>2026-03-28T16:33:50Z</time></trkpt><trkpt lat="44.15845643559557" lon="10.035045043511184"><ele>375.0</ele><time>2026-03-28T16:33:51Z</time></trkpt><trkpt lat="44.158521146888226" lon="10.034997533383052"><ele>375.0</ele><time>2026-03-28T16:33:52Z</time></trkpt><trkpt lat="44.158580288448334" lon="10.034943072844287"><ele>375.0</ele><time>2026-03-28T16:33:53Z</time></trkpt><trkpt lat="44.15863362762443" lon="10.034858211125522"><ele>375.0</ele><time>2026-03-28T16:33:55Z</time></trkpt><trkpt lat="44.15871887946659" lon="10.034837720056515"><ele>375.0</ele><time>2026-03-28T16:33:58Z</time></trkpt><trkpt lat="44.1587609881655" lon="10.034985389392213"><ele>375.0</ele><time>2026-03-28T16:34:00Z</time></trkpt><trkpt lat="44.15879214415561" lon="10.035135698290473"><ele>375.0</ele><time>2026-03-28T16:34:02Z</time></trkpt><trkpt lat="44.15888822618385" lon="10.035264716643006"><ele>375.0</ele><time>2026-03-28T16:34:03.999Z</time></trkpt><trkpt lat="44.158940376464415" lon="10.035332849161316"><ele>375.0</ele><time>2026-03-28T16:34:04.999Z</time></trkpt><trkpt lat="44.159002660128216" lon="10.035400011736577"><ele>375.8</ele><time>2026-03-28T16:34:05.999Z</time></trkpt><trkpt lat="44.159071232882695" lon="10.035457016001617"><ele>376.6</ele><time>2026-03-28T16:34:06.999Z</time></trkpt><trkpt lat="44.15915115864202" lon="10.035521024043684"><ele>377.4</ele><time>2026-03-28T16:34:08.999Z</time></trkpt><trkpt lat="44.159186672542496" lon="10.035417354499625"><ele>378.2</ele><time>2026-03-28T16:34:21Z</time></trkpt><trkpt lat="44.15912721713674" lon="10.03530277951326"><ele>379.0</ele><time>2026-03-28T16:34:23Z</time></trkpt><trkpt lat="44.15908403962286" lon="10.03516436544349"><ele>379.0</ele><time>2026-03-28T16:34:25Z</time></trkpt><trkpt lat="44.159058830086806" lon="10.035083918678987"><ele>379.0</ele><time>2026-03-28T16:34:26Z</time></trkpt><trkpt lat="44.1590275167431" lon="10.03499865882796"><ele>379.0</ele><time>2026-03-28T16:34:27Z</time></trkpt><trkpt lat="44.15899246289773" lon="10.034900911485206"><ele>379.0</ele><time>2026-03-28T16:34:28Z</time></trkpt><trkpt lat="44.1589533353956" lon="10.034796047564955"><ele>379.0</ele><time>2026-03-28T16:34:29Z</time></trkpt><trkpt lat="44.158917759015324" lon="10.034684187407317"><ele>379.0</ele><time>2026-03-28T16:34:30Z</time></trkpt><trkpt lat="44.158883718232474" lon="10.034571938291156"><ele>381.5</ele><time>2026-03-28T16:34:31Z</time></trkpt><trkpt lat="44.15885471713951" lon="10.034472076018627"><ele>384.0</ele><time>2026-03-28T16:34:32Z</time></trkpt><trkpt lat="44.15883214590487" lon="10.034375067468554"><ele>386.5</ele><time>2026-03-28T16:34:33Z</time></trkpt><trkpt lat="44.158772506504896" lon="10.034310829361576"><ele>389.0</ele><time>2026-03-28T16:34:34Z</time></trkpt><trkpt lat="44.15869148207437" lon="10.034294906626007"><ele>391.50000000000006</ele><time>2026-03-28T16:34:35Z</time></trkpt><trkpt lat="44.15860944242871" lon="10.034331831011457"><ele>394.0</ele><time>2026-03-28T16:34:36Z</time></trkpt><trkpt lat="44.15853228405506" lon="10.034342842591071"><ele>394.00000000000006</ele><time>2026-03-28T16:34:37Z</time></trkpt><trkpt lat="44.158457306462026" lon="10.034331658990734"><ele>394.0</ele><time>2026-03-28T16:34:38Z</time></trkpt><trkpt lat="44.158393297895856" lon="10.034285354740675"><ele>394.0</ele><time>2026-03-28T16:34:39Z</time></trkpt><trkpt lat="44.158336758681614" lon="10.034220520932312"><ele>394.0</ele><time>2026-03-28T16:34:40Z</time></trkpt><trkpt lat="44.158280864295605" lon="10.034146922420422"><ele>394.00000000000006</ele><time>2026-03-28T16:34:41Z</time></trkpt><trkpt lat="44.1582230222314" lon="10.03407193048073"><ele>394.0</ele><time>2026-03-28T16:34:42Z</time></trkpt><trkpt lat="44.15816448812724" lon="10.033990684980346"><ele>395.50000000000006</ele><time>2026-03-28T16:34:43Z</time></trkpt><trkpt lat="44.158103507319886" lon="10.033909578843078"><ele>397.0</ele><time>2026-03-28T16:34:44Z</time></trkpt><trkpt lat="44.158041031278636" lon="10.033833562096394"><ele>398.5</ele><time>2026-03-28T16:34:45Z</time></trkpt><trkpt lat="44.15798026279817" lon="10.033758305644495"><ele>400.0</ele><time>2026-03-28T16:34:46Z</time></trkpt><trkpt lat="44.15792048224045" lon="10.033686597201841"><ele>401.50000000000006</ele><time>2026-03-28T16:34:47Z</time></trkpt><trkpt lat="44.157856635921405" lon="10.033625032480819"><ele>403.0</ele><time>2026-03-28T16:34:48Z</time></trkpt><trkpt lat="44.15779367571883" lon="10.033561091895177"><ele>403.00000000000006</ele><time>2026-03-28T16:34:49Z</time></trkpt><trkpt lat="44.1577341464681" lon="10.033485200545124"><ele>403.0</ele><time>2026-03-28T16:34:50Z</time></trkpt><trkpt lat="44.15769221468183" lon="10.033382395634906"><ele>403.0</ele><time>2026-03-28T16:34:51Z</time></trkpt><trkpt lat="44.15766457472829" lon="10.033270923622554"><ele>403.0</ele><time>2026-03-28T16:34:52Z</time></trkpt><trkpt lat="44.15763450210724" lon="10.03316182201178"><ele>403.00000000000006</ele><time>2026-03-28T16:34:53Z</time></trkpt><trkpt lat="44.15758951458556" lon="10.033066528264367"><ele>403.0</ele><time>2026-03-28T16:34:54Z</time></trkpt><trkpt lat="44.15751789060331" lon="10.032998723718748"><ele>407.2</ele><time>2026-03-28T16:34:55Z</time></trkpt><trkpt lat="44.15742337239996" lon="10.032956522156756"><ele>411.4</ele><time>2026-03-28T16:34:56Z</time></trkpt><trkpt lat="44.15731553314359" lon="10.03292251775242"><ele>415.59999999999997</ele><time>2026-03-28T16:34:57Z</time></trkpt><trkpt lat="44.15720805873869" lon="10.032882697321874"><ele>419.79999999999995</ele><time>2026-03-28T16:34:58Z</time></trkpt><trkpt lat="44.157108857199404" lon="10.032825684258208"><ele>424.0</ele><time>2026-03-28T16:34:59Z</time></trkpt><trkpt lat="44.15702704164676" lon="10.0327896449523"><ele>424.0</ele><time>2026-03-28T16:35:00Z</time></trkpt><trkpt lat="44.15696620027525" lon="10.03276284466111"><ele>424.0</ele><time>2026-03-28T16:35:01Z</time></trkpt><trkpt lat="44.1568467948867" lon="10.032710658677962"><ele>424.0</ele><time>2026-03-28T16:35:03Z</time></trkpt><trkpt lat="44.156782603829306" lon="10.032680807428989"><ele>424.0</ele><time>2026-03-28T16:36:02Z</time></trkpt><trkpt lat="44.15669052365302" lon="10.03261796242165"><ele>424.0</ele><time>2026-03-28T16:36:05Z</time></trkpt><trkpt lat="44.15662342658164" lon="10.032508730538103"><ele>428.79999999999995</ele><time>2026-03-28T16:36:07Z</time></trkpt><trkpt lat="44.1565430763696" lon="10.032405357468951"><ele>433.59999999999997</ele><time>2026-03-28T16:36:09Z</time></trkpt><trkpt lat="44.156449801269055" lon="10.032324358452861"><ele>438.4</ele><time>2026-03-28T16:36:10.999Z</time></trkpt><trkpt lat="44.156350416534075" lon="10.032257661248641"><ele>443.2</ele><time>2026-03-28T16:36:12.999Z</time></trkpt><trkpt lat="44.156267418325825" lon="10.032262480461068"><ele>448.0</ele><time>2026-03-28T16:36:14.999Z</time></trkpt><trkpt lat="44.15619325965186" lon="10.032330065015497"><ele>445.33333333333337</ele><time>2026-03-28T16:36:16.999Z</time></trkpt><trkpt lat="44.15610966456122" lon="10.032473246287058"><ele>442.6666666666667</ele><time>2026-03-28T16:36:19Z</time></trkpt><trkpt lat="44.15607457806064" lon="10.032558681423396"><ele>440.0</ele><time>2026-03-28T16:36:20Z</time></trkpt><trkpt lat="44.1560536617972" lon="10.032650487236307"><ele>437.33333333333337</ele><time>2026-03-28T16:36:21Z</time></trkpt><trkpt lat="44.156042838251906" lon="10.032742870645292"><ele>434.6666666666667</ele><time>2026-03-28T16:36:22Z</time></trkpt><trkpt lat="44.156033683226084" lon="10.032835344712005"><ele>432.0</ele><time>2026-03-28T16:36:23Z</time></trkpt><trkpt lat="44.15602353062091" lon="10.032931605668901"><ele>432.0</ele><time>2026-03-28T16:36:24Z</time></trkpt><trkpt lat="44.155998970976455" lon="10.03305018857698"><ele>432.0</ele><time>2026-03-28T16:36:26Z</time></trkpt><trkpt lat="44.15596556557518" lon="10.033135487448709"><ele>432.0</ele><time>2026-03-28T16:36:34Z</time></trkpt><trkpt lat="44.15588466774258" lon="10.03327846218261"><ele>432.0</ele><time>2026-03-28T16:36:36Z</time></trkpt><trkpt lat="44.15582923424444" lon="10.03334924687326"><ele>432.0</ele><time>2026-03-28T16:36:37Z</time></trkpt><trkpt lat="44.155776357100976" lon="10.033410939532022"><ele>432.0</ele><time>2026-03-28T16:36:38Z</time></trkpt><trkpt lat="44.15571629127225" lon="10.03347251384622"><ele>432.0</ele><time>2026-03-28T16:36:39Z</time></trkpt><trkpt lat="44.15564168368162" lon="10.033522149624023"><ele>432.0</ele><time>2026-03-28T16:36:40Z</time></trkpt><trkpt lat="44.1555634034755" lon="10.033540754661386"><ele>432.0</ele><time>2026-03-28T16:36:41Z</time></trkpt><trkpt lat="44.15548910702637" lon="10.033510729214253"><ele>432.0</ele><time>2026-03-28T16:36:42Z</time></trkpt><trkpt lat="44.15543443256664" lon="10.03343992264807"><ele>432.0</ele><time>2026-03-28T16:36:43Z</time></trkpt><trkpt lat="44.155400963581535" lon="10.033340895282022"><ele>432.0</ele><time>2026-03-28T16:36:44Z</time></trkpt><trkpt lat="44.15536570218103" lon="10.03323610928909"><ele>432.0</ele><time>2026-03-28T16:36:45Z</time></trkpt><trkpt lat="44.155334416055304" lon="10.033113615227053"><ele>432.00000000000006</ele><time>2026-03-28T16:36:46Z</time></trkpt><trkpt lat="44.15531322171774" lon="10.032970132266058"><ele>432.00000000000006</ele><time>2026-03-28T16:36:47Z</time></trkpt><trkpt lat="44.155285490250336" lon="10.032812835438898"><ele>432.0</ele><time>2026-03-28T16:36:48Z</time></trkpt><trkpt lat="44.15524688580189" lon="10.03265498558135"><ele>432.0</ele><time>2026-03-28T16:36:49Z</time></trkpt><trkpt lat="44.155208704086235" lon="10.032499960815645"><ele>435.75</ele><time>2026-03-28T16:36:50Z</time></trkpt><trkpt lat="44.15515413313974" lon="10.032358555621176"><ele>439.5</ele><time>2026-03-28T16:36:51Z</time></trkpt><trkpt lat="44.155078811993526" lon="10.032234591938456"><ele>443.25</ele><time>2026-03-28T16:36:52Z</time></trkpt><trkpt lat="44.154982120387615" lon="10.032140083857628"><ele>447.0</ele><time>2026-03-28T16:36:53Z</time></trkpt><trkpt lat="44.1548690628826" lon="10.032075588237447"><ele>447.25</ele><time>2026-03-28T16:36:54Z</time></trkpt><trkpt lat="44.15474167859667" lon="10.032022290019448"><ele>447.5</ele><time>2026-03-28T16:36:55Z</time></trkpt><trkpt lat="44.154606829860846" lon="10.0319711619697"><ele>447.75</ele><time>2026-03-28T16:36:56Z</time></trkpt><trkpt lat="44.15447063503977" lon="10.031916561150258"><ele>448.0</ele><time>2026-03-28T16:36:57Z</time></trkpt><trkpt lat="44.15433326499518" lon="10.031858581318057"><ele>448.0</ele><time>2026-03-28T16:36:58Z</time></trkpt><trkpt lat="44.154190633832656" lon="10.031794870098652"><ele>448.0</ele><time>2026-03-28T16:36:59Z</time></trkpt><trkpt lat="44.15404623773797" lon="10.031726849079458"><ele>448.0</ele><time>2026-03-28T16:37:00Z</time></trkpt><trkpt lat="44.15389433877579" lon="10.031677993427703"><ele>448.25</ele><time>2026-03-28T16:37:01Z</time></trkpt><trkpt lat="44.15373987105659" lon="10.031650877073112"><ele>448.5</ele><time>2026-03-28T16:37:02Z</time></trkpt><trkpt lat="44.153607052611896" lon="10.031633171619513"><ele>448.75</ele><time>2026-03-28T16:37:03Z</time></trkpt><trkpt lat="44.15349437157554" lon="10.031613085368566"><ele>449.0</ele><time>2026-03-28T16:37:04Z</time></trkpt><trkpt lat="44.153387634308544" lon="10.031543539987814"><ele>447.75</ele><time>2026-03-28T16:37:05Z</time></trkpt><trkpt lat="44.15328037896478" lon="10.031435578693205"><ele>446.5</ele><time>2026-03-28T16:37:06Z</time></trkpt><trkpt lat="44.15317454098473" lon="10.031310488619111"><ele>445.25</ele><time>2026-03-28T16:37:07Z</time></trkpt><trkpt lat="44.153076392533116" lon="10.031158564369152"><ele>444.0</ele><time>2026-03-28T16:37:08Z</time></trkpt><trkpt lat="44.152994475496435" lon="10.030980159707195"><ele>447.5</ele><time>2026-03-28T16:37:09Z</time></trkpt><trkpt lat="44.15291463632812" lon="10.030795834870387"><ele>451.0</ele><time>2026-03-28T16:37:10Z</time></trkpt><trkpt lat="44.15284471607088" lon="10.030630596142338"><ele>454.5</ele><time>2026-03-28T16:37:11Z</time></trkpt><trkpt lat="44.15279066756045" lon="10.030498543801441"><ele>458.0</ele><time>2026-03-28T16:37:12Z</time></trkpt><trkpt lat="44.152745102876864" lon="10.030402955787322"><ele>458.0</ele><time>2026-03-28T16:37:13Z</time></trkpt><trkpt lat="44.15270656243428" lon="10.030327191189455"><ele>457.99999999999994</ele><time>2026-03-28T16:37:14Z</time></trkpt><trkpt lat="44.15263907331185" lon="10.030194339109261"><ele>457.99999999999994</ele><time>2026-03-28T16:37:16Z</time></trkpt><trkpt lat="44.15258280814891" lon="10.030080356193324"><ele>458.0</ele><time>2026-03-28T16:37:18Z</time></trkpt><trkpt lat="44.15254207968252" lon="10.029993715547041"><ele>458.0</ele><time>2026-03-28T16:37:20Z</time></trkpt><trkpt lat="44.15249427391126" lon="10.029871528086252"><ele>464.4</ele><time>2026-03-28T16:37:22Z</time></trkpt><trkpt lat="44.1524386175356" lon="10.0297799845342"><ele>470.79999999999995</ele><time>2026-03-28T16:37:24Z</time></trkpt><trkpt lat="44.15237305806489" lon="10.02970917388646"><ele>477.2</ele><time>2026-03-28T16:37:26Z</time></trkpt><trkpt lat="44.152281504212965" lon="10.029616042169188"><ele>483.6</ele><time>2026-03-28T16:37:28Z</time></trkpt><trkpt lat="44.1521570743535" lon="10.029571854434884"><ele>490.0</ele><time>2026-03-28T16:37:30Z</time></trkpt><trkpt lat="44.15207632749831" lon="10.029566007648846"><ele>490.6</ele><time>2026-03-28T16:37:31Z</time></trkpt><trkpt lat="44.15199309258606" lon="10.029584748692976"><ele>491.2</ele><time>2026-03-28T16:37:32Z</time></trkpt><trkpt lat="44.15189510817606" lon="10.029629528692789"><ele>491.79999999999995</ele><time>2026-03-28T16:37:33Z</time></trkpt><trkpt lat="44.15179072194405" lon="10.029683139063984"><ele>492.4</ele><time>2026-03-28T16:37:34Z</time></trkpt><trkpt lat="44.151681591717775" lon="10.029739429423703"><ele>493.0</ele><time>2026-03-28T16:37:35Z</time></trkpt><trkpt lat="44.151565792879595" lon="10.029765967702026"><ele>490.0</ele><time>2026-03-28T16:37:36Z</time></trkpt><trkpt lat="44.15145009347225" lon="10.029780014374657"><ele>487.0</ele><time>2026-03-28T16:37:37Z</time></trkpt><trkpt lat="44.151322182095704" lon="10.029789538958056"><ele>484.0</ele><time>2026-03-28T16:37:38Z</time></trkpt><trkpt lat="44.15118987858466" lon="10.02978209217192"><ele>481.0</ele><time>2026-03-28T16:37:39Z</time></trkpt><trkpt lat="44.15106584276268" lon="10.029771120230185"><ele>481.0</ele><time>2026-03-28T16:37:40Z</time></trkpt><trkpt lat="44.15096921370065" lon="10.029736027552545"><ele>481.0</ele><time>2026-03-28T16:37:41Z</time></trkpt><trkpt lat="44.150889060268874" lon="10.029668158371626"><ele>481.0</ele><time>2026-03-28T16:37:42Z</time></trkpt><trkpt lat="44.1508259673542" lon="10.029574532836682"><ele>481.0</ele><time>2026-03-28T16:37:43Z</time></trkpt><trkpt lat="44.150793735559546" lon="10.029437126526586"><ele>481.0</ele><time>2026-03-28T16:37:44Z</time></trkpt><trkpt lat="44.15075515423588" lon="10.029287103758257"><ele>478.25</ele><time>2026-03-28T16:37:45Z</time></trkpt><trkpt lat="44.15071662089563" lon="10.02912655634555"><ele>475.5</ele><time>2026-03-28T16:37:46Z</time></trkpt><trkpt lat="44.150661018285476" lon="10.028963990256978"><ele>472.75</ele><time>2026-03-28T16:37:47Z</time></trkpt><trkpt lat="44.15062456280614" lon="10.028786248480436"><ele>470.0</ele><time>2026-03-28T16:37:48Z</time></trkpt><trkpt lat="44.1505907391278" lon="10.028613345725772"><ele>470.0</ele><time>2026-03-28T16:37:49Z</time></trkpt><trkpt lat="44.150578371340146" lon="10.028434651543678"><ele>470.0</ele><time>2026-03-28T16:37:50Z</time></trkpt><trkpt lat="44.15057870832385" lon="10.028248797356328"><ele>470.0</ele><time>2026-03-28T16:37:51Z</time></trkpt><trkpt lat="44.1506100402869" lon="10.02805824353182"><ele>470.0</ele><time>2026-03-28T16:37:52Z</time></trkpt><trkpt lat="44.15061444055059" lon="10.02786189716832"><ele>473.2</ele><time>2026-03-28T16:37:53Z</time></trkpt><trkpt lat="44.150637793358804" lon="10.02769436482482"><ele>476.4</ele><time>2026-03-28T16:37:54Z</time></trkpt><trkpt lat="44.150641450804955" lon="10.027558602725339"><ele>479.6</ele><time>2026-03-28T16:37:55Z</time></trkpt><trkpt lat="44.15063605038365" lon="10.027442247322163"><ele>482.8</ele><time>2026-03-28T16:37:56Z</time></trkpt><trkpt lat="44.150597409265856" lon="10.027338446563443"><ele>486.0</ele><time>2026-03-28T16:37:57Z</time></trkpt><trkpt lat="44.15052975549627" lon="10.027260294842533"><ele>488.0</ele><time>2026-03-28T16:37:58Z</time></trkpt><trkpt lat="44.15044752538235" lon="10.027224602576066"><ele>490.0</ele><time>2026-03-28T16:37:59Z</time></trkpt><trkpt lat="44.150360298793814" lon="10.027227791656651"><ele>492.0</ele><time>2026-03-28T16:38:00Z</time></trkpt><trkpt lat="44.15028757948937" lon="10.027272246645323"><ele>494.0</ele><time>2026-03-28T16:38:01Z</time></trkpt><trkpt lat="44.15021636065813" lon="10.027306242370603"><ele>496.0</ele><time>2026-03-28T16:38:02Z</time></trkpt><trkpt lat="44.15015559464945" lon="10.027267226318319"><ele>498.0</ele><time>2026-03-28T16:38:03Z</time></trkpt><trkpt lat="44.15011493393662" lon="10.027102895083935"><ele>498.0</ele><time>2026-03-28T16:38:05Z</time></trkpt><trkpt lat="44.15012981615873" lon="10.027005533703718"><ele>498.0</ele><time>2026-03-28T16:38:06Z</time></trkpt><trkpt lat="44.15014423185382" lon="10.026912036096133"><ele>498.0</ele><time>2026-03-28T16:38:07Z</time></trkpt><trkpt lat="44.15013449177812" lon="10.02678418220089"><ele>498.0</ele><time>2026-03-28T16:38:08Z</time></trkpt><trkpt lat="44.15010164173981" lon="10.026674989534783"><ele>498.0</ele><time>2026-03-28T16:38:09Z</time></trkpt><trkpt lat="44.15003721519581" lon="10.026590184546118"><ele>498.0</ele><time>2026-03-28T16:38:10Z</time></trkpt><trkpt lat="44.149968526069145" lon="10.026512171591113"><ele>498.0</ele><time>2026-03-28T16:38:11Z</time></trkpt><trkpt lat="44.149880655689785" lon="10.026478358807738"><ele>497.99999999999994</ele><time>2026-03-28T16:38:12Z</time></trkpt><trkpt lat="44.149806355604575" lon="10.026410936880273"><ele>497.99999999999994</ele><time>2026-03-28T16:38:13Z</time></trkpt><trkpt lat="44.14976801503069" lon="10.026300251242644"><ele>498.0</ele><time>2026-03-28T16:38:14Z</time></trkpt><trkpt lat="44.149756142764076" lon="10.026169095282139"><ele>498.0</ele><time>2026-03-28T16:38:15Z</time></trkpt><trkpt lat="44.14975133423807" lon="10.026033956069922"><ele>498.0</ele><time>2026-03-28T16:38:16Z</time></trkpt><trkpt lat="44.14977250336577" lon="10.025896128453995"><ele>498.0</ele><time>2026-03-28T16:38:17Z</time></trkpt><trkpt lat="44.149815890787444" lon="10.025781059418948"><ele>498.0</ele><time>2026-03-28T16:38:18Z</time></trkpt><trkpt lat="44.149854591598825" lon="10.025674637803604"><ele>498.0</ele><time>2026-03-28T16:38:19Z</time></trkpt><trkpt lat="44.14987927495335" lon="10.025569014375607"><ele>498.0</ele><time>2026-03-28T16:38:20Z</time></trkpt><trkpt lat="44.14989224806522" lon="10.025471347359549"><ele>498.0</ele><time>2026-03-28T16:38:21Z</time></trkpt><trkpt lat="44.149843931968995" lon="10.025363555380824"><ele>500.0</ele><time>2026-03-28T16:38:22Z</time></trkpt><trkpt lat="44.14976288220789" lon="10.025307803494067"><ele>501.99999999999994</ele><time>2026-03-28T16:38:23Z</time></trkpt><trkpt lat="44.14966407895831" lon="10.025302883986065"><ele>503.99999999999994</ele><time>2026-03-28T16:38:24Z</time></trkpt><trkpt lat="44.14956797506138" lon="10.025239273746392"><ele>506.0</ele><time>2026-03-28T16:38:25.001Z</time></trkpt><trkpt lat="44.14947850310772" lon="10.025142851529907"><ele>508.0</ele><time>2026-03-28T16:38:26.001Z</time></trkpt><trkpt lat="44.149393736052566" lon="10.02504014684233"><ele>508.0</ele><time>2026-03-28T16:38:27.001Z</time></trkpt><trkpt lat="44.149319433666776" lon="10.02493231176336"><ele>507.99999999999994</ele><time>2026-03-28T16:38:28.001Z</time></trkpt><trkpt lat="44.14925106488769" lon="10.02486644161042"><ele>507.99999999999994</ele><time>2026-03-28T16:38:29.001Z</time></trkpt><trkpt lat="44.14919064633135" lon="10.024817751205887"><ele>508.0</ele><time>2026-03-28T16:38:30.001Z</time></trkpt><trkpt lat="44.14910143827063" lon="10.02484835973992"><ele>508.0</ele><time>2026-03-28T16:38:31.001Z</time></trkpt><trkpt lat="44.14904333652326" lon="10.024987789377565"><ele>507.79999999999995</ele><time>2026-03-28T16:38:32.001Z</time></trkpt><trkpt lat="44.14897252181956" lon="10.0251004605168"><ele>507.59999999999997</ele><time>2026-03-28T16:38:33.001Z</time></trkpt><trkpt lat="44.14889035811408" lon="10.025216867806902"><ele>507.40000000000003</ele><time>2026-03-28T16:38:34.001Z</time></trkpt><trkpt lat="44.14880743635378" lon="10.025302308091147"><ele>507.20000000000005</ele><time>2026-03-28T16:38:35.001Z</time></trkpt><trkpt lat="44.14871098321353" lon="10.025321651368216"><ele>507.0</ele><time>2026-03-28T16:38:36.001Z</time></trkpt><trkpt lat="44.1486124125392" lon="10.025321178348367"><ele>507.0</ele><time>2026-03-28T16:38:37.001Z</time></trkpt><trkpt lat="44.14850775446105" lon="10.025305918603856"><ele>507.00000000000006</ele><time>2026-03-28T16:38:38.001Z</time></trkpt><trkpt lat="44.14840294047317" lon="10.02527034548571"><ele>507.00000000000006</ele><time>2026-03-28T16:38:39Z</time></trkpt><trkpt lat="44.14833630296926" lon="10.025148327905766"><ele>507.0</ele><time>2026-03-28T16:38:40Z</time></trkpt><trkpt lat="44.14825186213545" lon="10.025041646188368"><ele>507.0</ele><time>2026-03-28T16:38:41Z</time></trkpt><trkpt lat="44.14817728935073" lon="10.024907298244988"><ele>511.0</ele><time>2026-03-28T16:38:42Z</time></trkpt><trkpt lat="44.148100765347955" lon="10.024805950665614"><ele>515.0</ele><time>2026-03-28T16:38:43Z</time></trkpt><trkpt lat="44.1480198995021" lon="10.024757967463604"><ele>519.0</ele><time>2026-03-28T16:38:44Z</time></trkpt><trkpt lat="44.147927645143774" lon="10.024755754107657"><ele>523.0</ele><time>2026-03-28T16:38:45Z</time></trkpt><trkpt lat="44.14783013557508" lon="10.024782088064494"><ele>527.0</ele><time>2026-03-28T16:38:46Z</time></trkpt><trkpt lat="44.14772923168214" lon="10.024826552073945"><ele>527.0</ele><time>2026-03-28T16:38:47Z</time></trkpt><trkpt lat="44.14761874861688" lon="10.02488042757531"><ele>527.0</ele><time>2026-03-28T16:38:48Z</time></trkpt><trkpt lat="44.147514628242234" lon="10.024931449685921"><ele>527.0</ele><time>2026-03-28T16:38:49Z</time></trkpt><trkpt lat="44.14742892076707" lon="10.024963784652238"><ele>527.0</ele><time>2026-03-28T16:38:50Z</time></trkpt><trkpt lat="44.14736274972987" lon="10.024963853289167"><ele>527.0</ele><time>2026-03-28T16:38:51Z</time></trkpt><trkpt lat="44.14724867722874" lon="10.024878705059471"><ele>524.8000000000001</ele><time>2026-03-28T16:38:53Z</time></trkpt><trkpt lat="44.14718026383739" lon="10.02480603227013"><ele>522.6</ele><time>2026-03-28T16:38:54Z</time></trkpt><trkpt lat="44.147101461178735" lon="10.02472574220349"><ele>520.4000000000001</ele><time>2026-03-28T16:38:55Z</time></trkpt><trkpt lat="44.14701110675364" lon="10.024633232506627"><ele>518.2</ele><time>2026-03-28T16:38:56Z</time></trkpt><trkpt lat="44.14691280336849" lon="10.024545740419827"><ele>516.0</ele><time>2026-03-28T16:38:57Z</time></trkpt><trkpt lat="44.146816385464106" lon="10.02447856568072"><ele>516.0</ele><time>2026-03-28T16:38:58Z</time></trkpt><trkpt lat="44.14673554444679" lon="10.024429719274002"><ele>516.0</ele><time>2026-03-28T16:38:59Z</time></trkpt><trkpt lat="44.146663350462205" lon="10.024394942094522"><ele>516.0</ele><time>2026-03-28T16:39:00Z</time></trkpt><trkpt lat="44.146594033493564" lon="10.024376188682286"><ele>516.0</ele><time>2026-03-28T16:39:01Z</time></trkpt><trkpt lat="44.1465197579039" lon="10.024373853903903"><ele>516.0</ele><time>2026-03-28T16:39:02Z</time></trkpt><trkpt lat="44.14644276536539" lon="10.024411033939677"><ele>516.0</ele><time>2026-03-28T16:39:03Z</time></trkpt><trkpt lat="44.14636846809326" lon="10.024494507987045"><ele>514.0</ele><time>2026-03-28T16:39:04Z</time></trkpt><trkpt lat="44.14629653634395" lon="10.024586366317193"><ele>512.0</ele><time>2026-03-28T16:39:05Z</time></trkpt><trkpt lat="44.146216649193434" lon="10.024683701502868"><ele>510.0</ele><time>2026-03-28T16:39:06Z</time></trkpt><trkpt lat="44.14613415109729" lon="10.024768859111738"><ele>508.0</ele><time>2026-03-28T16:39:07Z</time></trkpt><trkpt lat="44.14604987834575" lon="10.0248437347516"><ele>506.0</ele><time>2026-03-28T16:39:08Z</time></trkpt><trkpt lat="44.14595749679534" lon="10.024902753644025"><ele>506.0</ele><time>2026-03-28T16:39:09Z</time></trkpt><trkpt lat="44.14585812482209" lon="10.0249433181156"><ele>506.0</ele><time>2026-03-28T16:39:10Z</time></trkpt><trkpt lat="44.14575206151031" lon="10.024954242497337"><ele>506.0</ele><time>2026-03-28T16:39:11Z</time></trkpt><trkpt lat="44.14565055407663" lon="10.024941255182922"><ele>506.0</ele><time>2026-03-28T16:39:12Z</time></trkpt><trkpt lat="44.14555016398952" lon="10.024904974467754"><ele>506.0</ele><time>2026-03-28T16:39:13Z</time></trkpt><trkpt lat="44.14544436295111" lon="10.024839773519272"><ele>506.49999999999994</ele><time>2026-03-28T16:39:14Z</time></trkpt><trkpt lat="44.145338221007634" lon="10.024789429703262"><ele>507.0</ele><time>2026-03-28T16:39:15Z</time></trkpt><trkpt lat="44.14525740108574" lon="10.024744869769906"><ele>507.5</ele><time>2026-03-28T16:39:16Z</time></trkpt><trkpt lat="44.14519714995334" lon="10.024686982130667"><ele>508.0</ele><time>2026-03-28T16:39:18Z</time></trkpt><trkpt lat="44.145140772135626" lon="10.02461790430805"><ele>508.49999999999994</ele><time>2026-03-28T16:39:20Z</time></trkpt><trkpt lat="44.14509889080262" lon="10.024538124849563"><ele>509.0</ele><time>2026-03-28T16:39:21Z</time></trkpt><trkpt lat="44.145057585315904" lon="10.024435982289537"><ele>509.0</ele><time>2026-03-28T16:39:22Z</time></trkpt><trkpt lat="44.14499382764097" lon="10.024347413512993"><ele>509.0</ele><time>2026-03-28T16:39:23Z</time></trkpt><trkpt lat="44.144906372892066" lon="10.024288975351757"><ele>509.0</ele><time>2026-03-28T16:39:24Z</time></trkpt><trkpt lat="44.14481299262178" lon="10.024227132225157"><ele>509.0</ele><time>2026-03-28T16:39:25Z</time></trkpt><trkpt lat="44.1447140665616" lon="10.024174356036305"><ele>509.0</ele><time>2026-03-28T16:39:26Z</time></trkpt><trkpt lat="44.14461128497849" lon="10.024130445360136"><ele>512.6</ele><time>2026-03-28T16:39:27Z</time></trkpt><trkpt lat="44.1445183452663" lon="10.02409608817987"><ele>516.2</ele><time>2026-03-28T16:39:28Z</time></trkpt><trkpt lat="44.14444288690644" lon="10.024051007747024"><ele>519.8000000000001</ele><time>2026-03-28T16:39:29Z</time></trkpt><trkpt lat="44.144381044555786" lon="10.023972156263294"><ele>523.4</ele><time>2026-03-28T16:39:30Z</time></trkpt><trkpt lat="44.144329624559276" lon="10.023859047366491"><ele>527.0</ele><time>2026-03-28T16:39:31Z</time></trkpt><trkpt lat="44.14432336231916" lon="10.023702301878982"><ele>527.0</ele><time>2026-03-28T16:39:32Z</time></trkpt><trkpt lat="44.14431813099522" lon="10.023535702632932"><ele>527.0</ele><time>2026-03-28T16:39:33Z</time></trkpt><trkpt lat="44.144291528759716" lon="10.023357890713397"><ele>527.0</ele><time>2026-03-28T16:39:34Z</time></trkpt><trkpt lat="44.14427051144347" lon="10.023169237109338"><ele>527.0</ele><time>2026-03-28T16:39:35Z</time></trkpt><trkpt lat="44.14424234023651" lon="10.022977910091207"><ele>525.0</ele><time>2026-03-28T16:39:36Z</time></trkpt><trkpt lat="44.14419942340509" lon="10.022780620105946"><ele>523.0</ele><time>2026-03-28T16:39:37Z</time></trkpt><trkpt lat="44.14416063359664" lon="10.022572807818932"><ele>521.0</ele><time>2026-03-28T16:39:38Z</time></trkpt><trkpt lat="44.144145780995686" lon="10.022348450089513"><ele>520.0</ele><time>2026-03-28T16:39:39Z</time></trkpt><trkpt lat="44.14411787381129" lon="10.022119710291681"><ele>519.0</ele><time>2026-03-28T16:39:40Z</time></trkpt><trkpt lat="44.144089015562635" lon="10.021886967613229"><ele>518.0</ele><time>2026-03-28T16:39:41Z</time></trkpt><trkpt lat="44.144065373213216" lon="10.0216486533152"><ele>517.6666666666666</ele><time>2026-03-28T16:39:42Z</time></trkpt><trkpt lat="44.14405865460804" lon="10.02140384899361"><ele>517.3333333333334</ele><time>2026-03-28T16:39:43Z</time></trkpt><trkpt lat="44.14404457080068" lon="10.021167252865283"><ele>517.0</ele><time>2026-03-28T16:39:44Z</time></trkpt><trkpt lat="44.144000191855426" lon="10.020974501773258"><ele>517.0</ele><time>2026-03-28T16:39:45Z</time></trkpt><trkpt lat="44.14397945444675" lon="10.020809069153852"><ele>517.0</ele><time>2026-03-28T16:39:46Z</time></trkpt><trkpt lat="44.143966533067726" lon="10.020671329972421"><ele>517.0</ele><time>2026-03-28T16:39:47Z</time></trkpt><trkpt lat="44.143960425222424" lon="10.020571392392213"><ele>517.0</ele><time>2026-03-28T16:39:48Z</time></trkpt><trkpt lat="44.14399951910152" lon="10.02045864524737"><ele>517.0</ele><time>2026-03-28T16:39:50Z</time></trkpt><trkpt lat="44.14406908120658" lon="10.020331466336165"><ele>517.0</ele><time>2026-03-28T16:39:52Z</time></trkpt><trkpt lat="44.14407649143805" lon="10.020195512421123"><ele>517.0</ele><time>2026-03-28T16:39:54Z</time></trkpt><trkpt lat="44.14404698449097" lon="10.020081401131334"><ele>517.0</ele><time>2026-03-28T16:39:56Z</time></trkpt><trkpt lat="44.14394962581995" lon="10.020033374901343"><ele>517.0</ele><time>2026-03-28T16:39:58Z</time></trkpt><trkpt lat="44.143823181054" lon="10.019985068636474"><ele>517.0</ele><time>2026-03-28T16:40:00Z</time></trkpt><trkpt lat="44.14375638129598" lon="10.019962169538228"><ele>515.3333333333334</ele><time>2026-03-28T16:40:01Z</time></trkpt><trkpt lat="44.143685251963774" lon="10.019947447072267"><ele>513.6666666666667</ele><time>2026-03-28T16:40:02Z</time></trkpt><trkpt lat="44.143615676921584" lon="10.019932373803794"><ele>512.0</ele><time>2026-03-28T16:40:03Z</time></trkpt><trkpt lat="44.14355109365698" lon="10.019920208107377"><ele>510.33333333333337</ele><time>2026-03-28T16:40:04Z</time></trkpt><trkpt lat="44.14344823400214" lon="10.019883324233561"><ele>508.6666666666667</ele><time>2026-03-28T16:40:06Z</time></trkpt><trkpt lat="44.14340824739952" lon="10.019801788410561"><ele>507.0</ele><time>2026-03-28T16:40:08Z</time></trkpt><trkpt lat="44.14334823389546" lon="10.01972019624213"><ele>507.0</ele><time>2026-03-28T16:40:54Z</time></trkpt><trkpt lat="44.143301215507385" lon="10.019658538336063"><ele>507.0</ele><time>2026-03-28T16:40:55Z</time></trkpt><trkpt lat="44.14324477058082" lon="10.019590820313104"><ele>507.0</ele><time>2026-03-28T16:40:56Z</time></trkpt><trkpt lat="44.14315545747903" lon="10.019494748168462"><ele>507.0</ele><time>2026-03-28T16:40:58Z</time></trkpt><trkpt lat="44.14312670431815" lon="10.019405929202891"><ele>507.0</ele><time>2026-03-28T16:41:00Z</time></trkpt><trkpt lat="44.14313139419175" lon="10.019316997533801"><ele>507.0</ele><time>2026-03-28T16:41:02Z</time></trkpt><trkpt lat="44.14318465015634" lon="10.019179938778633"><ele>504.5</ele><time>2026-03-28T16:41:04Z</time></trkpt><trkpt lat="44.14320086340186" lon="10.019003953403786"><ele>502.0</ele><time>2026-03-28T16:41:06Z</time></trkpt><trkpt lat="44.14320178748345" lon="10.018905938244854"><ele>499.5</ele><time>2026-03-28T16:41:07Z</time></trkpt><trkpt lat="44.14320372281773" lon="10.018796504567302"><ele>497.0</ele><time>2026-03-28T16:41:08Z</time></trkpt><trkpt lat="44.14319381547749" lon="10.018683442009335"><ele>494.5</ele><time>2026-03-28T16:41:09Z</time></trkpt><trkpt lat="44.14318996116228" lon="10.01855921710066"><ele>492.0</ele><time>2026-03-28T16:41:10Z</time></trkpt><trkpt lat="44.14314421931482" lon="10.018443419637823"><ele>491.0</ele><time>2026-03-28T16:41:11Z</time></trkpt><trkpt lat="44.14311802013868" lon="10.018316218632998"><ele>490.00000000000006</ele><time>2026-03-28T16:41:12Z</time></trkpt><trkpt lat="44.143076195798855" lon="10.018204222839374"><ele>489.00000000000006</ele><time>2026-03-28T16:41:13Z</time></trkpt><trkpt lat="44.14303458031769" lon="10.01809258408031"><ele>488.0</ele><time>2026-03-28T16:41:14Z</time></trkpt><trkpt lat="44.14299178603736" lon="10.017981253681617"><ele>487.0</ele><time>2026-03-28T16:41:15Z</time></trkpt><trkpt lat="44.14294009522256" lon="10.017880195570248"><ele>487.0</ele><time>2026-03-28T16:41:16Z</time></trkpt><trkpt lat="44.14292164647631" lon="10.017764701087774"><ele>487.00000000000006</ele><time>2026-03-28T16:41:17Z</time></trkpt><trkpt lat="44.14289648851466" lon="10.017648621943367"><ele>487.00000000000006</ele><time>2026-03-28T16:41:18Z</time></trkpt><trkpt lat="44.14288074534808" lon="10.017523919026189"><ele>487.0</ele><time>2026-03-28T16:41:19Z</time></trkpt><trkpt lat="44.14286304344305" lon="10.017384292581438"><ele>487.0</ele><time>2026-03-28T16:41:20Z</time></trkpt><trkpt lat="44.14283381773688" lon="10.017254015374697"><ele>486.50000000000006</ele><time>2026-03-28T16:41:21Z</time></trkpt><trkpt lat="44.14282859476029" lon="10.017128136527685"><ele>486.0</ele><time>2026-03-28T16:41:22Z</time></trkpt><trkpt lat="44.14281964116846" lon="10.017006924467642"><ele>485.5</ele><time>2026-03-28T16:41:23Z</time></trkpt><trkpt lat="44.14280579510892" lon="10.01688792258146"><ele>485.0</ele><time>2026-03-28T16:41:24Z</time></trkpt><trkpt lat="44.142781017207454" lon="10.016765425966417"><ele>484.50000000000006</ele><time>2026-03-28T16:41:25Z</time></trkpt><trkpt lat="44.14275568646658" lon="10.016653045517142"><ele>484.0</ele><time>2026-03-28T16:41:26Z</time></trkpt><trkpt lat="44.142746872833115" lon="10.016535923522062"><ele>483.2</ele><time>2026-03-28T16:41:27Z</time></trkpt><trkpt lat="44.14271474882728" lon="10.01643358381501"><ele>482.4</ele><time>2026-03-28T16:41:28Z</time></trkpt><trkpt lat="44.142695632418466" lon="10.016349163449465"><ele>481.6</ele><time>2026-03-28T16:41:29Z</time></trkpt><trkpt lat="44.14273866706023" lon="10.016164633270542"><ele>480.8</ele><time>2026-03-28T16:41:31Z</time></trkpt><trkpt lat="44.142754343681844" lon="10.016049833062413"><ele>480.0</ele><time>2026-03-28T16:41:32Z</time></trkpt><trkpt lat="44.142769724078576" lon="10.015935958419174"><ele>480.0</ele><time>2026-03-28T16:41:33Z</time></trkpt><trkpt lat="44.142789170307196" lon="10.015834797592804"><ele>480.0</ele><time>2026-03-28T16:41:34Z</time></trkpt><trkpt lat="44.142834769349854" lon="10.015694203977471"><ele>480.0</ele><time>2026-03-28T16:41:36Z</time></trkpt><trkpt lat="44.142890674254645" lon="10.01556742516938"><ele>480.0</ele><time>2026-03-28T16:41:38Z</time></trkpt><trkpt lat="44.14292470089053" lon="10.01549352716025"><ele>480.0</ele><time>2026-03-28T16:41:39Z</time></trkpt><trkpt lat="44.142947257065345" lon="10.01540337178997"><ele>480.0</ele><time>2026-03-28T16:41:40Z</time></trkpt><trkpt lat="44.14297430523143" lon="10.015320285101852"><ele>479.14285714285717</ele><time>2026-03-28T16:41:41Z</time></trkpt><trkpt lat="44.14298529043057" lon="10.015228866527814"><ele>478.2857142857142</ele><time>2026-03-28T16:41:42Z</time></trkpt><trkpt lat="44.142990074587324" lon="10.015131785807531"><ele>477.4285714285714</ele><time>2026-03-28T16:41:43Z</time></trkpt><trkpt lat="44.1429941796197" lon="10.015028291451506"><ele>476.57142857142856</ele><time>2026-03-28T16:41:44Z</time></trkpt><trkpt lat="44.14299800875039" lon="10.014924431963614"><ele>475.71428571428567</ele><time>2026-03-28T16:41:45Z</time></trkpt><trkpt lat="44.14300967932717" lon="10.014818902299515"><ele>474.8571428571428</ele><time>2026-03-28T16:41:46Z</time></trkpt><trkpt lat="44.14302254211029" lon="10.014715416713232"><ele>473.99999999999994</ele><time>2026-03-28T16:41:47Z</time></trkpt><trkpt lat="44.143035168263374" lon="10.014622359366777"><ele>473.8333333333333</ele><time>2026-03-28T16:41:48Z</time></trkpt><trkpt lat="44.143028433747205" lon="10.014527374312433"><ele>473.66666666666663</ele><time>2026-03-28T16:41:49Z</time></trkpt><trkpt lat="44.14302406947702" lon="10.01443038381324"><ele>473.5</ele><time>2026-03-28T16:41:50Z</time></trkpt><trkpt lat="44.142999640720134" lon="10.014349372324244"><ele>473.3333333333333</ele><time>2026-03-28T16:41:51Z</time></trkpt><trkpt lat="44.14297306927202" lon="10.014267226590897"><ele>473.16666666666663</ele><time>2026-03-28T16:41:54Z</time></trkpt><trkpt lat="44.142912867550805" lon="10.014178896899308"><ele>473.0</ele><time>2026-03-28T16:58:37Z</time></trkpt><trkpt lat="44.142866555942575" lon="10.014048621214563"><ele>472.8333333333333</ele><time>2026-03-28T16:58:39Z</time></trkpt><trkpt lat="44.142796100829095" lon="10.013930212153571"><ele>472.66666666666663</ele><time>2026-03-28T16:58:41Z</time></trkpt><trkpt lat="44.142788471960124" lon="10.013837969322104"><ele>472.5</ele><time>2026-03-28T16:58:42Z</time></trkpt><trkpt lat="44.14275796326414" lon="10.013756664511988"><ele>472.33333333333337</ele><time>2026-03-28T16:58:43Z</time></trkpt><trkpt lat="44.14271018800696" lon="10.013619721527073"><ele>472.1666666666667</ele><time>2026-03-28T16:58:45Z</time></trkpt><trkpt lat="44.14266973944853" lon="10.013501884834168"><ele>472.0</ele><time>2026-03-28T16:58:47Z</time></trkpt><trkpt lat="44.142629449734216" lon="10.013387300885698"><ele>471.1428571428571</ele><time>2026-03-28T16:58:49Z</time></trkpt><trkpt lat="44.14259269352404" lon="10.013289259923955"><ele>470.28571428571433</ele><time>2026-03-28T16:58:51Z</time></trkpt><trkpt lat="44.14254987508537" lon="10.013222122648633"><ele>469.42857142857144</ele><time>2026-03-28T16:58:52.999Z</time></trkpt><trkpt lat="44.142506942156395" lon="10.013124107521747"><ele>468.57142857142856</ele><time>2026-03-28T16:58:54.999Z</time></trkpt><trkpt lat="44.142484227965205" lon="10.013036965658547"><ele>467.71428571428567</ele><time>2026-03-28T16:58:56.999Z</time></trkpt><trkpt lat="44.14249335910506" lon="10.012948484057905"><ele>466.8571428571429</ele><time>2026-03-28T16:58:58.999Z</time></trkpt><trkpt lat="44.14249674883938" lon="10.012828291040348"><ele>466.0</ele><time>2026-03-28T16:59:00.999Z</time></trkpt><trkpt lat="44.14250149295716" lon="10.01268185229242"><ele>466.00000000000006</ele><time>2026-03-28T16:59:02.999Z</time></trkpt><trkpt lat="44.14249428110432" lon="10.012495010394847"><ele>466.0</ele><time>2026-03-28T16:59:04.999Z</time></trkpt><trkpt lat="44.142505264610854" lon="10.012381302420188"><ele>466.0</ele><time>2026-03-28T16:59:05.999Z</time></trkpt><trkpt lat="44.14250813069836" lon="10.012269186142001"><ele>466.0</ele><time>2026-03-28T16:59:06.999Z</time></trkpt><trkpt lat="44.14250698078499" lon="10.012171918331576"><ele>466.00000000000006</ele><time>2026-03-28T16:59:07.999Z</time></trkpt><trkpt lat="44.142525287636154" lon="10.012087927192024"><ele>466.0</ele><time>2026-03-28T16:59:08.999Z</time></trkpt><trkpt lat="44.14254294416481" lon="10.011919719697145"><ele>463.8</ele><time>2026-03-28T16:59:10.999Z</time></trkpt><trkpt lat="44.14256724093138" lon="10.011809168150844"><ele>461.6</ele><time>2026-03-28T16:59:11.999Z</time></trkpt><trkpt lat="44.142591813355125" lon="10.011701808864679"><ele>459.4</ele><time>2026-03-28T16:59:12.999Z</time></trkpt><trkpt lat="44.14263097467243" lon="10.011613448198245"><ele>457.2</ele><time>2026-03-28T16:59:13.999Z</time></trkpt><trkpt lat="44.14269142655359" lon="10.011492591169263"><ele>455.0</ele><time>2026-03-28T16:59:15.999Z</time></trkpt><trkpt lat="44.14274470335891" lon="10.011350748580732"><ele>454.1428571428571</ele><time>2026-03-28T16:59:17.999Z</time></trkpt><trkpt lat="44.14278199201806" lon="10.011271148291234"><ele>453.2857142857143</ele><time>2026-03-28T16:59:18.999Z</time></trkpt><trkpt lat="44.14281704215862" lon="10.011190541826103"><ele>452.42857142857144</ele><time>2026-03-28T16:59:19.999Z</time></trkpt><trkpt lat="44.14285007167794" lon="10.011106894581108"><ele>451.57142857142856</ele><time>2026-03-28T16:59:20.999Z</time></trkpt><trkpt lat="44.14287485786248" lon="10.011006529455518"><ele>450.71428571428567</ele><time>2026-03-28T16:59:21.999Z</time></trkpt><trkpt lat="44.142891891544515" lon="10.010896416233585"><ele>449.85714285714283</ele><time>2026-03-28T16:59:22.999Z</time></trkpt><trkpt lat="44.142895513590425" lon="10.010785431259123"><ele>449.0</ele><time>2026-03-28T16:59:24Z</time></trkpt><trkpt lat="44.142892625606976" lon="10.010661868284666"><ele>447.8333333333333</ele><time>2026-03-28T16:59:25Z</time></trkpt><trkpt lat="44.14289440080709" lon="10.01054552388728"><ele>446.66666666666663</ele><time>2026-03-28T16:59:26Z</time></trkpt><trkpt lat="44.142905288177985" lon="10.010434277004247"><ele>445.5</ele><time>2026-03-28T16:59:27Z</time></trkpt><trkpt lat="44.14290790153162" lon="10.010337165274281"><ele>444.33333333333337</ele><time>2026-03-28T16:59:28Z</time></trkpt><trkpt lat="44.14289709567452" lon="10.010239117019612"><ele>443.1666666666667</ele><time>2026-03-28T16:59:29Z</time></trkpt><trkpt lat="44.142893645298365" lon="10.010132275481661"><ele>442.0</ele><time>2026-03-28T16:59:30Z</time></trkpt><trkpt lat="44.14285074144069" lon="10.010031181504694"><ele>440.6666666666667</ele><time>2026-03-28T16:59:31Z</time></trkpt><trkpt lat="44.1428015197819" lon="10.009938982549423"><ele>439.33333333333337</ele><time>2026-03-28T16:59:32Z</time></trkpt><trkpt lat="44.14275165673976" lon="10.009850470913461"><ele>438.0</ele><time>2026-03-28T16:59:33Z</time></trkpt><trkpt lat="44.14269787508506" lon="10.009777383141076"><ele>436.66666666666663</ele><time>2026-03-28T16:59:34Z</time></trkpt><trkpt lat="44.14263640579719" lon="10.009727769511372"><ele>435.3333333333333</ele><time>2026-03-28T16:59:35Z</time></trkpt><trkpt lat="44.14257776684384" lon="10.009683933532042"><ele>434.0</ele><time>2026-03-28T16:59:36Z</time></trkpt><trkpt lat="44.1424745207748" lon="10.009605984984423"><ele>434.0</ele><time>2026-03-28T16:59:38Z</time></trkpt><trkpt lat="44.14238380311818" lon="10.00953938459402"><ele>434.0</ele><time>2026-03-28T16:59:40Z</time></trkpt><trkpt lat="44.14228373009413" lon="10.009471091037613"><ele>434.0</ele><time>2026-03-28T16:59:42Z</time></trkpt><trkpt lat="44.14218038456421" lon="10.009379275989625"><ele>434.0</ele><time>2026-03-28T16:59:44Z</time></trkpt><trkpt lat="44.14212668246297" lon="10.009321085651253"><ele>434.0</ele><time>2026-03-28T16:59:45Z</time></trkpt><trkpt lat="44.14207068825067" lon="10.009257552785941"><ele>433.66666666666663</ele><time>2026-03-28T16:59:46Z</time></trkpt><trkpt lat="44.14199886287474" lon="10.009202018454296"><ele>433.3333333333333</ele><time>2026-03-28T16:59:47Z</time></trkpt><trkpt lat="44.14194758026311" lon="10.009129589967392"><ele>433.0</ele><time>2026-03-28T16:59:48Z</time></trkpt><trkpt lat="44.14189347611354" lon="10.009075859640355"><ele>432.66666666666663</ele><time>2026-03-28T16:59:49Z</time></trkpt><trkpt lat="44.14184675761706" lon="10.00900924715207"><ele>432.3333333333333</ele><time>2026-03-28T16:59:50Z</time></trkpt><trkpt lat="44.14177216109915" lon="10.008980688604938"><ele>432.0</ele><time>2026-03-28T16:59:51Z</time></trkpt><trkpt lat="44.14168805482147" lon="10.008967449406395"><ele>430.0</ele><time>2026-03-28T16:59:52Z</time></trkpt><trkpt lat="44.141585893854895" lon="10.008965719100486"><ele>428.00000000000006</ele><time>2026-03-28T16:59:53Z</time></trkpt><trkpt lat="44.141463904738444" lon="10.008933955305393"><ele>426.0</ele><time>2026-03-28T16:59:54Z</time></trkpt><trkpt lat="44.14135225226274" lon="10.008903554671772"><ele>424.0</ele><time>2026-03-28T16:59:55Z</time></trkpt><trkpt lat="44.14125087985718" lon="10.008848143546487"><ele>422.0</ele><time>2026-03-28T16:59:56Z</time></trkpt><trkpt lat="44.141156937630875" lon="10.008825923292958"><ele>421.66666666666663</ele><time>2026-03-28T16:59:57Z</time></trkpt><trkpt lat="44.14107789842041" lon="10.008775075603051"><ele>421.3333333333333</ele><time>2026-03-28T16:59:58Z</time></trkpt><trkpt lat="44.14102238126831" lon="10.008682597041489"><ele>421.0</ele><time>2026-03-28T16:59:59Z</time></trkpt><trkpt lat="44.140962632765756" lon="10.008602090844702"><ele>420.66666666666663</ele><time>2026-03-28T17:00:00Z</time></trkpt><trkpt lat="44.140902711468115" lon="10.008535719911336"><ele>420.3333333333333</ele><time>2026-03-28T17:00:01Z</time></trkpt><trkpt lat="44.14084718438582" lon="10.008474312305193"><ele>420.0</ele><time>2026-03-28T17:00:02Z</time></trkpt><trkpt lat="44.1407653752925" lon="10.00840489760815"><ele>420.0</ele><time>2026-03-28T17:00:04Z</time></trkpt><trkpt lat="44.14068968778417" lon="10.00841666567995"><ele>420.0</ele><time>2026-03-28T17:00:06Z</time></trkpt><trkpt lat="44.140649219404736" lon="10.008545110300583"><ele>420.0</ele><time>2026-03-28T17:00:08Z</time></trkpt><trkpt lat="44.14068873702104" lon="10.008667821972203"><ele>420.0</ele><time>2026-03-28T17:00:09Z</time></trkpt><trkpt lat="44.14070047926651" lon="10.008796705552994"><ele>420.0</ele><time>2026-03-28T17:00:10Z</time></trkpt><trkpt lat="44.14073068766605" lon="10.008928481686157"><ele>420.0</ele><time>2026-03-28T17:00:11Z</time></trkpt><trkpt lat="44.14078449159623" lon="10.009101182429154"><ele>420.0</ele><time>2026-03-28T17:00:13Z</time></trkpt><trkpt lat="44.14083066793238" lon="10.009191255480088"><ele>420.0</ele><time>2026-03-28T17:00:14Z</time></trkpt><trkpt lat="44.14089013003928" lon="10.009279707807947"><ele>420.0</ele><time>2026-03-28T17:00:15Z</time></trkpt><trkpt lat="44.14095030030195" lon="10.009372886443117"><ele>420.0</ele><time>2026-03-28T17:00:16Z</time></trkpt><trkpt lat="44.14100216165607" lon="10.009459584847836"><ele>419.4</ele><time>2026-03-28T17:00:17Z</time></trkpt><trkpt lat="44.14106198556302" lon="10.009615173286058"><ele>418.8</ele><time>2026-03-28T17:00:19Z</time></trkpt><trkpt lat="44.14103756828363" lon="10.009789735237565"><ele>418.20000000000005</ele><time>2026-03-28T17:00:21Z</time></trkpt><trkpt lat="44.141014009175834" lon="10.00988412857598"><ele>417.6</ele><time>2026-03-28T17:00:22Z</time></trkpt><trkpt lat="44.14099584296814" lon="10.009983151821494"><ele>417.0</ele><time>2026-03-28T17:00:23Z</time></trkpt><trkpt lat="44.14097046247738" lon="10.010068589995779"><ele>415.40000000000003</ele><time>2026-03-28T17:00:24Z</time></trkpt><trkpt lat="44.14095502929916" lon="10.010247765610229"><ele>413.8</ele><time>2026-03-28T17:00:26Z</time></trkpt><trkpt lat="44.14096597534996" lon="10.010360753056945"><ele>412.2</ele><time>2026-03-28T17:00:27Z</time></trkpt><trkpt lat="44.14098648580225" lon="10.010491674755551"><ele>410.6</ele><time>2026-03-28T17:00:28Z</time></trkpt><trkpt lat="44.14098334599073" lon="10.010649159261241"><ele>409.0</ele><time>2026-03-28T17:00:29Z</time></trkpt><trkpt lat="44.140984110916534" lon="10.010795483899756"><ele>408.4</ele><time>2026-03-28T17:00:30Z</time></trkpt><trkpt lat="44.14098158654565" lon="10.01092215174067"><ele>407.79999999999995</ele><time>2026-03-28T17:00:31Z</time></trkpt><trkpt lat="44.14097554832984" lon="10.01102541501845"><ele>407.20000000000005</ele><time>2026-03-28T17:00:32Z</time></trkpt><trkpt lat="44.14096048310026" lon="10.011143430491686"><ele>406.6</ele><time>2026-03-28T17:00:34Z</time></trkpt><trkpt lat="44.140894991058296" lon="10.010974419264441"><ele>406.0</ele><time>2026-03-28T17:00:40Z</time></trkpt><trkpt lat="44.14084628728642" lon="10.010835132506509"><ele>406.6</ele><time>2026-03-28T17:00:41Z</time></trkpt><trkpt lat="44.140800344153014" lon="10.01069116194604"><ele>407.20000000000005</ele><time>2026-03-28T17:00:42Z</time></trkpt><trkpt lat="44.14073467282783" lon="10.010587749035157"><ele>407.79999999999995</ele><time>2026-03-28T17:00:43Z</time></trkpt><trkpt lat="44.140655909466844" lon="10.010494690265482"><ele>408.4</ele><time>2026-03-28T17:00:44Z</time></trkpt><trkpt lat="44.14057153110892" lon="10.010401637961857"><ele>409.0</ele><time>2026-03-28T17:00:45Z</time></trkpt><trkpt lat="44.14050718648263" lon="10.010282384039517"><ele>405.5</ele><time>2026-03-28T17:00:46Z</time></trkpt><trkpt lat="44.140424666013" lon="10.010177096372752"><ele>402.0</ele><time>2026-03-28T17:00:47Z</time></trkpt><trkpt lat="44.14036898663745" lon="10.010022298301669"><ele>398.5</ele><time>2026-03-28T17:00:48Z</time></trkpt><trkpt lat="44.14031501336128" lon="10.009881573279179"><ele>395.0</ele><time>2026-03-28T17:00:49Z</time></trkpt><trkpt lat="44.140279199283945" lon="10.009746527205458"><ele>394.99999999999994</ele><time>2026-03-28T17:00:50Z</time></trkpt><trkpt lat="44.14025886906813" lon="10.009612616125592"><ele>395.0</ele><time>2026-03-28T17:00:51Z</time></trkpt><trkpt lat="44.14021603053383" lon="10.009519586789766"><ele>395.0</ele><time>2026-03-28T17:00:52Z</time></trkpt><trkpt lat="44.14017950979133" lon="10.00943894185433"><ele>395.0</ele><time>2026-03-28T17:00:53Z</time></trkpt><trkpt lat="44.140129296257285" lon="10.009378028423786"><ele>394.99999999999994</ele><time>2026-03-28T17:00:54Z</time></trkpt><trkpt lat="44.14002323889528" lon="10.009291461335772"><ele>395.0</ele><time>2026-03-28T17:00:56Z</time></trkpt><trkpt lat="44.139968847939436" lon="10.009246072330594"><ele>395.0</ele><time>2026-03-28T17:00:57Z</time></trkpt><trkpt lat="44.13988573242225" lon="10.009164635620836"><ele>395.0</ele><time>2026-03-28T17:00:59Z</time></trkpt><trkpt lat="44.13983292101438" lon="10.009110227365973"><ele>386.0</ele><time>2026-03-28T17:01:00.999Z</time></trkpt><trkpt lat="44.13978195495693" lon="10.009049697712555"><ele>386.0</ele><time>2026-03-28T17:01:04.999Z</time></trkpt></trkseg></trk></gpx>